Aviation Digital Data Service (ADDS)

Output produced by METARs form (1605 UTC 21 September 2014)
found at http://aviationweather.gov/adds/metars/
 
K04W 211601Z AUTO 32013G17KT 10SM SCT022 BKN030 BKN037 14/10 A3012 RMK AO2
K06D 211555Z AUTO 34009KT 10SM CLR 15/09 A3026 RMK AO2
K08D 211555Z AUTO 29005KT 10SM CLR 14/07 A3029 RMK AO2
K0A9 211555Z AUTO 27006KT 10SM BKN031 BKN035 23/16 A3001 RMK
K0CO 211555Z AUTO 26006KT 10SM CLR 07/06 A3075 RMK AO2
K0E0 211555Z AUTO 09008G14KT 10SM SCT028 BKN048 22/12 A3040 RMK AO2 T02200119
K0F2 211555Z AUTO 17004KT 10SM CLR 29/18 A3014 RMK AO2 T02870180
K0J4 211558Z AUTO VRB04KT 10SM CLR 28/18 A3008 RMK AO2 SLP181 T02780178 $
K0R0 211555Z AUTO VRB03KT 10SM CLR 28/19 A3006 RMK AO2
K0V4 211555Z AUTO 10SM CLR 28/19 A2987 RMK AO1 T02840190
K0VG 211555Z AUTO 00000KT 10SM BKN034 21/18 A3002 RMK AO2
K11R 211555Z AUTO 10003KT 10SM CLR 30/22 A3008 RMK AO2 T02960220
K12N 211554Z AUTO 21003KT 23/16 A2983 RMK AO1 SLP096 T02280156
K14Y 211600Z AUTO 32008KT 10SM SCT016 OVC026 13/09 A3017 RMK AO2
K19A 211555Z AUTO 29010G15KT 10SM CLR 27/17 A3004 RMK AO2
K1A5 211555Z AUTO 00000KT 10SM 20/14 A3009 RMK AO2 T02040142
K1A6 211555Z AUTO 19005KT 10SM SCT032 BKN043 BKN050 24/19 A2998 RMK AO2 T02410186
K1A9 211555Z AUTO 00000KT 10SM CLR 27/19 A3006 RMK AO2 T02730187
K1B7 211545Z 08014KT 10SM FEW020 29/25 A3001
K1F0 211555Z AUTO 00000KT 10SM CLR 28/17 A3012 RMK AO2
K1H2 211555Z AUTO 30010G17KT 10SM CLR 23/09 A3000 RMK AO2 T02270085
K1II 211555Z AUTO 28009KT 10SM CLR 21/10 A2991 RMK AO2
K1J0 211558Z AUTO 10SM CLR 27/18 A3006 RMK AO2 SLP138 T02720183 PWINO $
K1L0 211555Z AUTO 07004KT 10SM SCT028 30/21 A3004 RMK AO2 T02950208
K1M4 211556Z AUTO 24009KT 10SM CLR 27/18 A3010 RMK AO2 T02720183 SLP204
K1P1 211555Z AUTO 04005KT 10SM OVC016 20/18 A2984 RMK AO2 T02000182
K1R7 211555Z AUTO 03005KT 9SM CLR 28/19 A3010 RMK AO2
K1V4 211554Z AUTO 22/15 A2977 RMK AO1 SLP073 T02220150
K1V6 211550Z AUTO 07009KT 10SM SCT044 OVC050 19/12 A3041 RMK AO2
K1YT 211556Z AUTO 24002KT 10SM CLR 19/07 A2999 RMK AO2 SLPNO T01850072
K20U 211555Z AUTO 29003KT 10SM 17/03 A3033 RMK AO2
K20V 211554Z AUTO 23003KT 10SM CLR 15/05 A3044 RMK AO2
K21D 211551Z AUTO 35007KT 10SM SCT019 BKN025 BKN031 13/10 A3011 RMK AO2
K24J 211555Z AUTO 08003KT 10SM CLR 28/18 A3006 RMK AO1
K2C8 211555Z AUTO 31010KT 10SM BKN008 OVC013 12/10 A3023 RMK AO2
K2D5 211555Z AUTO 34012KT 10SM 15/11 A3025 RMK AO2
K2DP 211556Z AUTO M 10SM BKN013 25/21 A2977 RMK AO2 SLPNO T02500208 $
K2G4 211545Z AUTO 25009G18KT 4SM BR SCT015 BKN023 OVC060 18/18 A2989 RMK AO1
K2I0 211555Z AUTO 32010G16KT 10SM OVC018 26/21 A2996 RMK AO2 T02600211
K2V5 211555Z AUTO 00000KT 10SM BKN120 19/03 A3039 RMK AO2 T01890029
K2W6 211544Z AUTO 05003KT 10SM CLR 22/17 A2983 RMK AO1
K2WX 211556Z AUTO 27003KT 17/03 A3028 RMK AO1 SLP248 T01670028
K33V 211554Z AUTO 00000KT 10SM CLR 12/05 A3045 RMK AO2
K36U 211550Z AUTO 00000KT 10SM RA SCT038 BKN060 OVC080 12/10 A3028 RMK AO2
K3I2 211555Z AUTO 22010G15KT 10SM SCT023 BKN029 OVC040 26/19 A2984 RMK AO2
K3J7 211555Z AUTO 20006KT 10SM CLR 27/17 A3001 RMK AO2
K3K3 211555Z AUTO 10015G18KT 10SM CLR 22/05 A3036 RMK AO2
K3LF 211555Z AUTO 28013G16KT 10SM CLR 22/12 A3002 RMK AO2 T02160117
K3N8 211555Z AUTO 34010KT 10SM OVC010 12/10 A3021 RMK AO2 T01170100
K3R7 211555Z AUTO 06005KT 10SM CLR 28/22 A3005 RMK AO2 T02810222
K3T5 211555Z AUTO 09006KT 10SM SCT021 SCT035 BKN042 29/24 A3006 RMK AO2 T02900238
K40B 211516Z AUTO 19014G20KT 20/13 A2976 RMK AO1 SLP079 T02020131 58008
K40J 211555Z AUTO 10004KT 10SM CLR 27/16 A3004 RMK AO2
K42J 211555Z AUTO 05005KT 10SM 28/14 A3004 RMK AO1 TSNO
K46D 211555Z AUTO 30007KT 10SM CLR 15/10 A3027 RMK AO2
K4A6 211555Z AUTO 23007KT 200V260 10SM CLR 27/18 A3005 RMK AO2
K4A9 211555Z AUTO 28012G18KT 10SM SCT050 27/15 A3005 RMK AO2
K4I3 211556Z AUTO 25012G17KT 10SM SCT037 SCT046 23/16 A2977 RMK AO2
K4I7 211555Z AUTO 28007G16KT 261V331 10SM CLR 20/11 A2993 RMK AO2
K4M9 211555Z AUTO 34010KT 320V020 10SM 27/22 A3004 RMK AO2
K4MR 211556Z AUTO 04010KT 10SM BKN017 22/17 A3029 RMK AO2 SLP205 T02220171
K4O4 211555Z AUTO 25004KT 10SM CLR 30/20 A3010 RMK AO2
K54J 211555Z AUTO 11006KT 10SM CLR 27/18 A3007 RMK AO2 T02730176
K5C1 211555Z AUTO 08006KT 10SM SCT018 SCT025 BKN035 26/20 A3013 RMK AO1
K5H4 211555Z AUTO 34006KT 10SM CLR 15/09 A3027 RMK AO2
K5M9 211555Z AUTO 32008KT 10SM SCT015 BKN021 BKN026 24/20 A2999 RMK AO2 T02380201
K5R8 211555Z AUTO 00000KT 10SM CLR 27/21 A3006 RMK AO2 T02740211
K5SM 211558Z AUTO 00000KT 10SM -RA OVC035 09/07 A3066 RMK AO2
K5W8 211555Z AUTO 24005KT 10SM CLR 25/17 A2992 RMK AO2 T02530168
K65S 211555Z AUTO 00000KT 10SM CLR 14/08 A3013 RMK AO2
K6A2 211555Z AUTO 25008KT 10SM CLR 26/17 A3008 RMK AO2
K6B0 211555Z AUTO 17009G15KT 10SM CLR 25/15 A2975 RMK AO2 T02540145
K6R3 211555Z AUTO 00000KT 7SM CLR 29/23 A3008 RMK AO2 T02860227
K6R6 211553Z AUTO 10010KT 26/22 A3012 RMK AO1 SLP165 T02610222
K79J 211556Z AUTO VRB04KT 10SM CLR 31/18 A3006 RMK AO2 SLP175 T03110178
K7BM 211554Z AUTO 16006KT M1/4SM FG OVC001 11/09 A3062 RMK AO2
K7L2 211555Z AUTO 31005KT 10SM CLR 15/08 A3029 RMK AO2
K7R3 211423Z 05008KT 10SM CLR 27/23 A3003
K7R4 211245Z 04004KT 5SM HZ FEW020 22/17 A3002
K7W4 211555Z AUTO 00000KT 10SM CLR 24/17 A2984 RMK AO1 T02400172
K82V 211555Z AUTO 14010KT 10SM SCT060 OVC065 16/02 A3042 RMK AO2
K8A0 211555Z AUTO 24009KT 10SM BKN050 27/20 A3007 RMK AO2
K8D3 211556Z AUTO 34013G18KT 16/11 A3022 RMK AO1 SLP225 T01610106
K8S0 211545Z 06004KT
K8W2 211555Z AUTO 22006KT 10SM CLR 27/15 A2982 RMK AO1 T02650152
K96D 211555Z AUTO 34009KT 10SM 13/13 A3023 RMK AO2
K9D7 211555Z AUTO 34007KT 10SM CLR 16/10 A3025 RMK AO2
K9F2 211006Z 05008KT 7SM SKC 26/23 A2996
K9L2 211555Z AUTO 16003KT 10SM CLR 19/09 A3000 RMK AO2 SLP145 T01890089 $
K9MN 211552Z AUTO 31015G21KT 10SM BKN020 OVC025 14/08 A3009 RMK AO1 T01350081
K9V9 211555Z AUTO 32004KT 10SM CLR 17/07 A3030 RMK AO2 T01690066
KAAA 211555Z AUTO 29009G15KT 240V330 10SM CLR 22/10 A2996 RMK AO2 T02150103
KAAF 211553Z AUTO 08010KT 060V120 10SM CLR 29/20 A3003 RMK AO2 SLP170 T02890200 TSNO $
KAAO 211554Z AUTO 04015G22KT 10SM CLR 25/05 A3022 RMK AO2 SLP221 T02500050
KAAT 211555Z AUTO 06005KT 10SM CLR 18/07 A3008 RMK AO2 SLP147 T01780072
KABE 211551Z 00000KT 8SM OVC009 19/15 A2984 RMK AO2 SLP101 T01890150
KABI 211552Z 15006KT 10SM FEW016 SCT080 27/21 A3016 RMK AO2 SLP188 T02670211
KABQ 211552Z 10016G26KT 10SM FEW035 SCT050 SCT150 BKN300 23/12 A3032 RMK AO2 PK WND 10026/1530 SLP185 MTN TOPS OBSC NE-SE T02280122
KABR 211553Z AUTO 01008KT 10SM CLR 17/09 A3027 RMK AO2 SLP249 T01720094 $
KABY 211553Z 35003KT 10SM CLR 28/18 A3007 RMK AO2 SLP182 T02830178 PNO $
KACB 211556Z AUTO 36007G14KT 10SM RA BKN010 BKN019 OVC033 12/11 A2974 RMK AO2 T01210107
KACJ 211555Z AUTO 30003KT 10SM CLR 26/16 A3008 RMK AO2
KACK 211553Z 12012KT 10SM SCT004 21/19 A2988 RMK AO2 SLP118 T02110189
KACP 211555Z AUTO 00000KT 10SM CLR 29/22 A3006 RMK AO2 T02880222
KACQ 211554Z AUTO 35008KT 10SM SCT019 13/07 A3014 RMK AO2
KACT 211551Z 33004KT 10SM SCT060 29/21 A3011 RMK AO2 SLP187 T02940206 $
KACV 211553Z AUTO 00000KT 8SM OVC005 16/14 A2998 RMK AO2 SLP155 T01560144 $
KACY 211554Z 07006KT 10SM SCT012 24/20 A2980 RMK AO2 SLP090 T02390200
KADC 211553Z AUTO 33008KT 10SM SCT014 OVC029 13/10 A3017 RMK AO2
KADF 211556Z AUTO 00000KT 10SM -RA CLR 31/23 A3008 RMK AO2 T03050227 RAB49 P0000 SLP198 $
KADG 211553Z AUTO 27014G24KT 10SM BKN040 BKN050 18/10 A2973 RMK AO2 SLP067 T01830100
KADH 211555Z AUTO 28004KT 10SM OVC085 28/21 A3013 RMK AO2
KADM 211555Z 25003KT 10SM SKC 29/21 A3012
KADS 211547Z 22004KT 13SM SKC 29/18 A3012
KADU 211555Z AUTO 35013KT 10SM CLR 18/08 A3019 RMK AO2
KADW 211558Z AUTO VRB02KT 10SM CLR 24/18 A2983 RMK AO2 SLP106 T02380175 $
KAEG 211550Z 09015KT 10SM SCT030 SCT200 22/12 A3036
KAEJ 211555Z AUTO 13005KT 7SM SCT015 OVC023 13/11 A3052 RMK AO2 T01250106
KAEL 211552Z AUTO 33013G17KT 10SM OVC022 14/10 A3013 RMK AO2
KAEX 211553Z 00000KT 10SM CLR 30/21 A3005 RMK AO2 SLP180 T03000211
KAFF 211558Z AUTO 17010KT 10SM BKN016 16/11 A3045 RMK AO2 SLP239 T01580106
KAFJ 211555Z AUTO 22008KT 10SM OVC016 21/18 A2980 RMK AO1
KAFK 211555Z AUTO 35013G16KT 10SM 20/04 A3022 RMK AO2 T01970039
KAFN 211552Z AUTO 17007KT 10SM OVC008 20/19 A2988 RMK AO2 RAB1459E08 CIG 005V010 SLP120 P0000 T02000189
KAFO 211555Z AUTO 00000KT 10SM CLR 10/06 A3030 RMK AO2
KAFP 211555Z AUTO 25007KT 7SM CLR 27/15 A2993 RMK AO2 T02690153
KAFW 211553Z 33003KT 10SM FEW045 FEW250 29/18 A3011 RMK AO2 SLP181 T02890178 $
KAGC 211553Z 18006KT 7SM OVC015 21/17 A2977 RMK AO2 SLP079 T02060172
KAGS 211553Z 30011KT 10SM CLR 29/17 A3000 RMK AO2 SLP156 T02890167
KAHN 211551Z 27006KT 10SM CLR 28/17 A3003 RMK AO2 SLP163 T02830167
KAHQ 211555Z AUTO 34007KT 10SM CLR 19/07 A3024 RMK AO2 T01910073
KAIA 211553Z AUTO 10004KT 10SM OVC075 17/03 A3039 RMK AO2 SLP273 T01720033
KAIB 211555Z AUTO 10006KT 10SM BKN060 OVC120 18/11 A3035 RMK AO2
KAIG 211555Z AUTO 36020G29KT 10SM OVC027 10/05 A2996 RMK AO2 T00980054
KAIK 211615Z AUTO 28010G17KT 10SM CLR 27/18 A3003 RMK AO2 PNO
KAIO 211555Z AUTO 35012G19KT 10SM CLR 17/10 A3018 RMK AO2
KAIT 211554Z AUTO 33007KT 290V360 10SM SCT018 BKN025 OVC029 14/09 A3013 RMK AO2
KAIZ 211555Z AUTO 33003KT 10SM CLR 22/09 A3013 RMK AO1
KAJG 211555Z AUTO 32014G18KT 10SM CLR 24/11 A2998 RMK AO2
KAJL 211555Z AUTO 06008KT 10SM CLR 06/01 A3055 RMK AO2 T00590011
KAJO 211556Z AUTO 31004KT 10SM OVC015 19/16 A3001 RMK AO2 T01940155 SLP155 $
KAJZ 211555Z AUTO 11007KT 10SM RA CLR 19/15 A3034 RMK AO2 T01850152
KAKH 211554Z AUTO VRB06KT 10SM CLR 26/17 A2996 RMK AO2 SLP137 T02560172
KAKO 211553Z AUTO 13014KT 10SM OVC110 17/03 A3040 RMK AO2 SLP255 T01720033
KAKQ 211554Z AUTO 35006KT 10SM CLR 24/18 A2983 RMK AO2 SLP099 T02440178 TSNO
KAKR 211554Z AUTO 25016G22KT 10SM SCT036 BKN048 BKN065 26/16 A2971 RMK AO2 PK WND 26029/1508 SLP051 T02560156
KALB 211551Z 17016KT 10SM FEW018 BKN250 23/16 A2978 RMK AO2 SLP083 T02330161
KALI 211553Z AUTO 05010KT 10SM BKN012 BKN080 BKN110 27/24 A3002 RMK AO2 SLP162 T02720244
KALK 211556Z AUTO 07006KT 10SM CLR 23/17 A3019 RMK AO2 SLP136 T02330172 TSNO
KALM 211555Z AUTO 00000KT 10SM FEW080 23/17 A3022 RMK AO2
KALN 211550Z 30015G20KT 10SM SKC 22/08 A3004
KALO 211554Z 33014KT 10SM OVC022 14/09 A3008 RMK AO2 SLP187 T01390094
KALS 211552Z AUTO VRB05KT 10SM CLR 19/08 A3046 RMK AO2 SLP216 T01890078
KALW 211553Z 00000KT 10SM CLR 19/08 A2997 RMK AO2 SLP144 T01940078
KALX 211555Z AUTO 28007KT 10SM CLR 27/18 A3008 RMK AO2 T02660182
KAMA 211553Z 35004KT 10SM FEW040 FEW060 FEW075 24/19 A3026 RMK AO2 RAE04 SLP199 P0002 T02440194
KAMG 211553Z AUTO VRB06KT 10SM CLR 28/16 A3004 RMK AO2 SLP170 T02830161
KAMN 211550Z AUTO 26010G15KT 10SM SCT019 BKN046 OVC055 16/13 A2966 RMK AO2 T01610126
KAMW 211553Z AUTO 33015G22KT 10SM CLR 18/09 A3013 RMK AO2 PK WND 33026/1529 SLP198 T01780094
KANB 211553Z AUTO 23008KT 10SM CLR 27/18 A3008 RMK AO2 SLP176 T02720183
KAND 211556Z AUTO 26010KT 10SM CLR 27/17 A3001 RMK AO2 SLP153 T02720172
KANE 211550Z 33011KT 10SM BKN022 14/10 A3012
KANJ 211555Z AUTO 35009G18KT 10SM OVC023 11/06 A2977 RMK AO2 SLP080 T01110056
KANK 211555Z AUTO 27003KT 7SM SCT004 BKN017 OVC025 13/12 A3058 RMK AO1 T01320122
KANQ 211555Z AUTO 27012KT 10SM SCT043 OVC049 17/11 A2977 RMK
KANW 211555Z AUTO 34010KT 10SM CLR 18/04 A3034 RMK AO2 T01800043
KAOH 211553Z AUTO 29013G23KT 10SM CLR 21/12 A2979 RMK AO2 SLP082 T02060117
KAOO 211553Z AUTO 20008KT 10SM FEW047 BKN070 BKN110 23/18 A2980 RMK AO2 SLP081 T02330178
KAPA 211553Z 00000KT 10SM BKN060 BKN200 16/08 A3041 RMK AO2 SLP255 T01560078
KAPC 211554Z AUTO 28010KT 10SM OVC018 18/14 A2999 RMK AO2 SLP146 T01830144
KAPF 211553Z 23005KT 10SM FEW030 29/23 A3000 RMK AO2 SLP157 T02940228 $
KAPN 211554Z AUTO 02017G21KT 10SM OVC009 11/11 A2968 RMK AO2 RAE29 CIG 008V015 SLP050 P0002 T01110111 $
KAPY 211555Z AUTO 03007KT 020V090 10SM SCT022 BKN049 BKN070 30/22 A3001 RMK AO2 T03000222
KAQO 211555Z AUTO 15006KT 10SM FEW022 SCT028 SCT036 28/21 A3015 RMK AO2
KAQP 211555Z AUTO 34012KT 10SM SCT019 17/10 A3020 RMK AO2
KAQR 211555Z AUTO 25005KT 10SM CLR 29/18 A3012 RMK AO2
KAQV 211556Z AUTO 03005KT 10SM CLR 30/20 A3007 RMK AO2 SLP178 T03000200
KAQW 211552Z AUTO VRB03KT 10SM CLR 26/15 A2981 RMK AO2 SLP093 T02560150
KARA 211553Z 04008KT 10SM CLR 29/21 A3005 RMK AO2 SLP174 T02890211
KARB 211553Z 29016G25KT 10SM FEW047 BKN055 18/09 A2970 RMK AO2 PK WND 27028/1523 SLP053 T01780089 $
KARG 211555Z AUTO 32010G15KT 10SM CLR 26/17 A3003 RMK AO1
KARM 211555Z AUTO 07008KT 10SM CLR 29/22 A3005 RMK AO2 T02890224
KARR 211552Z 31014G24KT 10SM BKN030 OVC036 16/10 A2991 RMK AO2 PK WND 31026/1504 SLP126 T01610100
KART 211556Z AUTO 17008G16KT 3SM -RA BKN044 BKN060 OVC110 20/16 A2962 RMK AO2 SLP026 P0011 T02000161
KARV 211555Z AUTO 01012G20KT 10SM BKN022 OVC027 10/06 A3001 RMK AO2 T00960057
KARW 211555Z AUTO 31008KT 7SM CLR 27/17 A2999 RMK AO2
KASD 211553Z AUTO 04007KT 10SM CLR 28/20 A3004 RMK AO2 SLP172 T02830200
KASE 211553Z 00000KT 10SM FEW075 BKN100 OVC110 14/07 A3045 RMK AO2 SLP205 T01440067
KASG 211548Z 34006KT 3SM -RA BR BKN009 OVC014 22/21 A3017
KASH 211551Z VRB04KT 6SM BR OVC014 23/21 A2986 RMK AO2 T02270205 SLP356 $
KASJ 211555Z AUTO 32004KT 10SM CLR 22/18 A2984 RMK AO2 T02150180
KASL 211555Z AUTO 28005KT 10SM CLR 32/20 A3011 RMK AO1 T03150197
KASN 211555Z AUTO 26007KT 10SM CLR 29/19 A3008 RMK AO2 T02910194
KAST 211555Z AUTO 12004KT 10SM OVC007 15/13 A2990 RMK AO2 SLP126 T01500128 $
KASW 211555Z AUTO 27017G21KT 10SM SCT027 BKN034 OVC040 16/11 A2981 RMK AO2
KASX 211553Z AUTO 36013KT 10SM FEW023 OVC035 11/06 A3009 RMK AO2 SLP193 T01110061
KATL 211552Z 25008KT 10SM FEW040 SCT250 28/17 A3006 RMK AO2 SLP170 T02780167
KATP 211555Z AUTO 03009KT 8SM BKN017 BKN026 OVC041 28/24 A2998 RMK A01
KATT 211551Z AUTO 12006KT 10SM CLR 28/22 A3010 RMK AO2 SLP180 T02780217
KATW 211545Z 33013KT 10SM BKN015 BKN025 14/12 A2990
KATY 211553Z AUTO 35014KT 10SM CLR 17/09 A3023 RMK AO2 SLP237 T01670089
KAUG 211553Z AUTO 18010G16KT 1/2SM FG VV002 17/17 A2989 RMK AO2 RAE15 SLP124 P0002 T01720167
KAUH 211555Z AUTO 34009KT 10SM CLR 20/05 A3028 RMK AO2 T01960054
KAUM 211555Z AUTO 33010G17KT 10SM OVC018 13/09 A3011 RMK AO2
KAUN 211555Z AUTO 14005KT 10SM CLR 19/13 A2997 RMK AO1
KAUO 211555Z 00000KT 10SM CLR 26/14 A3012 RMK AO1
KAUS 211553Z 06007KT 10SM SCT025 29/22 A3008 RMK AO2 SLP176 T02890222 $
KAUW 211554Z AUTO 34015G24KT 10SM SCT027 BKN033 BKN040 12/06 A2996 RMK AO2 SLP152 T01170061
KAVC 211555Z AUTO 00000KT 10SM CLR 27/17 A2991 RMK AO2
KAVK 211555Z AUTO 07016G21KT 10SM BKN100 25/09 A3022 RMK AO2
KAVL 211554Z 35008KT 10SM CLR 24/16 A3004 RMK AO2 SLP150 T02390161
KAVP 211554Z AUTO VRB05KT 10SM CLR 26/15 A2980 RMK AO2 SLP082 T02560150
KAVX 211551Z AUTO 00000KT 10SM OVC016 18/13 A3003 RMK AO2 SLP154 T01780133
KAWG 211555Z AUTO 32017G26KT 10SM CLR 19/09 A3005 RMK AO2
KAWM 211553Z AUTO VRB04KT 10SM BKN050 29/21 A3002 RMK AO2 SLP162 T02940211 $
KAWO 211555Z AUTO 00000KT 10SM CLR 13/11 A2988 RMK AO1
KAXA 211555Z AUTO 36011G18KT 10SM SCT032 SCT038 16/09 A3016 RMK AO2
KAXH 211555Z AUTO 04007G14KT 10SM CLR 25/18 A3006 RMK AO2 T02450180
KAXN 211553Z AUTO 34010KT 10SM OVC021 13/10 A3020 RMK AO2 SLP230 T01330100
KAXS 211555Z AUTO 29003KT 10SM CLR 29/20 A3017 RMK AO2 T02880198
KAXV 211554Z AUTO 28015G21KT 10SM CLR 20/08 A2981 RMK AO2
KAXX 211555Z AUTO 00000KT 10SM SCT035 SCT044 SCT050 16/08 A3053 RMK AO2 T01600084
KAZC 211555Z AUTO 06007KT 10SM BKN060 OVC070 18/16 A3021 RMK AO2 LTG DSNT NE T01800158
KAZE 211555Z AUTO 31004KT 10SM CLR 29/17 A3004 RMK AO2 T02860172
KAZO 211553Z COR 29010KT 5SM -RA BKN017 BKN027 OVC050 14/12 A2976 RMK AO2 RAB1454E24B40 SLP077 P0001 T01440117
KBAB 211558Z AUTO 16010KT 10SM FEW160 19/13 A2991 RMK AO2 SLP203 T01910134 $
KBAC 211555Z AUTO 35008G14KT 10SM BKN020 15/12 A3025 RMK AO2
KBAD 211558Z AUTO 31006KT 10SM CLR 31/19 A3008 RMK AO2 SLP187 T03050194
KBAF 211555Z 23003KT 1 1/4SM BR OVC004 19/18 A2985 RMK AO2 T01940183
KBAK 211359Z 30012G22KTS 10SM SCT020 22/18 A2988
KBAN 211552Z AUTO 00000KT CLR 12/06 A3022 RMK AO2 SLP160 T01170061 $
KBAX 211556Z AUTO 26012G17KT 10SM BKN015 OVC020 16/14 A2961 RMK AO2 T01600140
KBAZ 211551Z 09008KT 10SM SCT025 BKN030 28/22 A3007 RMK AO2 SLP173 T02830217
KBBB 211554Z AUTO 01009KT 10SM BKN013 OVC021 14/11 A3021 RMK AO2 PWINO
KBBD 211555Z AUTO 10005KT 10SM BKN090 26/20 A3015 RMK
KBBF 211555Z AUTO 13008G19KT 090V170 5SM HZ SCT022 SCT038 28/24 A3000 RMK A01
KBBG 211545Z 36010KT 10SM FEW110 25/18 A3015
KBBP 211555Z AUTO 26003KT 10SM CLR 27/15 A2993 RMK AO2
KBBW 211553Z AUTO 36009KT 10SM CLR 21/04 A3033 RMK AO2 SLP259 T02060044
KBCB 211555Z AUTO 29008KT 10SM CLR 23/19 A2996 RMK AO2
KBCE 211601Z AUTO 32003KT 4SM RA BR FEW007 BKN011 OVC045 12/11 A3037 RMK AO2 LTG DSNT SW P0001 T01220111
KBCK 211555Z AUTO 35013G18KT 330V030 10SM BKN027 OVC034 16/09 A3001 RMK AO2 T01560085
KBCT 211455Z 20003KT 10SM CLR M/M A3001
KBDE 211553Z AUTO 35005KT 10SM SCT019 SCT025 14/09 A3017 RMK AO2 SLP223 T01390089 TSNO
KBDH 211555Z AUTO 32014G17KT 10SM SCT020 14/10 A3020 RMK AO2
KBDL 211551Z 00000KT 10SM -RA FEW005 BKN014 BKN200 22/19 A2984 RMK AO2 RAB46 SLP103 P0000 T02220194
KBDN 211555Z AUTO 00000KT 10SM CLR 18/08 A3007 RMK AO2
KBDR 211552Z 07005KT 10SM OVC019 23/21 A2982 RMK AO2 SLP098 T02330206
KBDU 211556Z AUTO 34006KT 10SM OVC046 16/06 A3039 RMK AO2
KBEA 211600Z AUTO 08010G15KT 10SM SCT021 BKN046 OVC110 29/24 A3004 RMK AO2 T02850236
KBED 211556Z 18011G17KT 10SM FEW065 26/20 A2985 RMK AO2 SLP118 T02560200 $
KBEH 211553Z AUTO 29017G25KT 10SM SCT019 BKN024 OVC038 15/12 A2980 RMK AO2 PK WND 28029/1507 RAB20E30 SLP091 P0001 T01500117
KBFD 211553Z AUTO 21008KT 4SM BR OVC006 18/17 A2976 RMK AO2 RAB06E27 SLP064 P0000 T01830167
KBFF 211553Z AUTO 12005KT 10SM OVC070 17/04 A3040 RMK AO2 SLP268 T01670044 $
KBFI 211553Z 13005KT 10SM CLR 17/13 A2988 RMK AO2 SLP116 T01670128
KBFL 211554Z 31007KT 10SM CLR 23/12 A2997 RMK AO2 SLP142 T02330122
KBFM 211553Z 02003KT 10SM CLR 27/21 A3006 RMK AO2 SLP179 T02720211
KBFW 211554Z AUTO 33005KT 10SM CLR 11/06 A3007 RMK AO2
KBGD 211551Z AUTO 07013KT 10SM BKN018 BKN060 23/18 A3025 RMK AO2 SLP205 T02330178
KBGE 211555Z AUTO 09005KT 10SM CLR 29/17 A3006 RMK AO2
KBGF 211555Z AUTO 24010KT 10SM FEW042 SCT050 26/19 A3004 RMK
KBGM 211553Z 18012G19KT 10SM CLR 22/16 A2978 RMK AO2 SLP075 T02170161
KBGR 211553Z 17011KT 6SM BR OVC005 17/16 A2991 RMK AO2 RAB26E42 SLP126 P0001 T01720161
KBHB 211555Z AUTO 18011KT 10SM OVC010 20/19 A2993 RMK AO1
KBHC 211555Z AUTO 32007KT 10SM CLR 29/16 A3004 RMK AO2
KBHK 211551Z AUTO 00000KT 10SM CLR 17/03 A3034 RMK AO2 SLP268 T01720033
KBHM 211553Z 26008KT 10SM FEW040 FEW250 28/17 A3009 RMK AO2 SLP181 T02830172
KBID 211555Z AUTO 15010G17KT 10SM FEW050 23/20 A2987 RMK AO1
KBIE 211555Z AUTO 01009G19KT 10SM CLR 21/07 A3024 RMK AO2 T02130072
KBIF 211458Z AUTO VRB03KT 9SM OVC049 23/18 A3017 RMK AO2 SLP154 T02270183 52015 $
KBIH 211556Z AUTO 33008KT 10SM CLR 18/09 A3011 RMK AO2 SLP149 T01830094
KBIJ 211555Z AUTO 00000KT 10SM CLR 28/17 RMK AO2
KBIL 211553Z 22005KT 10SM CLR 13/06 A3029 RMK AO2 SLP246 T01280061
KBIS 211552Z 27004KT 10SM CLR 16/08 A3030 RMK AO2 SLP263 T01610078
KBIV 211553Z AUTO 32009G20KT 10SM BKN015 BKN021 OVC032 16/13 A2976 RMK AO2 RAB35E52 SLP075 P0002 T01560133 $
KBIX 211558Z AUTO 10007KT 10SM CLR 29/20 A3004 RMK AO2 SLP175 T02900201
KBJC 211549Z 35005KT 30SM SCT070 BKN100 15/07 A3041
KBJI 211554Z AUTO 32007KT 10SM SCT021 BKN027 13/09 A3017 RMK AO2 T01340092
KBJJ 211556Z AUTO 28016G24KT 10SM FEW041 26/14 A2973 RMK AO2 SLP059 T02560139 TSNO
KBKB 211554Z AUTO 00000KT 10SM CLR 30/21 A3005 RMK AO2 SLP200 T03000206 $
KBKD 211555Z AUTO 10SM SCT034 29/19 A3013 RMK AO2 T02910188
KBKE 211553Z AUTO 00000KT 10SM CLR 11/06 A3008 RMK AO2 SLP179 T01110056 TSNO $
KBKF 211558Z 29004KT 10SM BKN070 BKN140 BKN220 15/07 A3041 RMK AO2A SLP241 T01540073
KBKL 211553Z 27021G30KT 10SM FEW037 FEW045 21/16 A2968 RMK AO2 PK WND 28030/1546 SLP046 T02110156
KBKN 211555Z AUTO 07012KT 10SM OVC085 23/11 A3019 RMK AO2
KBKS 211555Z AUTO 02008KT 10SM SCT015 BKN021 A2999 RMK AO1
KBKV 211553Z 08007KT 10SM BKN023 28/22 A3003 RMK AO2 SLP166 T02780222 $
KBKW 211551Z AUTO 24010KT 10SM BKN015 22/16 A2996 RMK AO2 SLP118 T02170161 TSNO
KBLF 211552Z AUTO 26012G20KT 10SM BKN018 BKN024 23/16 A2999 RMK AO2 SLP120 T02330161
KBLH 211552Z AUTO 17004KT 10SM CLR 29/15 A2988 RMK AO2 SLP112 T02940150 $
KBLI 211553Z 00000KT 10SM CLR 15/13 A2986 RMK AO2 SLP117 T01500133
KBLM 211555Z AUTO 00000KT 10SM OVC006 21/19 A2981 RMK AO1
KBLV 211558Z AUTO 26009KT 10SM CLR 23/11 A3004 RMK AO2 SLP172 T02320114
KBMG 211553Z 30012G19KT 10SM CLR 21/10 A2994 RMK AO2 SLP132 T02110100
KBMI 211556Z 28018G21KT 10SM CLR 19/11 A2996 RMK AO2 T01940111 SLP136
KBML 211552Z AUTO 14011G20KT 10SM FEW046 SCT055 24/14 A2982 RMK AO2 SLP096 T02440144 $
KBMQ 211553Z AUTO 14007KT 10SM FEW025 28/21 A3014 RMK AO2 SLP190 T02780206
KBMT 211555Z AUTO 07006KT 10SM CLR 29/21 A3006 RMK AO2 T02870213
KBNA 211553Z 29008G21KT 250V310 10SM FEW040 SCT150 BKN250 28/19 A2999 RMK AO2 SLP147 T02780194
KBNL 211555Z AUTO 28009KT 020V030 10SM CLR 28/17 A3000 RMK AO2
KBNW 211555Z AUTO 33016KT 10SM CLR 17/10 A3013 RMK AO2
KBOI 211553Z 12007KT 10SM CLR 21/07 A3005 RMK AO2 SLP152 T02110067
KBOK 211558Z AUTO 14007KT 1SM BR OVC001 15/15 A2999 RMK AO2
KBOS 211554Z 17012KT 10SM BKN040 BKN100 BKN250 27/19 A2986 RMK AO2 SLP112 T02670189
KBOW 211547Z 05005KT 10SM SCT007 BKN018 25/23 A3004
KBPC 211555Z AUTO 06004KT 10SM SCT013 BKN060 23/18 A3024 RMK AO2
KBPG 211555Z AUTO 10003KT 10SM SCT006 BKN014 OVC090 23/21 A3020 RMK AO2 T02330213
KBPI 211553Z AUTO 20004KT 10SM CLR 12/04 A3040 RMK AO2 SLP232 T01170039
KBPK 211553Z AUTO 00000KT 7SM BKN019 BKN023 OVC120 24/21 A3010 RMK AO2 SLP184 T02390206
KBPT 211553Z COR 06007KT 10SM FEW055 29/21 A3005 RMK AO2 SLP174 T02940211
KBQK 211555Z AUTO 33005KT 10SM CLR 28/18 A3003 RMK AO1
KBQP 211555Z AUTO 28003KT 10SM CLR 30/21 A3008 RMK AO2 T02960207
KBQX 211555Z AUTO 09011G19KT 010V100 10SM BKN030 29/22 A3003 RMK AO2 PWINO
KBRD 211553Z AUTO 35010KT 10SM FEW024 SCT030 14/08 A3015 RMK AO2 SLP214 T01390083
KBRL 211553Z AUTO 33010G21KT 10SM CLR 20/09 A3002 RMK AO2 SLP162 T02000094
KBRO 211553Z 34004KT 10SM CLR 31/24 A2997 RMK AO2 SLP147 T03060244
KBTA 211555Z AUTO 34011KT 10SM CLR 19/09 A3023 RMK AO2 T01850090
KBTL 211553Z 27013KT 10SM SCT023 BKN050 OVC070 16/11 A2974 RMK AO2 PK WND 30028/1501 RAE15B40E50 SLP068 P0000 T01560111
KBTM 211553Z AUTO 01004KT 10SM CLR 13/04 A3029 RMK AO2 SLP221 T01280039
KBTP 211555Z AUTO 21009G17KT 10SM SCT018 BKN024 BKN033 21/17 A2977 RMK AO1
KBTR 211553Z 03006KT 10SM CLR 28/20 A3005 RMK AO2 SLP176 T02830200
KBTV 211554Z 19017G26KT 10SM FEW060 FEW150 SCT200 24/14 A2971 RMK AO2 PK WND 19030/1543 SLP059 T02440144 $
KBUF 211554Z 23023G37KT 10SM SCT024 BKN030 BKN050 23/17 A2961 RMK AO2 PK WND 24037/1545 SLP022 T02280172
KBUR 211553Z 34003KT 10SM OVC021 19/14 A3000 RMK AO2 SLP148 T01940144
KBUU 211555Z AUTO 32011G16KT 10SM BKN016 BKN024 OVC040 14/11 A2989 RMK AO2 T01360109
KBUY 211554Z AUTO 27010KT 10SM CLR 28/15 A2990 RMK AO2 SLP118 T02780150
KBVE 211551Z AUTO 06009KT 10SM FEW024 FEW034 29/23 A3002 RMK AO2 SLP164 T02940233
KBVI 211547Z 24012G18KT 10SM OVC022 23/18 A2975
KBVN 211555Z AUTO 32008KT 10SM CLR 19/06 A3029 RMK AO2 T01860063
KBVO 211553Z AUTO 03008KT 10SM BKN110 24/15 A3019 RMK AO2 SLP212 T02390150
KBVS 211555Z AUTO 12003KT 10SM CLR 18/12 A2987 RMK A01 P000
KBVU 211555Z AUTO 33006KT 10SM BKN100 25/17 A3002 RMK AO2
KBVX 211555Z AUTO 29006KT 250V320 10SM BKN070 27/21 A3006 RMK AO1
KBVY 211553Z 13010KT 10SM FEW032 BKN250 25/18 A2986 RMK AO2 SLP107 T02500183 $
KBWD 211555Z AUTO 21006KT 10SM SCT024 28/21 A3015 RMK AO2
KBWG 211553Z AUTO 26008KT 10SM OVC019 23/19 A2997 RMK AO2 SLP142 T02330194
KBWI 211554Z 00000KT 9SM SCT150 BKN230 24/17 A2982 RMK AO2 SLP096 T02390172
KBWP 211550Z AUTO 34009KT 310V010 10SM SCT013 14/09 A3022 RMK AO1
KBXA 211555Z AUTO 03005KT 10SM 28/20 A3007 RMK AO2 T02840201
KBXK 211555Z AUTO 08009KT 10SM BKN090 30/13 A2995 RMK AO1
KBYG 211553Z AUTO 15012KT 10SM CLR 18/04 A3034 RMK AO2 SLP242 T01780044
KBYI 211553Z AUTO 16003KT 10SM BKN100 BKN120 14/08 A3013 RMK AO2 RAB32E46 SLP177 P0000 T01440083
KBYS 211555Z AUTO 06002KT 10SM CLR 25/08 A3000 RMK AO2 SLP111 T02500081 $
KBYY 211555Z AUTO 08011G15KT 10SM SCT023 SCT029 30/23 A3004 RMK AO2 P0001 T03000243
KBZN 211556Z 00000KT 10SM CLR 13/06 A3027 RMK AO2 SLP240 T01330061
KC09 211555Z AUTO 31013G20KT 10SM OVC035 17/11 A2992 RMK AO2 T01670105
KC29 211555Z AUTO 32008G16KT 10SM BKN021 OVC027 17/11 A2994 RMK AO1 T01680106
KC35 211555Z AUTO 32009G16KT 10SM BKN020 OVC026 15/11 A2995 RMK AO2 T01500112
KC75 211555Z AUTO 33015G23KT 10SM BKN037 BKN043 17/09 A2996 RMK AO2 T01720093
KCAD 211554Z AUTO 33011G19KT 10SM -RA SCT013 BKN019 OVC070 12/12 A2969 RMK AO2 T01260120
KCAE 211556Z 27010KT 10SM CLR 28/16 A2997 RMK AO2 SLP144 T02830156
KCAG 211553Z AUTO 33003KT 10SM OVC080 13/04 A3036 RMK AO2 SLP251 T01280039
KCAK 211551Z 25012G19KT 10SM FEW026 SCT040 SCT100 24/16 A2972 RMK AO2 RAE13 SLP055 P0001 T02440161
KCAO 211555Z AUTO 04015KT 10SM BKN040 21/13 A3038 RMK AO2 SLP232 T02060128
KCAR 211554Z AUTO 21012G22KT 180V240 10SM CLR 22/14 A2978 RMK AO2 SLP086 T02220139
KCAV 211555Z AUTO 35015G23KT 10SM 16/09 A3014 RMK AO2
KCBE 211545Z AUTO 15006KT 10SM CLR 28/15 A2983 RMK AO1
KCBF 211555Z AUTO 33008G16KT 10SM CLR 18/11 A3021 RMK AO2
KCBG 211555Z AUTO 34009G16KT 10SM SCT024 BKN033 15/08 A3011 RMK AO2
KCBK 211555Z AUTO 05006KT 10SM CLR 19/07 A3037 RMK AO2
KCBM 211558Z AUTO 27004KT 10SM CLR 28/19 A3007 RMK AO2 SLP184 T02830188 $
KCCA 211555Z AUTO 00000KT 8SM CLR 24/22 A3008 RMK AO2
KCCO 211555Z AUTO 22004KT 10SM CLR 27/20 A3007 RMK AO2 T02670198
KCCR 211553Z 24012KT 10SM BKN014 18/14 A2999 RMK AO2 SLP142 T01830144
KCCU 211555Z AUTO 15010G20KT 10SM SCT017 SCT022 OVC049 12/05 A3071 RMK AO2
KCCY 211555Z AUTO 33013G20KT 10SM OVC021 14/10 A3010 RMK AO2
KCDC 211553Z AUTO 29009KT 10SM SCT027 BKN090 14/13 A3025 RMK AO2 RAE09 PRESRR SLP191 P0000 T01440133
KCDD 211550Z AUTO 02003KT 10SM SCT019 09/05 A3014 RMK AO2
KCDH 211555Z AUTO 35003KT 10SM CLR 32/20 A3007 RMK AO2
KCDJ 211552Z AUTO 34006KT 22/11 A3015 RMK AO1 SLP199 T02170111
KCDN 211555Z AUTO 26009KT 10SM CLR 27/17 A2998 RMK AO2 TSNO
KCDR 211553Z AUTO 00000KT 10SM CLR 17/04 A3037 RMK AO2 SLP284 T01720039
KCDS 211553Z AUTO 36005KT 10SM BKN017 BKN023 BKN030 27/21 A3019 RMK AO2 SLP197 T02670211
KCDW 211553Z AUTO 00000KT 10SM OVC010 21/18 A2983 RMK AO2 SLP104 T02110178 TSNO
KCEC 211556Z AUTO 17008KT 10SM OVC014 16/14 A2998 RMK AO2 SLP152 T01610144 $
KCEF 211558Z VRB03KT 6SM BR FEW004 BKN006 OVC019 21/20 A2984 RMK AO2A SLP110 T02090197
KCEU 211554Z AUTO 27012G18KT 10SM CLR 28/16 A3001 RMK AO2 SLP153 T02780161
KCEW 211553Z AUTO 11007KT 10SM CLR 29/18 A3007 RMK AO2 SLP179 T02940183
KCEY 211555Z AUTO 31008KT 10SM BKN015 25/20 A3000 RMK AO1
KCEZ 211553Z AUTO 16015G26KT 10SM -RA CLR 22/14 A3030 RMK AO2 PK WND 14026/1544 RAB47 SLP182 P0000 T02170139
KCFD 211555Z AUTO 00000KT 10SM CLR A3009 RMK AO2
KCFE 211555Z AUTO 34012G16KT 10SM SCT023 SCT029 15/08 A3015 RMK AO2 T01510084
KCFS 211555Z AUTO 25010KT 10SM SCT019 OVC026 17/13 A2963 RMK AO2 T01650130
KCGC 211555Z AUTO 08003KT 10SM SCT029 28/20 A3002 RMK AO2 PWINO
KCGE 211543Z AUTO 32006KT 10SM OVC004 22/20 A2982 RMK AO1
KCGF 211545Z 29018G30KT 10SM SCT025 22/20 A2971
KCGI 211553Z 34014KT 10SM CLR 25/14 A3003 RMK AO2 SLP164 T02500139
KCGS 211540Z AUTO 00000KT 7SM CLR 23/18 A2983 RMK AO1
KCGZ 211555Z AUTO 00000KT 10SM BKN070 28/13 A2998 RMK AO1
KCHA 211553Z 26009G15KT 10SM SCT037 SCT075 BKN250 27/17 A3003 RMK AO2 SLP162 T02720172
KCHD 211547Z 00000KT 40SM BKN080 28/16 A2996
KCHO 211553Z VRB06KT 10SM CLR 27/16 A2983 RMK AO2 SLP095 T02670161
KCHS 211556Z 33008KT 10SM FEW250 28/16 A2997 RMK AO2 SLP149 T02830161
KCIC 211556Z 17007KT 25SM FEW150 BKN200 20/14 A2993
KCID 211552Z 33017G24KT 10SM BKN026 OVC031 15/10 A3006 RMK AO2 PK WND 34028/1530 SLP177 T01500100
KCIN 211555Z AUTO 35016G23KT 10SM CLR 18/08 A3018 RMK AO2
KCIR 211555Z AUTO 33009KT 10SM SCT025 26/20 A3002 RMK AO2 T02600202
KCIU 211555Z AUTO 35014G20KT 10SM BKN022 OVC070 11/08 A2975 RMK AO1
KCJR 211555Z AUTO 19005KT 10SM CLR 27/14 A2982 RMK AO2
KCKB 211553Z 22011G21KT 4SM HZ OVC021 22/19 A2983 RMK AO2 RAE1458 SLP087 P0000 T02220189
KCKC 211554Z AUTO 35013G20KT 10SM CLR 08/01 A3006 RMK AO2
KCKF 211555Z AUTO 34004KT 10SM CLR 28/17 A3006 RMK AO2 T02770169
KCKI 211555Z AUTO 29007KT 10SM CLR 27/17 A2996 RMK AO2
KCKM 211555Z AUTO 00000KT 10SM CLR 30/20 A3006 RMK AO1
KCKN 211555Z AUTO 35009KT 10SM OVC004 11/11 A3023 RMK AO2
KCKP 211555Z AUTO 34015G22KT 10SM SCT033 17/10 A3020 RMK AO2 T01650095
KCKV 211552Z AUTO 29015G20KT 10SM FEW019 27/21 A2997 RMK AO2 SLP142 T02670206
KCLE 211551Z 26019G29KT 10SM FEW034 SCT042 22/14 A2972 RMK AO2 PK WND 27029/1529 SLP059 T02220144
KCLI 211555Z AUTO 35014G24KT 10SM BKN019 OVC024 12/08 A2992 RMK AO2 P0001
KCLK 211555Z AUTO 36010KT 10SM CLR 26/18 A3018 RMK AO2
KCLL 211553Z 10004KT 10SM CLR 29/20 A3008 RMK AO2 SLP182 T02890200
KCLM 211553Z AUTO 29003KT 10SM 17/13 A2988 RMK AO2 SLP116 T01720128 $
KCLS 211555Z AUTO 20005KT 10SM CLR 14/13 A2990 RMK AO2
KCLT 211552Z 26005KT 10SM CLR 26/16 A2996 RMK AO2 SLP137 T02610161 $
KCMA 211555Z 36003KT 9SM SCT009 OVC028 21/16 A3000 RMK AO2 SLP167 T02110156
KCMD 211555Z AUTO 24005KT 10SM CLR 27/18 A3009 RMK AO2 T02690177
KCMH 211551Z 26016G21KT 10SM SCT030 SCT100 27/16 A2977 RMK AO2 SLP072 T02720156
KCMI 211553Z 30016G23KT 10SM CLR 21/11 A2995 RMK AO2 SLP138 T02060111
KCMX 211553Z AUTO 35014G20KT 10SM OVC022 07/03 A3000 RMK AO2 SLP164 T00720028
KCMY 211540Z AUTO 33012G15KT 10SM BKN019 OVC026 14/10 A3000 RMK AO2 T01410099
KCNB 211554Z AUTO 33012G17KT 10SM CLR 16/10 A3023 RMK AO2 T01550100
KCNC 211555Z AUTO 33018G24KT 10SM CLR 19/09 A3013 RMK AO2
KCNI 211555Z AUTO 27004KT 10SM CLR 27/12 A3007 RMK AO2
KCNK 211555Z AUTO 02010KT 10SM CLR 22/08 A3026 RMK AO2 SLP238 T02170078
KCNM 211553Z AUTO 12003KT 7SM -RA OVC005 22/ A3016 RMK AO2 CIG 004V007 SLP164 T0217 PNO $
KCNO 211553Z 00000KT 5SM HZ OVC015 19/16 A3001 RMK AO2 SLP159 T01940161
KCNU 211552Z AUTO 02010KT 10SM CLR 24/09 A3019 RMK AO2 SLP214 T02440094
KCNW 211555Z 21003KT 10SM SKC 29/20 A3011
KCNY 211553Z AUTO 07016G20KT 10SM SCT095 25/10 A3015 RMK AO2 LTG DSNT W AND NW SLP145 T02500100
KCOE 211555Z AUTO 03014KT 10SM CLR 17/08 A3003 RMK AO1
KCOF 211558Z AUTO 05006KT 10SM CLR 28/23 A3002 RMK AO2 SLP170 T02800232 $
KCOM 211555Z AUTO 00000KT 10SM SCT020 BKN027 OVC085 26/21 A3016 RMK AO2 T02630206
KCON 211551Z AUTO 15009KT 10SM -RA BKN005 OVC017 20/19 A2986 RMK AO2 RAB09 SLP110 P0003 T02000189
KCOQ 211557Z AUTO 32010G14KT 10SM SCT026 12/07 A3010 RMK AO2
KCOS 211554Z 19011KT 10SM FEW021 BKN050 BKN100 BKN160 17/11 A3046 RMK AO2 SLP239 T01720106
KCOT 211553Z AUTO 08010KT 9SM SCT012 28/24 A3004 RMK AO2 SLP165 T02830239
KCOU 211554Z 31011KT 10SM CLR 22/11 A3012 RMK AO2 SLP191 T02220111 $
KCPC 211555Z AUTO 26004KT 10SM CLR 26/17 A2991 RMK AO2 T02620167
KCPK 211555Z AUTO 34007KT 10SM BKN014 25/22 A2979 RMK AO2
KCPR 211553Z VRB03KT 10SM CLR 14/02 A3036 RMK AO2 SLP246 T01440017
KCPS 211553Z 30008KT 10SM CLR 24/09 A3005 RMK AO2 SLP172 T02390094
KCPT 211555Z AUTO 00000KT 10SM FEW032 28/21 A3014 RMK AO2
KCPW 211558Z AUTO 19004KT 10SM SCT016 BKN020 OVC055 08/05 A3072 RMK AO2
KCQB 211555Z AUTO 04004KT 10SM SCT090 28/23 A3015 RMK AO2
KCQC 211553Z AUTO 09017KT 10SM FEW011 SCT017 BKN039 17/13 A3042 RMK AO2 SLP217 T01720128
KCQF 211555Z AUTO 10005KT 10SM CLR 27/19 A3004 RMK AO2
KCQM 211555Z AUTO 01008KT 10SM CLR 11/06 A3012 RMK AO2
KCQT 211547Z AUTO 00000KT 10SM OVC026 21/16 A2999 RMK AO2 SLP152 T02060161
KCQW 211555Z AUTO 00000KT 25/16 A2994 RMK AO2
KCQX 211552Z AUTO 16007G15KT 10SM CLR 22/19 A2991 RMK AO2 SLP128 T02170194
KCRE 211553Z VRB05KT 10SM CLR 25/17 A2992 RMK AO2 SLP131 T02500172
KCRG 211553Z 03006KT 10SM CLR 28/18 A3003 RMK AO2 SLP167 T02780183
KCRP 211551Z 05013KT 4SM RA BR FEW011CB BKN041 BKN055 OVC130 25/23 A3001 RMK AO2 SLP162 CB N-E MOV W CB DSNT SE S P0015 T02500233 $
KCRQ 211553Z AUTO 34003KT 10SM OVC021 22/16 A2998 RMK AO2 SLP149 T02170156
KCRS 211553Z AUTO 00000KT 10SM CLR 29/19 A3012 RMK AO2 SLP193 T02940189
KCRW 211554Z 22010KT 10SM OVC024 23/19 A2986 RMK AO2 SLP104 T02330189
KCRX 211555Z AUTO 24007G14KT 10SM CLR 29/19 A3004 RMK AO2
KCSG 211551Z 27005KT 10SM CLR 27/15 A3006 RMK AO2 SLP175 T02720150 $
KCSM 211553Z AUTO 01008KT 10SM CLR 27/20 A3020 RMK AO2 SLP202 T02720200
KCSQ 211555Z AUTO 34016KT 10SM CLR 18/10 A3017 RMK AO2
KCSV 211553Z AUTO 27011G17KT 10SM FEW034 SCT075 24/17 A3005 RMK AO2 SLP156 T02440172
KCTB 211556Z AUTO 14005KT 10SM CLR 13/06 A3023 RMK AO2 SLP225 T01280056
KCTY 211553Z AUTO 07005KT 28/19 A3003 RMK AO1 SLP167 T02830194
KCTZ 211555Z AUTO 32004KT 10SM CLR 26/18 A2990 RMK AO2 T02560177
KCUB 211553Z AUTO 28007G16KT 10SM CLR 28/16 A2998 RMK AO2 SLP149 T02780156
KCUH 211555Z AUTO 07008G14KT 10SM BKN020 26/22 A3015 RMK AO2
KCUL 211555Z AUTO 32009G15KT 10SM CLR 24/13 A3000 RMK AO2 T02440125
KCUT 211553Z AUTO VRB06KT 10SM CLR 16/02 A3042 RMK AO2 SLP262 T01560017
KCVB 211555Z AUTO 08008KT 7SM SCT023 SCT029 SCT037 29/21 A3009 RMK AO2 T02880207
KCVC 211555Z AUTO 27006KT 10SM CLR 28/17 A3005 RMK AO2
KCVG 211552Z COR 26013G21KT 10SM FEW028 SCT034 25/17 A2986 RMK AO2 SLP101 T02500172 $
KCVH 211550Z AUTO 24006KT 10SM OVC016 18/14 A3002 RMK AO1
KCVN 211555Z AUTO 04010KT 10SM 23/17 A3030 RMK AO1
KCVO 211555Z AUTO 25003KT 10SM CLR 16/13 A2994 RMK AO1
KCVS 211458Z 04013KT 10SM FEW040 21/17 A3028 RMK AO2A SLP203 50014 $
KCVW 211555Z AUTO 05007KT 10SM CLR 29/22 A3007 RMK A01
KCVX 211554Z AUTO 03013G20KT 10SM -RA OVC019 11/10 A2979 RMK AO2 T01090096
KCWA 211550Z 36016G27KT 10SM BKN025 OVC030 12/07 A2998
KCWC 211530Z AUTO 22005KT 10SM CLR 28/19 A3014 RMK AO2 T02780186
KCWF 211550Z 06005KT 10SM SKC 28/22 A3005
KCWI 211555Z AUTO 32014G21KT 10SM BKN026 OVC035 16/09 A3002 RMK AO1
KCWN 211556Z AUTO 14013G18KT 10SM SCT003 BKN031 14/11 A3045 RMK AO2 SLP246 T01360112
KCWV 211555Z AUTO 30005KT 10SM CLR 28/19 A3002 RMK AO2
KCXO 211553Z 00000KT 10SM CLR 29/20 A3008 RMK AO2 SLP183 T02890200
KCXP 211555Z AUTO 00000KT 10SM CLR 17/08 A3015 RMK AO2
KCXY 211556Z 09011KT 9SM CLR 22/16 A2981 RMK AO2 SLP094 T02220161
KCYS 211553Z 16015G21KT 10SM CLR 16/02 A3042 RMK AO2 SLP236 T01610022
KCZT 211555Z AUTO 08007KT 10SM SCT018 SCT026 BKN036 27/22 A3004 RMK AO2
KCZZ 211552Z AUTO 00000KT 20/08 A2999 RMK AO1 SLP126 T02000083
KD07 211556Z AUTO 31007KT 17/05 A3033 RMK AO1 SLP274 T01720050
KD25 211555Z AUTO 36006G09KT 10SM BKN019 OVC024 08/06 A3001 RMK AO2 T00830055
KD39 211553Z AUTO 32008KT 10SM SCT019 OVC026 14/10 A3017 RMK AO2 T01360100
KD50 211555Z AUTO 00000KT 10SM CLR 15/06 A3029 RMK AO2
KD55 211555Z AUTO 34009KT 10SM OVC016 14/10 A3024 RMK AO2
KD60 211555Z AUTO 26004KT 10SM CLR 14/05 A3032 RMK AO2
KD95 211554Z AUTO 28012G20KT 10SM SCT026 BKN031 BKN039 18/11 A2965 RMK AO2 T01760113
KDAA 211558Z AUTO 00000KT 10SM CLR 25/16 A2983 RMK AO2 SLP104 T02450163
KDAB 211553Z VRB04KT 10SM FEW030 FEW250 28/21 A3003 RMK AO2 SLP167 T02780211 $
KDAG 211550Z AUTO 27010KT 10SM CLR 24/09 A2999 RMK AO2 SLP129 T02440089 TSNO
KDAL 211553Z 24003KT 10SM FEW040 30/19 A3011 RMK AO2 SLP189 T03000194
KDAN 211553Z AUTO 24006KT 10SM CLR 26/17 A2989 RMK AO2 SLP111 T02560167
KDAW 211551Z AUTO 16005KT 5SM BR OVC004 19/18 A2988 RMK AO2 RAE23 SLP114 P0001 T01940183 $
KDAY 211556Z 30019G25KT 10SM FEW030 23/07 A2984 RMK AO2 PK WND 28029/1501 SLP096 T02330067
KDBN 211555Z AUTO 28007KT 245V305 10SM CLR 27/18 A3006 RMK AO2
KDBQ 211553Z 33013KT 10SM OVC020 13/10 A3001 RMK AO2 SLP163 T01330100
KDCA 211552Z 09003KT 10SM BKN250 24/16 A2983 RMK AO2 SLP102 T02440161
KDCM 211555Z AUTO 20003KT 10SM CLR 27/15 A3002 RMK AO2
KDCU 211553Z AUTO 27011G16KT 10SM CLR 28/18 A3006 RMK AO2 SLP171 T02830183 $
KDCY 211555Z AUTO 31009G18KT 290V010 10SM CLR 23/12 A2995 RMK AO2 T02290117
KDDC 211552Z AUTO 06013G20KT 10SM CLR 22/06 A3030 RMK AO2 SLP235 T02220056
KDDH 211554Z AUTO 17009G16KT 10SM CLR 26/14 A2980 RMK AO2 SLP087 T02560144
KDEC 211554Z 29011G20KT 10SM CLR 21/12 A2998 RMK AO2 SLP149 T02060122
KDED 211555Z AUTO 00000KT 10SM CLR 27/20 A3003 RMK AO1
KDEH 211555Z AUTO 33014G21KT 10SM BKN017 OVC022 14/11 A3004 RMK AO2
KDEN 211553Z 25004KT 10SM BKN070 BKN140 17/07 A3039 RMK AO2 SLP234 T01670072 $
KDEQ 211553Z AUTO 00000KT 9SM CLR 28/22 A3008 RMK AO2 SLP179 T02780222
KDET 211553Z 29015G21KT 10SM BKN039 BKN045 21/11 A2967 RMK AO2 PK WND 27026/1531 SLP043 T02110111
KDEW 211553Z AUTO 02010KT 10SM CLR 21/07 A3003 RMK AO2 SLP159 T02060072
KDFI 211553Z AUTO 26007KT 10SM SCT037 BKN045 A2977 RMK AO2 SLPNO $
KDFW 211553Z 00000KT 10SM FEW250 29/19 A3011 RMK AO2 SLP187 T02940189 $
KDGW 211553Z AUTO 13020G24KT 10SM CLR 17/04 A3037 RMK AO2 SLP252 T01720039
KDHN 211553Z 00000KT 10SM CLR 27/17 A3010 RMK AO2 SLP186 T02720167
KDHT 211553Z AUTO 05018G24KT 10SM OVC012 21/16 A3032 RMK AO2 SLP221 T02060156
KDIJ 211556Z AUTO 00000KT 10SM CLR 19/06 A3029 RMK AO2 T01940061 SLP186
KDIK 211556Z AUTO 29006KT 10SM CLR 17/06 A3030 RMK AO2 SLP265 T01670056
KDKB 211555Z AUTO 31016G21KT 10SM BKN026 OVC030 14/10 A2992 RMK AO2 T01420096
KDKK 211553Z AUTO 25016G27KT 10SM FEW042 FEW050 23/17 A2964 RMK AO2 PK WND 23028/1540 SLP032 T02330172
KDKR 211550Z AUTO 11003KT 10SM CLR 31/22 A3013 RMK AO2
KDLF 211558Z AUTO 11009KT 10SM SCT021 BKN027 28/22 A3008 RMK AO2 SLP173 T02760224 $
KDLH 211555Z 01011KT 10SM SCT028 14/06 A3008 RMK AO2 SLP191 T01390061
KDLL 211555Z AUTO 32012G17KT 10SM SCT017 BKN025 15/10 A2994 RMK AO2 T01540100
KDLN 211553Z AUTO 22005KT 9SM CLR 12/04 A3028 RMK AO2 SLP221 T01220044
KDLP 211555Z AUTO 08015KT 10SM FEW024 SCT033 BKN038 29/23 A3000 RMK A01
KDLS 211553Z AUTO 00000KT 10SM CLR 18/09 A2994 RMK AO2 SLP138 T01830089
KDLZ 211557Z AUTO 27015G26KT 10SM SCT033 SCT039 23/08 A2978 RMK AO2
KDMA 211558Z AUTO 12003KT 10SM FEW070 26/18 A3005 RMK AO2 SLP133 T02630178 $
KDMH 211554Z AUTO 23/16 A2983 RMK AO1 SLP100 T02280161
KDMN 211553Z AUTO 06010KT 10SM CLR 23/18 A3020 RMK AO2 SLP155 T02280178
KDMO 211553Z AUTO 33013G20KT 10SM CLR 23/10 A3015 RMK AO2 SLP202 T02330100
KDMW 211545Z AUTO 18004KT 10SM CLR 23/18 A2984 RMK AO2
KDNL 211553Z AUTO 32011G17KT 10SM CLR 28/17 A3002 RMK AO2 SLP160 T02830167
KDNN 211555Z AUTO 00000KT 10SM CLR 25/18 A3004 RMK AO2
KDNS 211555Z AUTO 34014KT 10SM CLR 17/10 A3019 RMK AO2
KDNV 211555Z AUTO 29013G25KT 7SM CLR 21/11 A2990 RMK AO2 T02060114
KDOV 211558Z AUTO 33006KT 10SM OVC006 22/21 A2979 RMK AO2 SLP091 T02160206
KDPA 211552Z 31015G24KT 10SM BKN028 OVC035 16/10 A2989 RMK AO2 SLP119 T01560100 $
KDPL 211555Z AUTO 32006KT 10SM CLR 24/17 A2989 RMK AO2 T02440165
KDQH 211555Z AUTO 01005KT 10SM CLR 29/15 A3006 RMK AO2
KDRA 211552Z AUTO 01005KT 10SM SCT090 22/14 A3005 RMK AO2 SLP133 T02220139
KDRI 211555Z AUTO 00000KT 10SM CLR 28/22 A3009 RMK AO2 T02800215
KDRM 211555Z AUTO 01005G14KT 10SM SCT021 BKN045 OVC050 10/07 A2971 RMK AO2 T00990073
KDRO 211553Z AUTO 36003KT 10SM CLR 18/12 A3039 RMK AO2 SLP205 T01830122 $
KDRT 211553Z AUTO 11008KT 10SM FEW017 BKN036 27/22 A3007 RMK AO2 SLP166 T02720222
KDSM 211554Z 34014G22KT 10SM FEW045 19/08 A3012 RMK AO2 SLP196 T01890083
KDSV 211554Z AUTO 14005KT 10SM SCT085 22/19 A2967 RMK AO2 RAE00 SLP051 P0000 T02170189
KDTL 211555Z AUTO 35008KT 10SM BKN007 OVC014 12/10 A3021 RMK AO2
KDTN 211553Z 35006KT 10SM CLR 31/20 A3008 RMK AO2 SLP183 T03060200 $
KDTO 211553Z VRB03KT 10SM CLR 29/18 A3011 RMK AO2 SLP188 T02940178
KDTS 211553Z AUTO 08006KT 10SM CLR 28/20 A3005 RMK AO2 SLP174 T02830200 TSNO
KDTW 211553Z 23017G23KT 10SM SCT030 BKN050 19/12 A2969 RMK AO2 SLP051 T01940117 $
KDUA 211555Z AUTO 30006KT 10SM CLR 30/18 A3012 RMK AO2
KDUB 211555Z AUTO 00000KT 10SM CLR 11/02 A3043 RMK AO2
KDUC 211555Z AUTO 00000KT 10SM CLR 29/20 A3014 RMK AO2
KDUG 211556Z AUTO 00000KT 10SM CLR 23/17 A3015 RMK AO2 SLP148 T02330172
KDUH 211555Z AUTO 27016G22KT 10SM SCT032 SCT044 21/11 A2973 RMK AO2
KDUJ 211553Z AUTO 21008G17KT 8SM OVC010 19/17 A2976 RMK AO2 SLP068 T01890172
KDUX 211555Z AUTO 05014G20KT 10SM OVC010 20/17 A3030 RMK AO2 T02000167
KDVK 211555Z AUTO 26008KT 10SM OVC018 23/19 A2994 RMK AO2
KDVL 211555Z AUTO 34008KT 10SM CLR 14/08 A3023 RMK AO1
KDVN 211552Z AUTO 32015G21KT 10SM BKN026 17/09 A3002 RMK AO2 PK WND 33029/1516 SLP163 T01670089
KDVO 211555Z AUTO 25004KT 10SM 18/15 A3000 RMK AO2
KDVP 211554Z AUTO 34015G20KT 10SM SCT022 15/09 A3021 RMK AO2 T01450086
KDVT 211553Z AUTO 14005KT 10SM FEW080 SCT090 29/16 A2996 RMK AO2 SLP121 T02890161
KDWH 211553Z 08005KT 10SM CLR 30/21 A3007 RMK AO2 SLP179 T03000211
KDWX 211555Z AUTO 00000KT 10SM BKN085 13/07 A3039 RMK AO2 T01300067
KDXR 211559Z 00000KT 10SM SCT007 BKN011 OVC027 21/19 A2984 RMK AO2 T02110194
KDXX 211553Z AUTO 33011G16KT 10SM CLR 17/11 A3021 RMK AO2
KDYA 211535Z AUTO 29005KT 10SM CLR 28/18 A3007 RMK AO2 T02820176
KDYB 211555Z AUTO 28005KT 10SM CLR 27/17 A2999 RMK AO1
KDYL 211554Z AUTO VRB04KT 10SM CLR 23/17 A2982 RMK AO2 SLP092 T02330167
KDYR 211555Z 29008KT 10SM CLR 26/17 A3003 RMK AO1
KDYS 211558Z AUTO 18005KT 10SM SCT019 SCT041 27/17 A3015 RMK AO2 SLP166 T02660171 $
KDYT 211553Z AUTO 04006KT 10SM CLR 14/10 A3009 RMK AO2
KDZB 211555Z AUTO 12003KT 10SM SCT025 SCT032 SCT100 28/20 A3012 RMK AO2 T02820203
KE11 211555Z AUTO 12004KT 5SM -RA BKN004 OVC014 21/21 A3021 RMK AO2 P0004 T02100208
KE16 211555Z AUTO 18006KT 10SM OVC018 18/14 A3003 RMK AO2
KE38 211555Z AUTO 00000KT 7SM BKN016 BKN120 23/19 A3028 RMK AO2 T02300186
KE80 211555Z AUTO 28004KT 10SM BKN060 BKN075 23/12 A3030 RMK AO2 T02260123
KEAR 211555Z AUTO 32008KT 10SM CLR 19/06 A3032 RMK AO1
KEAT 211555Z AUTO 28006KT 10SM CLR 18/07 A3000 RMK AO2 SLP153 T01780072
KEAU 211556Z 34011G20KT 10SM FEW029 SCT043 14/07 A3005 RMK AO2 SLP175 T01440072
KEBG 211555Z AUTO 02007KT 10SM BKN019 BKN029 BKN036 30/24 A2999 RMK AO2 T03020238
KECG 211554Z 32013G19KT 10SM BKN018 OVC026 24/21 A2978 RMK AO2 SLP083 T02440211
KECP 211553Z 06008KT 10SM CLR 28/18 A3004 RMK AO2 SLP183 T02830178 $
KECS 211555Z AUTO 17008KT 10SM CLR 17/01 A3039 RMK AO2
KECU 211550Z AUTO 12007KT 10SM SCT015 25/21 A3017 RMK AO2
KEDC 211555Z AUTO 07004KT 10SM BKN023 28/22 A3010 RMK AO2
KEDE 211555Z AUTO 35010KT 10SM SCT012 23/21 A2980 RMK AO2 T02330210
KEDU 211555Z AUTO 22005KT 10SM CLR 18/13 A2993 RMK AO1
KEDW 211558Z VRB03KT 80SM CLR 20/10 A3000 RMK AO2A SLP139 T02040095
KEED 211556Z AUTO 23005KT 10SM CLR 31/13 A2991 RMK AO2 SLP094 T03110133
KEEN 211555Z AUTO 18007KT 10SM OVC014 22/15 A2985 RMK AO1
KEET 211553Z AUTO 21006KT 10SM CLR 27/19 A3008 RMK AO2 SLP177 T02670189 $
KEFD 211550Z 07008KT 10SM FEW020 29/24 A3006
KEFK 211555Z AUTO 19011G18KT 10SM CLR 23/15 A2976 RMK AO2 T02260149
KEFT 211555Z AUTO 32015G21KT 10SM SCT021 BKN028 OVC034 15/10 A2994 RMK AO2
KEGE 211550Z 00000KT 10SM SCT070 BKN080 14/07 A3042
KEGI 211558Z AUTO 12006KT 10SM CLR 29/21 A3006 RMK AO2 SLP180 T02850214 $
KEGV 211555Z AUTO 36012G19KT 10SM BKN018 OVC025 08/03 A2999 RMK AO2 T00780032
KEHA 211548Z AUTO 08012KT 22/08 RMK AO1 PK WND 21 000 T02170084
KEHC 211555Z AUTO 06019KT 10SM CLR 28/22 A3000 RMK A01
KEHO 211555Z AUTO 23006KT 10SM CLR 25/17 A2996 RMK AO2 T02510172
KEHR 211555Z AUTO 33013G16KT 10SM BKN027 24/17 A2997 RMK AO1
KEHY 211555Z AUTO 00000KT 10SM CLR 15/04 A3037 RMK AO2
KEIK 211313Z AUTO 01003KT 10SM OVC048 15/07 A3038 RMK AO2 T01450067
KEIR 211555Z AUTO 06019KT 10SM 27/23 A3002 RMK A01
KEKM 211355Z 26013G23KT 10SM BKN030 BKN039 17/10 A2978 RMK AO2
KEKN 211551Z AUTO 25005KT 10SM SCT032 OVC090 24/18 A2988 RMK AO2 SLP110 T02440178 TSNO
KEKO 211556Z AUTO 20009KT 10SM SCT025 BKN110 14/11 A3020 RMK AO2 RAE35 PRESRR SLP187 P0003 T01390111
KEKQ 211556Z AUTO 24009KT 10SM BKN022 24/19 A2998 RMK AO2 T02440194 SLP150
KELD 211553Z AUTO 33006KT 10SM CLR 30/21 A3008 RMK AO2 SLP183 T03000211
KELM 211553Z 21009G21KT 10SM -RA BKN039 BKN055 25/17 A2970 RMK AO2 RAB51 SLP052 P0000 T02500172
KELN 211553Z AUTO 15003KT 10SM CLR 17/08 A3001 RMK AO2 SLP157 T01670083 $
KELO 211552Z AUTO 35005KT 10SM SCT025 09/04 A3010 RMK AO2
KELP 211551Z 00000KT 10SM FEW015 BKN050 BKN250 24/18 A3017 RMK AO2 SLP146 OCNL MTN TOPS OBSCD SW-NW T02440178
KELY 211553Z AUTO 00000KT 10SM CLR 13/11 A3024 RMK AO2 SLP162 T01280106
KELZ 211556Z AUTO 21011G18KT 10SM BKN012 BKN017 BKN065 19/17 A2975 RMK AO2 RAE14B39E51 SLP065 P0000 T01890167
KEMK 211555Z AUTO 06020KT 10SM FEW024 32/24 A2998 RMK A01
KEMM 211555Z AUTO 05005KT 10SM CLR 13/03 A3040 RMK AO2
KEMP 211553Z AUTO 01007KT 10SM CLR 23/11 A3022 RMK AO2 SLP225 T02280106
KEMT 211545Z 00000KT 10SM OVC018 20/16 A3001
KEMV 211555Z AUTO 28005KT 10SM CLR 24/17 A2986 RMK AO2
KEND 211558Z AUTO 05014G23KT 10SM -DZ VCTS SCT070 21/13 A3019 RMK AO2 SLP215 P0000 T02080130 $
KENL 211555Z AUTO 31011KT 10SM CLR 23/10 A3003 RMK AO2 T02330095
KENV 211555Z AUTO 21015KT 10SM BKN060 OVC070 18/13 A3019 RMK AO1
KENW 211553Z 30019G27KT 10SM BKN017 16/12 A2986 RMK AO2 PK WND 30027/1545 SLP112 T01560117
KEOE 211555Z AUTO 26009KT 10SM CLR 27/16 A3001 RMK AO2
KEOK 211555Z AUTO 33011G21KT 10SM CLR 19/10 A3005 RMK AO2
KEPH 211553Z AUTO 01007KT 10SM CLR 23/03 A2997 RMK AO2 SLP141 T02330033
KEQY 211553Z AUTO VRB06KT 10SM CLR 27/17 A2995 RMK AO2 SLP142 T02670167
KERI 211551Z 25014G22KT 10SM FEW037 SCT095 SCT110 23/16 A2966 RMK AO2 SLP038 T02280161 $
KERV 211555Z AUTO 10007KT 10SM SCT024 SCT030 26/21 A3013 RMK AO2 T02610212
KERY 211553Z AUTO 35015G23KT 10SM OVC010 08/06 A2982 RMK AO2 T00840060
KESC 211555Z AUTO 35012G27KT 320V020 10SM BKN020 BKN026 OVC040 10/05 A2988 RMK AO1
KESF 211553Z AUTO 00000KT 10SM CLR 30/22 A3007 RMK AO2 SLP180 T03000217
KESN 211555Z 00000KT 2SM FG OVC005 20/20 A2987
KEST 211552Z AUTO 35015G20KT 10SM FEW026 FEW031 15/08 A3017 RMK AO2 SLP218 T01500083
KETB 211555Z AUTO 33013G19KT 10SM SCT017 BKN028 OVC075 14/10 A2987 RMK AO2
KETC 211555Z AUTO 33005KT 10SM CLR 25/17 A2985 RMK AO2 T02530172
KETH 211556Z AUTO 32011KT 10SM SCT018 14/09 A3023 RMK AO2
KEUF 211558Z AUTO 00000KT 10SM CLR 29/17 A3005 RMK AO2 SLP172 T02890172 $
KEUG 211554Z 22007KT 10SM FEW250 17/13 A2994 RMK AO2 SLP137 T01720128
KEUL 211555Z AUTO 13005KT 10SM CLR 17/07 A3006 RMK AO1
KEVB 211547Z 36004KT 10SM SKC 25/22 A3003
KEVM 211552Z AUTO 34010G17KT 10SM CLR 12/05 A3011 RMK AO2 P0001
KEVV 211554Z 34010G18KT 10SM CLR 23/12 A2998 RMK AO2 SLP148 T02280122
KEVW 211553Z AUTO 09007KT 10SM -RA OVC070 12/06 A3037 RMK AO2 RAB46 SLP209 P0000 T01170056
KEWB 211553Z 14013KT 10SM BKN012 OVC042 24/21 A2987 RMK AO2 SLP115 T02440206
KEWK 211555Z AUTO 04009G14KT 10SM CLR 22/10 A3026 RMK AO1
KEWN 211554Z 32007KT 10SM SCT019 26/20 A2984 RMK AO2 SLP104 T02610200
KEWR 211551Z 36004KT 2 1/2SM HZ SCT007 BKN010 OVC013 22/19 A2981 RMK AO2 SFC VIS 3 SLP094 T02220194
KEXX 211555Z AUTO 24004KT 10SM CLR 26/17 A2992 RMK AO2 T02560167
KEYE 211553Z AUTO 27015G20KT 10SM CLR 21/09 A2989 RMK AO2 SLP117 T02060094
KEYF 211555Z AUTO 32007KT 10SM CLR 26/16 A2991 RMK AO2 T02610158
KEYW 211553Z 14003KT 10SM CLR 29/23 A3001 RMK AO2 SLP162 T02940228
KEZF 211555Z AUTO 00000KT 10SM CLR 25/17 A2983 RMK AO2 T02500174
KEZM 211555Z AUTO 30007KT 10SM CLR 28/18 A3007 RMK AO2 T02790177
KEZS 211555Z AUTO 35010G19KT 10SM OVC020 13/09 A2992 RMK AO2 T01320085
KF05 211555Z AUTO 00000KT 10SM CLR 29/20 A3015 RMK AO1 T02890202
KF44 211555Z AUTO 00000KT 10SM CLR 28/18 A3010 RMK AO2
KF46 211555Z AUTO 00000KT 10SM CLR 29/20 A3011 RMK AO2 T02870195
KF70 211555Z AUTO 00000KT 10SM OVC012 18/14 A3002 RMK AO1
KFAF 211558Z AUTO 32008KT 10SM SCT013 23/23 A2980 RMK AO2 SLP094 $
KFAM 211555Z AUTO 33008G14KT 10SM CLR 22/08 A3010 RMK AO1
KFAR 211553Z 10SM OVC009 13/11 A3022 RMK AO2 SLP238 T01330106
KFAT 211553Z 25005KT 10SM FEW100 FEW130 SCT150 21/12 A2996 RMK AO2 SLP141 MTNS OBSCD DSNT N-NE E T02110122
KFAY 211553Z AUTO 33010KT 10SM CLR 27/16 A2991 RMK AO2 SLP120 T02670156
KFBG 211558Z AUTO 31008KT 10SM CLR 26/17 A2991 RMK AO2 SLP129 T02590167
KFBL 211554Z AUTO 34009KT 10SM BKN025 16/08 A3013 RMK AO2
KFBR 211555Z AUTO 00000KT BKN110 12/05 A3040 RMK AO2 T01210048 PWINO
KFCI 211555Z AUTO 32005KT 10SM CLR 26/14 A2986 RMK AO1
KFCM 211553Z 33011G19KT 10SM BKN024 14/09 A3012 RMK AO2 SLP200 T01440089
KFCS 211558Z AUTO 19009KT 10SM SCT023 OVC065 17/11 A3043 RMK AO2 SLP259 T01740112
KFDK 211550Z 15003KT 10SM SKC 27/18 A2984
KFDR 211553Z AUTO VRB04KT 10SM CLR 29/22 A3011 RMK AO2 SLP179 T02890217
KFDW 211555Z AUTO 27005KT 10SM CLR 26/17 A2998 RMK AO1
KFDY 211553Z AUTO 27016G26KT 10SM FEW032 22/13 A2975 RMK AO2 PK WND 27030/1532 SLP067 T02170128 $
KFET 211555Z AUTO 32011G14KT 10SM CLR 19/09 A3025 RMK AO2 T01910090
KFEW 211556Z AUTO 16012G20KT 10SM CLR 16/02 A3039 RMK AO2 SLP231 T01550019
KFFA 211555Z AUTO 35009G19KT 10SM OVC009 24/22 A2974 RMK AO2 T02430217
KFFC 211553Z AUTO VRB06KT 10SM CLR 27/17 A3007 RMK AO2 SLP177 T02720172
KFFL 211555Z AUTO 32015G25KT 10SM CLR 19/08 A3007 RMK AO2
KFFM 211554Z AUTO 35008KT 10SM OVC013 13/10 A3021 RMK AO2
KFFO 211558Z 29014G22KT 10SM CLR 23/07 A2982 RMK AO2A PK WND 28030/16 SLP095 T02330074
KFFT 211553Z AUTO 28008KT 10SM BKN023 24/18 A2988 RMK AO2 SLP111 T02440183
KFFX 211551Z AUTO 31015G19KT 5SM RA OVC009 14/13 A2972 RMK AO2 T01370129
KFFZ 211547Z 13005KT 40SM SCT150 28/14 A2996
KFGN 211554Z AUTO 32005KT 10SM SCT009 SCT013 12/09 A3016 RMK AO2
KFGX 211555Z AUTO 26014G18KT 10SM BKN018 OVC028 24/19 A2988 RMK AO2 T02430194
KFHR 211553Z AUTO 00000KT 10SM 17/14 A2987 RMK AO2 SLP116 T01670139 $
KFHU 211556Z AUTO 06003KT 10SM CLR 23/18 A3018 RMK AO2 SLP164 T02330178 $
KFIG 211554Z AUTO 21010G18KT 170V230 10SM SCT027 SCT046 BKN055 22/18 A2977 RMK AO2 RAE09 SLP071 P0001 T02220183
KFIT 211552Z AUTO 19009KT 10SM FEW017 SCT024 BKN029 24/19 A2986 RMK AO2 RAB03E14 SLP113 P0000 T02440194
KFKA 211556Z AUTO 34016G21KT 10SM BKN019 BKN026 BKN031 13/12 A3007 RMK AO2 T01330115
KFKL 211555Z 22010G22KT 10SM FEW018 BKN026 OVC042 23/18 A2974 RMK AO1
KFKN 211555Z AUTO 31008KT 10SM SCT012 24/18 A2982 RMK AO1
KFKS 211551Z AUTO 35011G24KT 5SM RA BKN012 OVC017 13/11 A2977 RMK AO2 T01270106
KFLD 211553Z AUTO 35016G23KT 10SM BKN024 BKN029 OVC070 14/11 A2990 RMK AO2 SLP123 T01440106
KFLG 211557Z 22005KT 10SM CLR 18/13 A3033 RMK AO2 SLP172 T01780128 $
KFLL 211553Z VRB05KT 10SM FEW030 SCT160 BKN250 29/22 A3000 RMK AO2 SLP158 T02940217
KFLO 211553Z 32008KT 10SM CLR 27/16 A2994 RMK AO2 SLP136 T02720161
KFLP 211555Z AUTO 01008KT 10SM SCT018 BKN025 BKN075 24/19 A3011 RMK AO1
KFLY 211555Z AUTO 18010G14KT 10SM BKN021 18/10 A3049 RMK AO2 T01790096
KFME 211545Z AUTO 00000KT 10SM CLR 23/17 A2985 RMK AO1
KFMH 211555Z 14013G19KT 8SM BKN011 BKN060 24/21 A2988 RMK AO2
KFMM 211555Z AUTO 12008KT 10SM OVC100 16/07 A3039 RMK AO2 T01600070
KFMN 211553Z 10012KT 10SM CLR 23/12 A3028 RMK AO2 SLP189 T02280122
KFMY 211553Z 35005KT 10SM BKN028 OVC110 27/24 A3000 RMK AO2 SLP161 T02670239
KFNB 211553Z AUTO 33011G16KT 10SM CLR 22/10 A3020 RMK AO2 SLP219 T02170100
KFNL 211555Z AUTO 05005KT 10SM CLR 17/06 A3040 RMK AO1
KFNT 211553Z 26010G20KT 10SM FEW021 BKN065 19/13 A2966 RMK AO2 PK WND 26026/1527 SLP039 T01890128
KFOA 211555Z AUTO 30013G17KT 10SM CLR 23/10 A3001 RMK AO2 T02330095
KFOD 211555Z AUTO 35008G18KT 10SM CLR 17/08 A3016 RMK AO1
KFOE 211553Z 31008KT 10SM CLR 23/12 A3021 RMK AO2 SLP220 T02330117
KFOK 211553Z 15007KT 10SM FEW043 BKN055 BKN070 24/21 A2985 RMK AO2 SLP106 T02390206
KFOT 211555Z AUTO 26003KT 10SM BKN009 OVC012 15/14 A2999 RMK AO1
KFOZ 211553Z AUTO 34005KT 10SM SCT020 SCT026 13/09 A3015 RMK AO2
KFPK 211555Z AUTO 26011G20KT 10SM SCT023 BKN050 OVC065 16/12 A2969 RMK AO2 T01610118
KFPR 211553Z 32005KT 10SM SCT020 BKN200 28/21 A3001 RMK AO2 SLP162 T02830211 $
KFQD 211555Z AUTO 30004KT 10SM CLR 26/18 A2997 RMK AO2 T02590184
KFRG 211553Z 13008KT 10SM FEW013 24/21 A2981 RMK AO2 SLP095 T02440206
KFRI 211558Z AUTO 35010KT 10SM CLR 22/10 A3023 RMK AO2 DZE1556 SLP229 P0000
KFRM 211555Z AUTO 33010G15KT 320V020 10SM FEW024 16/07 A3016 RMK AO1
KFSD 211556Z 34013KT 10SM FEW040 18/08 A3023 RMK AO2 SLP237 T01780083
KFSE 211555Z AUTO 32007KT 10SM BKN006 OVC013 11/11 A3021 RMK AO2
KFSM 211553Z 33004KT 10SM BKN080 27/21 A3010 RMK AO2 SLP189 T02670206
KFSO 211555Z AUTO 17014G20KT 10SM CLR 24/16 A2969 RMK AO2 T02350156
KFST 211553Z AUTO 15013G17KT SCT020 OVC075 24/19 A3016 RMK AO2 SLP169 T02390194 $
KFSW 211555Z AUTO 32013G20KT 10SM CLR 21/08 A3005 RMK AO2
KFTG 211258Z AUTO 18004KT 10SM SCT060 OVC070 16/09 A3037 RMK AO2
KFTK 211558Z AUTO 29009KT 10SM BKN023 BKN032 25/19 A2991 RMK AO2 CIG 022V028 SLP125 T02510194
KFTN 211655Z AUTO 04007KT 10SM BKN021 28/22 A3006 RMK AO1
KFTW 211553Z 18005KT 10SM CLR 29/19 A3011 RMK AO2 SLP187 T02890194
KFTY 211553Z AUTO 28009KT 10SM CLR 28/17 A3006 RMK AO2 SLP169 T02780172
KFUL 211553Z 00000KT 10SM OVC020 22/16 A2999 RMK AO2 SLP153 T02170156
KFVE 211553Z AUTO 18012G22KT 10SM CLR 20/13 A2974 RMK AO2 SLP070 T02000133
KFVX 211555Z AUTO 24004KT 10SM CLR 28/14 A2983 RMK AO2
KFWA 211554Z 28017G26KT 10SM FEW035 BKN041 19/11 A2980 RMK AO2 PK WND 29026/1547 SLP089 T01890111
KFWB 211555Z AUTO 04011G19KT 10SM SCT120 23/12 A3015 RMK AO2
KFWC 211550Z AUTO 29006KT 10SM CLR A3000 RMK AO2
KFWN 211553Z AUTO 24004KT 10SM CLR 24/17 A2982 RMK AO2 SLP097 T02440167
KFWS 211547Z 00000KT 10SM SKC 29/19 A3013
KFWZ 211555Z AUTO 10SM CLR 13/03 A3040 RMK AO2
KFXE 211553Z 00000KT 10SM FEW030 SCT120 29/22 A3000 RMK AO2 SLP163 T02890222
KFXY 211555Z AUTO 34010G19KT 10SM OVC019 14/10 A3014 RMK AO2
KFYG 211535Z AUTO 29007G14KT 10SM CLR 21/12 A3007 RMK AO2
KFYJ 211555Z AUTO 31006KT 10SM CLR 25/18 A2983 RMK AO2 T02500183
KFYM 211555Z AUTO 28009KT 240V310 10SM CLR 27/18 A3004 RMK
KFYV 211553Z 34004KT 8SM -RA OVC014 22/21 A3014 RMK AO2 RAB04E13B41 SLP196 P0001 T02220206
KFZG 211555Z AUTO 32008KT 10SM CLR 29/13 A3007 RMK AO2 T02890133
KFZY 211554Z AUTO 17008KT 10SM -RA FEW065 BKN090 OVC110 21/17 A2965 RMK AO2 RAB17 SLP038 P0000 T02110172
KGAD 211555Z 24005KT 10SM CLR 27/18 A3006 RMK AO1
KGAF 211555Z AUTO 33007KT 10SM OVC008 13/12 A3023 RMK AO2
KGAG 211553Z AUTO 06013G19KT 9SM -RA SCT027 OVC055 20/17 A3023 RMK AO2 LTG DSNT E RAB24 TSB31E45 SLP214 P0006 T02000172
KGAI 211555Z 17006KT 10SM CLR 24/17 A2986 RMK AO1
KGBD 211555Z AUTO 06008KT 10SM CLR 21/11 A3029 RMK AO1
KGBG 211555Z AUTO 31016G24KT 10SM CLR 19/11 A3000 RMK AO2 T01880105
KGBK 211555Z AUTO 04013G19KT 10SM FEW020 SCT026 BKN039 29/25 A2998 RMK A01
KGCC 211553Z AUTO 17008KT 10SM CLR 17/05 A3035 RMK AO2 SLP262 T01720050
KGCD 211555Z AUTO 11005KT 10SM CLR 17/05 A3006 RMK AO2 T01740045
KGCK 211554Z 07016G23KT 10SM CLR 22/04 A3031 RMK AO2 SLP237 T02170044
KGCM 211555Z AUTO 04008KT 10SM CLR 22/16 A3018 RMK AO2
KGCN 211554Z 22007KT 10SM SCT029 BKN038 19/13 A3030 RMK AO2 SLP176 T01890128
KGDB 211553Z AUTO 32011G17KT 10SM CLR 15/10 A3021 RMK AO2 T01520101
KGDJ 211555Z AUTO 09003KT 10SM CLR 29/20 A3013 RMK AO2 T02890199
KGDP 211551Z AUTO 05020KT 1 1/2SM BR OVC002 18/18 RMK AO2 RAE37 SLPNO P0000 T01780178 $
KGED 211554Z AUTO 05008KT 10SM BKN013 24/20 A2980 RMK AO2 SLP089 T02440200
KGEG 211553Z 05009KT 10SM FEW200 18/07 A3002 RMK AO2 SLP154 T01780072
KGEU 211547Z 00000KT 20SM SCT100 SCT180 28/18 A2996
KGEV 211555Z AUTO 28012G23KT 10SM OVC021 21/14 A3003 RMK AO2 T02110136
KGEY 211553Z AUTO 21003KT 10SM CLR 15/06 A3029 RMK AO2 SLP239 T01500061
KGEZ 211553Z AUTO 29011KT 10SM CLR 22/10 A2989 RMK AO2 SLP116 T02220100
KGFA 211556Z AUTO 35002KT 10SM CLR 13/06 A3024 RMK AO2 SLP247 T01300062
KGFK 211553Z 36008KT 10SM OVC007 12/11 A3022 RMK AO2 SLP239 T01220106 $
KGFL 211553Z AUTO 18010KT 10SM CLR 24/16 A2977 RMK AO2 SLP078 T02390161
KGGE 211555Z AUTO 33006KT 10SM CLR 26/18 A2996 RMK AO2
KGGG 211553Z 00000KT 10SM CLR 30/20 A3009 RMK AO2 SLP183 T03000200
KGGI 211555Z AUTO 31016G23KT 10SM CLR 17/08 A3010 RMK AO2 T01710084
KGGP 211555Z AUTO 30015G20KT 10SM SCT036 SCT042 18/10 A2987 RMK AO2
KGGW 211553Z AUTO 16004KT 10SM CLR 14/05 A3029 RMK AO2 SLP263 T01440050
KGHB 211600Z AUTO 10008G16KT 8SM SCT018 BKN025 OVC041 29/24 A2999 RMK A01
KGHG 211530Z AUTO 16008KT 10SM SCT027 26/20 A2989 RMK AO2
KGHW 211553Z AUTO 33011G15KT 10SM SCT015 SCT023 14/11 A3019 RMK AO2
KGIC 211555Z AUTO 00000KT 5SM CLR 18/05 A3009 RMK AO1 T01760052
KGIF 211553Z AUTO VRB03KT 10SM FEW015 OVC047 27/21 A3004 RMK AO2 SLP169 T02720211
KGJT 211553Z 11015KT 7SM -RA FEW070 OVC100 16/14 A3027 RMK AO2 SLP193 P0017 T01560139
KGKJ 211553Z AUTO 25008KT 10SM BKN026 BKN041 BKN070 21/17 A2969 RMK AO2 SLP047 T02110167 TSNO
KGKY 211553Z 19004KT 10SM CLR 29/19 A3012 RMK AO2 SLP189 T02890189
KGLD 211553Z AUTO 05004KT 10SM CLR 18/06 A3039 RMK AO2 SLP265 T01830061
KGLE 211555Z AUTO 20005KT 10SM CLR 28/18 A3014 RMK AO2 T02820184
KGLH 211553Z AUTO VRB05KT 10SM CLR 31/21 A3005 RMK AO2 SLP181 T03060206
KGLR 211553Z AUTO 03008G16KT 5SM -RA BR SCT008 BKN014 OVC022 10/09 A2971 RMK AO2 SLP062 P0001 T01000089 $
KGLS 211552Z 08013KT 10SM FEW027 29/23 A3004 RMK AO2 SLP172 T02940228
KGLW 211555Z AUTO 25008KT 10SM OVC016 23/19 A2996 RMK AO2 T02320193
KGLY 211555Z AUTO 33005KT 10SM CLR 23/12 A3016 RMK AO2
KGMJ 211555Z AUTO 06006KT 10SM CLR 24/13 A3016 RMK AO2
KGMU 211553Z 24010KT 10SM CLR 27/17 A3000 RMK AO2 SLP149 T02720167
KGNA 211556Z AUTO VRB06KT 12/03 A3007 RMK AO1 SLP184 T01170028
KGNC 211555Z AUTO 00000KT 4SM RA SCT006 BKN027 OVC036 20/20 A3022 RMK AO2 P0017 T02000195
KGNF 211555Z AUTO 25003KT 10SM CLR 28/20 A3007 RMK AO2
KGNR 211556Z AUTO 18010G19KT 18/15 A2984 RMK AO1 SLP107 T01780150
KGNT 211556Z AUTO 16012KT 10SM SCT025 21/12 A3038 RMK AO2
KGNV 211553Z 04007KT 10SM CLR 28/18 A3003 RMK AO2 SLP166 T02780178
KGOK 211553Z AUTO VRB04KT 10SM FEW055 28/21 A3015 RMK AO2 SLP200 T02780211
KGON 211556Z 14011KT 7SM FEW012 BKN033 BKN042 23/21 A2985 RMK AO2 SLP106 T02280211
KGOO 211600Z AUTO 00000KT 1 1/4SM SCT011 OVC080 20/09 A3004 RMK AO1
KGOP 211550Z AUTO 00000KT 9SM CLR 28/21 A3014 RMK AO2
KGOV 211554Z AUTO 01012G17KT 4SM -RA SCT009 OVC016 13/12 A2969 RMK AO2 T01280120
KGPH 211555Z AUTO 33013G18KT 10SM CLR 21/10 A3017 RMK AO2
KGPI 211555Z 02007KT 10SM CLR 17/07 A3014 RMK AO2 SLP203 T01670072
KGPM 211550Z 19004KTS 10SM SKC 29/18 A3013
KGPT 211553Z 00000KT 10SM CLR 29/20 A3004 RMK AO2 SLP171 T02890200
KGPZ 211555Z AUTO 33012KT 10SM BKN019 OVC024 12/07 A3015 RMK AO1
KGRB 211600Z 35015G24KT 10SM SCT024 BKN036 BKN043 14/10 A2989 RMK AO2 T01390100 $
KGRD 211556Z AUTO 26007KT 10SM CLR 28/18 A3001 RMK AO2 SLP156 T02780178
KGRF 211558Z AUTO 13003KT 10SM CLR 14/13 A2989 RMK AO2 SLP125 T01350130 PWINO $
KGRI 211553Z 35009KT 10SM CLR 20/06 A3030 RMK AO2 SLP253 T02000061
KGRK 211555Z 18003KT 7SM SCT037 28/20 A3011 RMK SLP188
KGRR 211553Z 28015KT 10SM BKN014 OVC021 16/13 A2970 RMK AO2 RAB1456E27 SLP055 P0000 T01560133 $
KGRY 211555Z AUTO 00000G12KT 10SM CLR 28/24 A2998 RMK A01
KGSB 211558Z AUTO VRB01KT 10SM CLR 25/19 A2986 RMK AO2 SLP114 T02450193 $
KGSH 211553Z AUTO 29018G25KT 10SM SCT032 SCT040 OVC048 A2980 RMK AO2 SLPNO $
KGSO 211554Z 27008KT 10SM FEW250 27/16 A2991 RMK AO2 SLP118 T02670161
KGSP 211553Z 24008KT 10SM CLR 26/17 A2998 RMK AO2 SLP141 T02610172
KGTB 211558Z AUTO 20010KT 2 1/2SM RA FEW002 BKN035 BKN045 19/16 A2965 RMK AO2 VIS 2 1/2V6 SLP038 P0006
KGTF 211553Z 12004KT 10SM CLR 14/08 A3023 RMK AO2 SLP230 T01440078 $
KGTR 211550Z 24006KT 10SM SKC 29/18 A3008
KGTU 211548Z VRB03KT 10SM SCT025 28/21 A3011
KGUC 211555Z AUTO 03006KT 10SM SCT037 BKN045 11/09 A3053 RMK AO1 P0004
KGUL 211555Z AUTO 10SM CLR 29/24 A2997 RMK A01
KGUP 211553Z AUTO 15012KT 10SM -RA OVC090 17/12 A3034 RMK AO2 RAB41 SLP114 P0000 T01720117
KGUR 211555Z AUTO 10006KT 10SM CLR 22/08 A3039 RMK AO2 T02150077 PWINO
KGUS 211558Z AUTO 30022G27KT 10SM FEW040 19/13 A2984 RMK AO2 PK WND 29031/42 SLP105 T01910128 $
KGUY 211553Z AUTO 07010KT 10SM BKN060 22/12 A3029 RMK AO2 SLP214 T02220117
KGVL 211553Z AUTO 26015KT 10SM CLR 26/16 A3007 RMK AO2 SLP169 T02560161
KGVT 211555Z AUTO 27003KT 10SM CLR 30/17 A3011 RMK AO2
KGVX 211555Z AUTO 07019KT 10SM FEW029 29/22 A3004 RMK A01
KGWB 211555Z AUTO 25011G18KT 215V285 10SM SCT033 18/10 A2979 RMK AO2
KGWO 211553Z AUTO VRB05KT 10SM CLR 29/21 A3007 RMK AO2 SLP180 T02890206 TSNO
KGWR 211555Z AUTO 36011KT CLR 16/10 A3025 RMK A01 P000
KGWW 211555Z AUTO 31004KT 10SM CLR 25/18 A2987 RMK AO2 T02450180
KGXA 211555Z AUTO 36003KT 10SM FEW240 22/08 A3003 RMK AO2 SLP136 T02160079 TSNO $
KGXY 211555Z AUTO 14013G17KT 10SM CLR 19/06 A3039 RMK AO1
KGYB 211555Z AUTO 06005KT 10SM SCT020 28/22 A3012 RMK AO2 T02830221
KGYH 211547Z 25010KT 10SM CLR 27/11 A3000
KGYI 211555Z AUTO 23005KT 10SM CLR 29/19 A3013 RMK AO2 T02860188
KGYL 211554Z AUTO 33012G17KT 10SM SCT023 SCT030 SCT042 15/09 A3015 RMK AO2 T01510087
KGYR 211547Z VRB05KT 10SM BKN080 BKN180 28/15 A2996
KGYY 211545Z 28015G25KT 15SM OVC034 17/10 A2987
KGZH 211553Z AUTO 08005KT 10SM CLR 29/18 A3007 RMK AO2 SLP179 T02890178
KGZL 211535Z AUTO 30004KT 9SM SCT050 OVC075 25/19 A3013 RMK AO2
KH21 211555Z AUTO 30006KT 10SM CLR 22/08 A3015 RMK AO2
KH78 211100Z 06013KT 12SM BKN010 27/22 A2995 RMK SEAS 2-3
KHAE 211535Z AUTO 30011G17KT 10SM CLR 21/08 A3008 RMK AO2
KHAF 211555Z AUTO 17005KT 5SM BR OVC012 17/15 A3001 RMK AO2
KHAI 211555Z AUTO 27010G17KT 10SM SCT023 BKN032 OVC055 16/11 A2977 RMK AO2 T01600114
KHAO 211553Z AUTO 30017G23KT 10SM FEW032 23/13 A2986 RMK AO2 SLP106 T02330133
KHBG 211553Z AUTO VRB03KT 10SM CLR 28/19 A3007 RMK AO2 SLP180 T02780194 $
KHBI 211550Z AUTO 25008KT 10SM CLR 24/16 A2995 RMK AO2 T02440156
KHBR 211553Z AUTO 36007KT 10SM CLR 29/20 A3016 RMK AO2 SLP196 T02890200
KHBV 211550Z AUTO 02008KT 10SM 25/24 A3004 RMK AO2 T02540238
KHCD 211552Z AUTO 35009G21KT 10SM SCT022 SCT030 16/11 A3016 RMK AO2 T01550106
KHCO 211553Z AUTO 34007KT 10SM OVC009 13/12 A3021 RMK AO2
KHDC 211555Z AUTO 01007KT 10SM CLR 29/18 A3007 RMK AO2
KHDE 211555Z AUTO 02009KT 10SM CLR 19/05 A3032 RMK AO2 T01860049
KHDN 211555Z AUTO 34004KT 10SM OVC075 15/04 A3037 RMK AO1
KHDO 211602Z AUTO 10010KT 10SM FEW026 SCT038 BKN047 28/22 A3010 RMK AO2 T02780217
KHEF 211545Z 17005KT 10SM CLR 24/17 A2983
KHEI 211553Z AUTO 32005KT 10SM CLR 17/04 A3033 RMK AO2 SLP273 T01720044
KHEQ 211555Z AUTO 07008KT 10SM CLR 19/03 A3039 RMK AO2
KHEY 211553Z AUTO 07005KT 10SM CLR 28/17 A3006 RMK AO2 SLP065 T02780167
KHEZ 211555Z AUTO 00000KT 10SM CLR 28/22 A3008 RMK AO1
KHFD 211553Z 16009G16KT 10SM BKN010 BKN018 OVC025 24/21 A2983 RMK AO2 SLP100 T02390206
KHFJ 211555Z AUTO 01012G15KT 10SM CLR 23/10 A3017 RMK AO2
KHGR 211553Z 15007KT 10SM CLR 24/15 A2980 RMK AO2 SLP097 T02440150
KHHF 211555Z AUTO 02006KT 10SM SCT009 BKN013 OVC075 22/21 A3021 RMK AO2 LTG DSNT SW P0002 T02240214
KHHG 211555Z AUTO 27013G24KT 10SM BKN037 BKN046 19/12 A2982 RMK AO2 T01860115
KHHR 211553Z 00000KT 10SM BKN030 22/17 A2999 RMK AO2 SLP155 T02170172
KHHW 211555Z AUTO 31004KT 10SM CLR 29/20 A3011 RMK AO2 T02930204
KHIB 211553Z AUTO 35009KT 10SM FEW023 14/08 A3011 RMK AO2 SLP203 T01390078
KHIE 211552Z AUTO 18009KT 10SM SCT060 25/13 A2981 RMK AO2 SLP092 T02500133
KHIF 211558Z AUTO 10010G19KT 10SM -RA FEW040 BKN055 BKN085 17/09 A3019 RMK AO2 RAB1503DZB1516E1518 SLP173 P0000 T01740085
KHII 211555Z AUTO 18012KT 10SM CLR 32/10 A2990 RMK AO2
KHIO 211553Z 00000KT 10SM CLR 18/12 A2989 RMK AO2 SLP119 T01780122
KHJH 211555Z AUTO 35009KT 10SM CLR 21/05 A3027 RMK AO2 T02110049
KHJO 211553Z AUTO 33006KT 10SM CLR 21/12 A2996 RMK AO2 SLP145 T02110122
KHKA 211553Z AUTO 28008KT 10SM FEW055 28/22 A3003 RMK AO2 SLP164 T02830222
KHKS 211553Z 00000KT 10SM CLR 29/18 A3008 RMK AO2 SLP178 T02940183
KHKY 211553Z 27008KT 10SM CLR 26/17 A2995 RMK AO2 SLP122 T02560167
KHLC 211553Z AUTO 04007KT 10SM CLR 22/06 A3032 RMK AO2 SLP254 T02170056
KHLG 211553Z 21014KT 10SM SCT016 BKN021 OVC029 22/18 A2978 RMK AO2 SLP078 T02170178
KHLN 211553Z 00000KT 10SM CLR 13/06 A3025 RMK AO2 SLP243 T01280056
KHLR 211556Z AUTO 04004KT 10SM SCT027 29/21 A3011 RMK AO2 SLP218 T02940211 PWINO
KHLX 211555Z AUTO 27010G18KT 10SM BKN023 BKN029 22/16 A2999 RMK AO2 T02190164
KHMN 211558Z AUTO 00000KT 10SM CLR 23/17 A3019 RMK AO2 SLP160 T02290172 $
KHND 211556Z 04005KT 10SM FEW090 26/15 A3004 RMK AO2 T02550150 SLP149
KHNR 211555Z AUTO 35013G19KT 9SM CLR 18/10 A3023 RMK AO2
KHNZ 211555Z AUTO 28004KT 10SM CLR 24/16 A2989 RMK AO2 T02410162
KHOB 211550Z 09004KT 3SM -RA BR BKN008 BKN024 OVC033 19/19 A3023
KHOE 211555Z AUTO 09004KT 10SM CLR 29/17 A3005 RMK AO2
KHON 211555Z AUTO 36008KT 10SM CLR 17/08 A3027 RMK AO2 SLP250 T01670078
KHOP 211558Z AUTO 29013KT 10SM SCT016 26/23 A2997 RMK AO2 SLP146 T02560230
KHOT 211553Z AUTO 27006KT 10SM CLR 29/21 A3009 RMK AO2 SLP182 T02890211
KHOU 211553Z 07011KT 10SM FEW037 29/21 A3005 RMK AO2 SLP179 T02940206
KHPN 211556Z 29003KT 1SM R16/P6000FT BR BKN003 OVC004 21/20 A2982 RMK AO2 SLP095 T02110200
KHQI 211555Z AUTO 05018KT M1/4SM FZFG A3001 RMK A01
KHQM 211553Z AUTO 18006KT 8SM OVC007 15/14 A2992 RMK AO2 SLP135 T01500139
KHQU 211555Z AUTO 29008KT 10SM CLR 28/21 A3006 RMK AO1 T02790208
KHQZ 211547Z 00000KT 10SM CLR 29/18 A3011
KHRI 211553Z AUTO 00000KT 10SM CLR 18/09 A2995 RMK AO2 SLP137 T01830094
KHRJ 211555Z AUTO 29003KT 10SM CLR 24/16 A2991 RMK AO2 T02380163
KHRL 211552Z 35007KT 10SM SCT012 29/26 A2997 RMK AO2 SLP149 T02940256
KHRO 211553Z AUTO 32006KT 9SM FEW014 BKN018 OVC110 23/21 A3013 RMK AO2 SLP192 T02330206
KHRT 211558Z AUTO 08011KT 10SM CLR 28/15 A3003 RMK AO2 RAB1534E1545DZB1545E1554 SLP171 P0000 T02830153 $
KHRX 211555Z AUTO 34003KT 10SM CLR 23/20 A3027 RMK AO2 T02340202
KHSA 211550Z 07007KT 7SM CLR 28/19 A3005
KHSB 211555Z AUTO 35008KT 10SM CLR 23/12 A3003 RMK AO2 T02280115
KHSE 211551Z AUTO 33008G19KT 10SM SCT015 BKN021 OVC049 23/22 A2974 RMK AO2 SLP070 T02330217 TSNO
KHSI 211553Z AUTO 01010KT 10SM CLR 19/05 A3030 RMK AO2 SLP252 T01940050
KHSP 211555Z AUTO 27011G16KT 10SM BKN007 18/10 A2999 RMK AO2 T01820096
KHST 211558Z AUTO 18002KT 10SM FEW150 30/23 A3001 RMK AO2 SLP165 T02950226
KHSV 211553Z 24011KT 10SM SCT055 29/18 A3005 RMK AO2 SLP168 T02940178 $
KHTL 211553Z AUTO 01008KT 8SM -RA SCT015 OVC030 14/12 A2966 RMK AO2 RAB34 SLP045 P0001 T01390117 $
KHTS 211551Z 20009KT 10SM BKN019 BKN030 OVC080 22/19 A2986 RMK AO2 SLP106 T02220189
KHUF 211553Z 30008G22KT 10SM CLR 22/11 A2995 RMK AO2 SLP136 T02170106
KHUL 211553Z AUTO 19012G21KT 10SM OVC019 19/15 A2986 RMK AO2 SLP112 T01940150
KHUM 211547Z 03009KT 7SM SCT026 28/12 A3003 RMK ATIS C VA/RY36 MS
KHUT 211552Z 04007KT 10SM CLR 23/13 A3025 RMK AO2 SLP225 T02280128 $
KHVN 211553Z 11006KT 10SM SCT015 BKN023 OVC100 25/21 A2983 RMK AO2 SLP100 T02500206
KHVR 211553Z AUTO 00000KT 10SM CLR 12/06 A3024 RMK AO2 SLP245 T01220056
KHVS 211555Z AUTO 28007KT 10SM CLR 27/03 A2996 RMK AO2
KHWD 211554Z AUTO 26005KT 10SM OVC015 19/17 A3000 RMK AO2 SLP168 T01940167
KHWO 211553Z 00000KT 10SM CLR 29/21 A3002 RMK AO2 SLP164 T02940211
KHWV 211556Z AUTO 15008KT 10SM OVC009 24/21 A2983 RMK AO2 CIG 009V013 SLP101 T02390211 TSNO
KHWY 211555Z AUTO 19006KT 10SM CLR 27/19 A2982 RMK AO2 T02700188
KHXD 211550Z 32006KT 10SM SKC 27/18 A3001
KHYA 211556Z 14007KT 10SM FEW060 23/20 A2987 RMK AO2 SLP117 T02330200
KHYI 211545Z 06008KT 10SM SCT018 28/21 A3009
KHYR 211553Z AUTO 36009G17KT 10SM SCT026 BKN033 12/07 A3007 RMK AO2 SLP187 T01170067
KHYS 211555Z 03008KT 10SM CLR 21/08 A3031 RMK AO1
KHYW 211555Z AUTO 30003KT 5SM HZ CLR 26/17 A2994 RMK AO2
KHYX 211554Z AUTO 26013G19KT 10SM SCT022 SCT033 OVC045 18/13 A2963 RMK AO2
KHZE 211555Z AUTO 21004KT 10SM CLR 14/07 A3031 RMK AO2
KHZL 211555Z AUTO 17005KT 10SM CLR 21/16 A2986 RMK AO2
KHZR 211555Z AUTO 03003KT 10SM CLR 27/21 A3006 RMK AO2 T02740206
KHZX 211547Z AUTO 32009KT 10SM BKN018 BKN025 BKN031 12/09 A3014 RMK AO2
KHZY 211553Z AUTO 26013G20KT 10SM FEW055 FEW100 22/17 A2969 RMK AO2 RAB14E30 SLP048 P0001 T02170172
KI16 211555Z AUTO 10SM SCT023 BKN030 BKN039 25/20 A2998 RMK AO2 T02490201
KI35 211555Z AUTO 10SM BKN028 OVC037 22/17 A2999 RMK AO1
KI39 211555Z AUTO 23006KT 7SM OVC017 22/18 A2992 RMK AO2
KI69 211554Z AUTO 30010G15KT 10SM BKN029 BKN040 BKN055 25/17 A2985 RMK AO1
KI75 211555Z AUTO 32013G20KT 10SM CLR 19/10 A3014 RMK AO2 T01890099
KIAB 211558Z AUTO 02012KT 3SM HZ CLR 25/07 A3022 RMK AO2 SLP225 T02480070
KIAD 211552Z 16005KT 10SM FEW200 24/16 A2983 RMK AO2 SLP098 T02390156
KIAG 211553Z 22021G29KT 10SM SCT023 SCT030 BKN037 23/18 A2958 RMK AO2 PK WND 21035/1525 SLP012 T02280178
KIAH 211553Z 09006KT 10SM FEW035 29/21 A3006 RMK AO2 SLP179 T02940211
KIBM 211555Z AUTO 14010G14KT 10SM SCT070 18/02 A3039 RMK AO2 T01800024
KICL 211555Z AUTO 34010G15KT 10SM CLR 20/10 A3020 RMK AO2
KICR 211553Z AUTO 33006KT 10SM CLR 17/05 A3033 RMK AO2 SLP266 T01720050
KICT 211553Z 05017KT 10SM FEW140 SCT180 SCT250 26/08 A3022 RMK AO2 SLP219 T02560083
KIDA 211553Z 36006KT 10SM CLR 18/08 A3019 RMK AO2 SLP194 T01830083
KIDI 211555Z AUTO 25010KT 8SM BKN012 OVC021 20/19 A2982 RMK A01
KIDP 211555Z AUTO 05013KT 10SM CLR 23/10 A3019 RMK AO2
KIEN 211552Z AUTO 00000KT 10SM CLR 16/04 A3037 RMK AO2 SLP281 T01610039
KIER 211555Z AUTO 33004KT 10SM CLR 30/21 A3008 RMK AO2 T02960209
KIFA 211555Z AUTO 33015G27KT 10SM BKN027 16/09 A3013 RMK AO2 T01610086
KIFP 211555Z AUTO 01011KT 10SM CLR 30/17 A2991 RMK AO2
KIGM 211551Z AUTO 34004KT 10SM CLR 26/12 A3007 RMK AO2 SLP112 T02610122 $
KIGQ 211555Z AUTO 30011G15KT 10SM BKN032 OVC038 16/10 A2988 RMK AO2 T01600104
KIGX 211556Z AUTO VRB06KT 10SM CLR 26/16 A2990 RMK AO2 SLP119 T02610156 TSNO
KIIB 211555Z AUTO 33015G20KT 10SM OVC021 13/10 A3007 RMK AO2
KIIY 211555Z AUTO 28006KT 10SM CLR 28/20 A3002 RMK AO2
KIJD 211601Z AUTO 10SM SCT020 BKN026 BKN032 24/21 A2985 RMK AO2 T02440206 $
KIJX 211555Z AUTO 31014G17KT 10SM CLR 22/11 A3004 RMK AO2 T02190113
KIKK 211555Z AUTO 31012G17KT 10SM BKN029 OVC037 17/11 A2991 RMK AO2 T01700108
KIKT 211555Z AUTO 08014KT 10SM CLR 29/22 A2999 RMK A01
KIKV 211555Z AUTO 33016G26KT 10SM CLR 18/09 A3012 RMK AO2
KIKW 211553Z AUTO 00000KT 3SM +RA SCT030 BKN048 OVC050 15/14 A2962 RMK AO2 P0014 T01460140
KILE 211555Z AUTO 00000KT 10SM FEW041 FEW049 27/19 A3011 RMK AO1
KILG 211559Z 00000KT 10SM SCT014 23/18 A2982 RMK AO2 T02330183
KILM 211553Z AUTO 31010G19KT 10SM CLR 23/19 A2988 RMK AO2 RAB16E29 SLP118 P0000 T02280189
KILN 211554Z AUTO 26015G23KT 10SM FEW033 24/16 A2982 RMK AO2 SLP090 T02390156
KIML 211553Z AUTO 06007KT 10SM CLR 20/02 A3038 RMK AO2 SLP269 T02000017
KIMM 211555Z AUTO 00000KT 7SM CLR 32/27 A3002 RMK A01 P000
KIMT 211554Z AUTO 34016G22KT 10SM BKN020 BKN027 OVC035 11/06 A2992 RMK AO2 RAB31E51 SLP136 P0000 T01060061
KIND 211554Z 28019G25KT 10SM FEW028 21/10 A2990 RMK AO2 SLP120 T02110100
KINF 211555Z AUTO 00000KT 10SM CLR 28/14 A3003 RMK AO2
KINJ 211555Z AUTO 00000KT 10SM SCT034 29/19 A3012 RMK AO2 T02900191
KINK 211601Z AUTO 11011KT 10SM SCT012 BKN018 24/22 A3014 RMK AO2 T02440217
KINL 211555Z AUTO 06006KT 10SM CLR 12/06 A3015 RMK AO2 SLP216 T01170056
KINS 211558Z AUTO 08002KT 10SM CLR 23/13 A3006 RMK AO2 SLP135 T02300134 VISNO RWY08 $
KINT 211554Z 25005KT 10SM CLR 26/15 A2993 RMK AO2 SLP124 T02560150
KINW 211556Z AUTO 00000KT 10SM CLR 23/13 A3021 RMK AO2 SLP160 T02330133
KIOB 211555Z AUTO 28005KT 10SM SCT016 BKN025 OVC085 23/20 A2991 RMK AO2
KIOW 211552Z AUTO 34013G21KT 10SM 17/11 A3006 RMK AO2 SLP178 T01670106 $
KIPJ 211555Z AUTO 22006KT 10SM CLR 27/15 A2995 RMK AO2 T02670153
KIPL 211553Z AUTO 23005KT 10SM CLR 28/11 A2986 RMK AO2 SLP111 T02830106
KIPN 211555Z AUTO 09019KT 10SM 27/23 A2997 RMK A01
KIPT 211554Z VRB03KT 10SM CLR 24/16 A2975 RMK AO2 SLP072 T02390161
KIRK 211555Z AUTO 32010KT 10SM CLR 20/11 A3011 RMK AO2 SLP195 T02000111
KIRS 211554Z AUTO 27010G22KT 10SM SCT032 BKN040 OVC049 16/11 A2977 RMK AO2
KISM 211550Z 14005KT 10SM BKN022 27/22 A3003
KISN 211552Z AUTO VRB03KT 10SM CLR 13/05 A3030 RMK AO2 SLP267 T01330050 $
KISO 211556Z AUTO 30006KT 10SM CLR 22/18 A2988 RMK AO2
KISP 211556Z 15008KT 10SM BKN014 BKN041 OVC110 24/20 A2981 RMK AO2 SLP093 T02440200
KISQ 211554Z AUTO 35015G22KT 10SM OVC013 10/07 A2983 RMK AO2 T00950072
KISW 211554Z AUTO 35017G29KT 10SM SCT023 SCT035 SCT050 14/08 A2998 RMK AO2 PK WND 33030/1458 RAB00E12 SLP153 P0000 T01440078
KITH 211556Z 18009G15KT 10SM SCT032 OVC110 23/17 A2974 RMK AO2 T02330172 SLP066
KITR 211553Z AUTO 11009KT 10SM CLR 18/02 A3040 RMK AO2 SLP260 T01780022
KIWA 211547Z 12005KT 45SM SCT080 28/17 A2999
KIWD 211555Z 01006KT 10SM BKN020 BKN029 OVC035 08/05 A3003 RMK AO1
KIWI 211553Z AUTO 20007G14KT 170V250 5SM -RA BR OVC004 19/18 A2991 RMK AO2 RAB52 SLP129 P0000 T01890178
KIXA 211555Z AUTO 33007KT 10SM CLR 25/16 A2985 RMK AO2
KIXD 211553Z 32012KT 10SM CLR 22/10 A3019 RMK AO2 SLP214 T02220100
KIYA 211555Z AUTO 05005KT 10SM CLR 28/21 A3004 RMK AO2 T02830206
KIZA 211555Z AUTO 00000KT 10SM OVC009 17/13 A3002 RMK AO2
KIZG 211554Z AUTO 14003KT 10SM OVC008 18/16 A2988 RMK AO2 CIG 007V012 SLP118 T01830156
KJAC 211554Z 00000KT 10SM CLR 14/06 A3035
KJAN 211554Z 00000KT 10SM CLR 29/18 A3008 RMK AO2 SLP180 T02890183
KJAS 211555Z AUTO 00000KT 10SM CLR 28/20 A3010 RMK AO2 T02830204
KJAX 211556Z 05005KT 10SM FEW040 27/17 A3002 RMK AO2 SLP165 T02720172 $
KJBR 211553Z AUTO 29010G14KT 10SM FEW080 28/21 A3004 RMK AO2 SLP168 T02780206
KJCT 211551Z AUTO 10SM FEW047 BKN055 26/20 A3014 RMK AO2 SLP168 T02610200
KJDD 211555Z AUTO 23003KT 10SM CLR 30/20 A3012 RMK AO2
KJDN 211548Z AUTO 00000KT 14/06 A3030 RMK AO1 SLP267 T01440061
KJEF 211553Z 31009G17KT 10SM CLR 23/09 A3011 RMK AO2 SLP182 T02330089
KJER 211553Z AUTO 09008KT 10SM FEW120 16/07 A3013 RMK AO2 SLP181 T01610067
KJES 211555Z AUTO 02005KT 10SM CLR 30/18 A3003 RMK AO2
KJFK 211551Z 14007KT 10SM SCT015 BKN022 OVC200 24/20 A2981 RMK AO2 SLP096 T02440200 $
KJFX 211555Z AUTO 29009KT 9SM CLR 29/19 A3008 RMK A02 P-128
KJFZ 211555Z AUTO 27010G17KT 10SM SCT017 SCT028 23/18 A3001 RMK AO2 T02270176
KJGG 211555Z AUTO 34006KT 10SM SCT011 25/20 A2983 RMK AO1
KJHW 211555Z AUTO 22012G16KT 10SM FEW025 SCT036 19/17 A2969 RMK AO1
KJKA 211555Z AUTO 08010G15KT 10SM CLR 29/20 A3004 RMK AO2 T02880204
KJKJ 211555Z AUTO 01007KT 10SM OVC007 12/12 A3023 RMK AO2
KJKL 211553Z AUTO VRB04KT 10SM OVC018 22/18 A2993 RMK AO2 SLP124 T02170183
KJLN 211553Z 03012G18KT 10SM CLR 23/08 A3018 RMK AO2 SLP209 T02330078
KJMR 211553Z AUTO 34010G14KT 10SM SCT021 BKN028 OVC033 12/07 A3015 RMK AO2
KJMS 211556Z AUTO 32008KT 10SM CLR 15/10 A3025 RMK AO2 SLP247 T01500100
KJNX 211555Z AUTO 33003KT 10SM CLR 26/16 A2988 RMK AO2
KJOT 211555Z AUTO 30009G16KT 270V340 10SM SCT032 OVC038 16/09 A2991 RMK AO2 T01590090
KJQF 211551Z 25007KT 10SM CLR 27/16 A2998
KJSO 211555Z AUTO 00000KT 10SM CLR 28/18 A3013 RMK AO2 T02850191
KJST 211554Z AUTO 23011G18KT 10SM FEW043 BKN100 OVC110 20/18 A2982 RMK AO2 RAB01E32 SLP087 P0006 T02000178
KJSV 211555Z AUTO 00000KT 7SM -RA SCT006 SCT011 BKN037 24/20 A3012 RMK AO2
KJTC 211555Z AUTO 14003KT 10SM FEW100 19/13 A3037 RMK AO2
KJVL 211545Z 31014G18KT 10SM BKN019 OVC025 15/11 A2991
KJVW 211555Z AUTO 20004KT 10SM CLR 29/25 A3008 RMK AO2
KJWG 211555Z AUTO 01013KT 10SM SCT024 BKN100 26/21 A3019 RMK AO2 T02640209
KJWY 211555Z AUTO 00000KT 10SM SCT033 29/18 A3013 RMK AO2 T02860176
KJXI 211555Z AUTO 26004KT 10SM CLR 29/21 A3012 RMK AO2
KJXN 211556Z 28012G26KT 250V320 10SM SCT028 BKN035 OVC046 15/10 A2972 RMK AO2 PK WND 27026/1548 SLP061 T01500100
KJYG 211555Z AUTO 32012G18KT 10SM CLR 16/09 A3017 RMK AO2
KJYL 211555Z AUTO 28003KT 10SM CLR 29/19 A3002 RMK AO2 T02850194
KJYM 211555Z AUTO 27011G19KT 10SM SCT034 BKN043 OVC050 16/10 A2974 RMK AO2 T01640098
KJYO 211555Z AUTO 19006KT 10SM CLR 25/18 A2983 RMK AO2
KJYR 211555Z AUTO 36012KT 10SM CLR 18/08 A3028 RMK AO2
KJZI 211555Z AUTO 29011KT 10SM CLR 28/23 A2998 RMK A02 P000
KKLS 211555Z AUTO 00000KT 10SM OVC006 16/12 A2994 RMK AO1
KL18 211555Z AUTO 00000KT 10SM OVC015 19/15 A3000 RMK AO2
KL35 211555Z AUTO 00000KT 10SM CLR 12/04 A3023 RMK AO2
KL38 211555Z AUTO 04006KT 10SM CLR 28/21 A3004 RMK AO2 T02780208
KLAA 211553Z AUTO 00000KT 10SM FEW120 18/07 A3037 RMK AO2 SLP249 T01830072
KLAF 211554Z 27017G24KT 10SM CLR 19/12 A2988 RMK AO2 SLP114 T01890117 $
KLAL 211550Z 00000KT 10SM BKN030 27/22 A3003
KLAM 211555Z AUTO 18005KT 10SM CLR 19/11 A3044 RMK AO2 T01910110
KLAN 211600Z 26013KT 10SM SCT017 BKN042 BKN070 16/12 A2969 RMK AO2 RAE1556 P0000 T01560117
KLAR 211553Z AUTO 15019KT 10SM CLR 14/04 A3041 RMK AO2 PK WND 15028/1541 SLP213 T01390044
KLAS 211556Z COR VRB03KT 10SM SCT100 26/14 A2998 RMK AO2 SLP128 TCU DSNT NE T02610144
KLAW 211553Z VRB03KT 10SM CLR 29/20 A3014 RMK AO2 SLP192 T02940200 $
KLAX 211553Z 03004KT 10SM FEW015 SCT020 BKN027 21/16 A3000 RMK AO2 SLP155 T02110161
KLBB 211553Z 04008KT 4SM -RA BR OVC004 21/20 A3023 RMK AO2 RAB41 CIG 002V007 SLP194 P0000 T02110200
KLBE 211550Z 23014KT 10SM BKN030 21/20 A2980
KLBF 211553Z AUTO 24003KT 10SM BKN100 17/08 A3036 RMK AO2 SLP271 T01670078
KLBL 211555Z AUTO 08015G25KT 10SM CLR 23/07 A3031 RMK AO1
KLBT 211554Z AUTO 32008KT 10SM CLR 27/16 A2992 RMK AO2 SLP128 T02670161
KLBX 211553Z AUTO 07009KT 10SM FEW020 FEW042 29/23 A3004 RMK AO2 SLP171 T02890233
KLCG 211555Z AUTO 34011G14KT 10SM CLR 19/09 A3026 RMK AO2 T01850091
KLCH 211553Z 06005KT 10SM CLR 28/22 A3005 RMK AO2 SLP182 T02830222
KLCI 211555Z AUTO 16007KT 10SM BKN018 BKN024 OVC034 21/17 A2985 RMK AO1
KLCK 211555Z AUTO 26014G20KT 10SM SCT034 BKN048 BKN060 24/17 A2978 RMK AO2 T02390167
KLCQ 211555Z AUTO 06003KT 10SM CLR 27/17 A3004 RMK AO2
KLDJ 211555Z AUTO 32005KT 7SM OVC011 24/21 A2983 RMK AO2 T02410213
KLDM 211555Z AUTO 35015G27KT 10SM -RA BKN008 OVC014 13/12 A2977 RMK AO2 P0002 T01250115
KLEB 211553Z 20014G21KT 10SM CLR 24/16 A2981 RMK AO2 SLP085 T02440161
KLEE 211553Z 16006KT 10SM BKN026 29/21 A3004 RMK AO2 SLP170 T02890211
KLEW 211555Z AUTO 17007KT 5SM OVC003 17/16 A2988 RMK AO1
KLEX 211554Z 26012G19KT 10SM SCT021 BKN028 BKN095 26/19 A2990 RMK AO2 SLP114 T02560194
KLFI 211558Z AUTO 32007KT 10SM OVC014 24/22 A2979 RMK AO2 OVC V BKN SLP095 T02370216 $
KLFK 211553Z AUTO VRB03KT 10SM CLR 31/20 A3009 RMK AO2 SLP185 T03060200
KLFT 211553Z 06006KT 10SM CLR 29/21 A3005 RMK AO2 SLP173 T02890211
KLGA 211551Z 04004KT 10SM BKN015 OVC021 22/19 A2980 RMK AO2 SLP092 T02220194 $
KLGB 211553Z 00000KT 10SM BKN025 21/16 A2999 RMK AO2 SLP156 T02110156
KLGC 211555Z AUTO 29006KT 10SM CLR 29/20 A3007 RMK AO2 T02880200
KLGD 211555Z AUTO 00000KT 10SM CLR 15/03 A3005 RMK AO1
KLGU 211551Z AUTO 00000KT 10SM CLR 16/09 A3018 RMK AO2 SLP182 T01610094
KLHB 211555Z AUTO 35004KT 10SM CLR 28/22 A3009 RMK AO2 T02840221
KLHM 211555Z AUTO 15009KT 10SM CLR 19/12 A2993 RMK AO1
KLHQ 211553Z AUTO 28011KT 10SM SCT030 SCT038 26/17 A2979 RMK AO2 SLP078 T02610172
KLHW 211558Z AUTO 32008KT 10SM CLR 28/17 A3001 RMK AO2 SLP165 T02800168
KLHX 211553Z AUTO 11009KT 10SM CLR 19/06 A3038 RMK AO2 SLP239 T01940061
KLHZ 211555Z AUTO 31004KT 10SM CLR 25/17 A2989 RMK AO2
KLIC 211555Z AUTO 14013G20KT 10SM OVC100 17/03 A3043 RMK AO2 SLP254 T01720033
KLIT 211553Z 31007KT 10SM SCT065 BKN250 31/20 A3006 RMK AO2 SLP180 T03060200
KLJF 211553Z AUTO 36010G17KT 10SM SCT025 16/12 A3016 RMK AO2
KLKR 211555Z AUTO 26007KT 10SM CLR 26/18 A2997 RMK AO2
KLKU 211555Z AUTO 10003KT 10SM CLR 27/16 A2983 RMK AO2
KLKV 211555Z AUTO 00000KT 10SM FEW110 14/04 A3013 RMK AO1
KLLJ 211555Z AUTO 04003KT 10SM CLR 13/07 A3023 RMK AO2 SLP194 T01330067
KLLQ 211553Z AUTO VRB06KT 10SM CLR 31/19 A3006 RMK AO2 SLP177 T03060194
KLMO 211554Z AUTO 35005KT 7SM BKN048 19/06 A3040 RMK AO2 T01910063
KLMT 211553Z 00000KT 10SM CLR 13/08 A3007 RMK AO2 SLP154 T01280078
KLNC 211555Z AUTO 00000KT 10SM CLR 29/19 A3012 RMK AO2 T02870185
KLND 211553Z AUTO 35009KT 10SM CLR 16/03 A3035 RMK AO2 SLP230 T01610028 TSNO
KLNK 211554Z 33011KT 10SM CLR 21/08 A3025 RMK AO2 SLP236 T02060083
KLNL 211555Z AUTO 34010G21KT 10SM OVC018 07/04 A3001 RMK AO2 P0001 T00720040
KLNP 211555Z AUTO 22013KT 10SM SCT026 22/16 A3002 RMK AO2
KLNR 211556Z AUTO 32009G18KT 10SM OVC026 18/11 A2997 RMK AO2 SLP140 T01780106
KLNS 211553Z 00000KT 10SM CLR 22/16 A2983 RMK AO2 SLP100 T02170156
KLOL 211553Z AUTO 00000KT 10SM CLR 17/11 A3011 RMK AO2 SLP164 T01670111
KLOM 211555Z AUTO 23003KT 10SM CLR 23/18 A2982 RMK AO1
KLOR 211553Z AUTO VRB03KT 10SM CLR 28/18 A3005 RMK AO2 SLP173 T02780178 TSNO $
KLOT 211555Z AUTO 31014G18KT 10SM OVC031 16/10 A2990 RMK AO2 T01560095
KLOU 211553Z 31011KT 10SM BKN028 BKN034 25/18 A2990 RMK AO2 SLP119 T02500183
KLOZ 211553Z AUTO 23008KT 10SM BKN025 BKN060 23/18 A2996 RMK AO2 RAB11E31 SLP134 P0000 T02330183 $
KLPC 211555Z AUTO 00000KT 10SM OVC016 18/13 A3003 RMK AO1
KLPR 211553Z AUTO 28012G27KT 10SM FEW029 SCT034 SCT044 24/15 A2972 RMK AO2 PK WND 26028/1543 SLP058 T02390150 TSNO
KLQK 211555Z AUTO 23008KT 10SM CLR 27/18 A3000 RMK AO2 T02650183
KLRD 211556Z 06007KT 10SM SCT014 28/24 A3006 RMK AO2 T02830238 SLP167
KLRF 211558Z AUTO 28005KT 10SM FEW190 30/21 A3007 RMK AO2 SLP183 T02980210
KLRJ 211555Z AUTO 35011G17KT 10SM CLR 17/09 A3023 RMK AO2
KLRO 211555Z AUTO 32009KT 8SM CLR 27/17 A2997 RMK AO2
KLRU 211555Z AUTO 02006KT 10SM BKN065 23/17 A3023 RMK AO2 T02340168 PWINO
KLSB 211555Z AUTO 10SM OVC029 24/17 A3018 RMK AO2
KLSE 211601Z 34016G23KT 10SM BKN025 OVC033 16/10 A3002 RMK AO2 T01610100
KLSF 211558Z AUTO VRB03KT 10SM CLR 27/17 A3006 RMK AO2 SLP180 T02740169
KLSV 211558Z AUTO 07007KT 10SM SCT095 25/18 A2999 RMK AO2 SLP135 T02490177 $
KLTS 211558Z AUTO VRB03KT 10SM CLR 29/21 A3015 RMK AO2 DZB1506E1516 SLP195 P0000 T02850213 $
KLUA 211555Z AUTO 19005KT 10SM CLR 27/16 A2983 RMK AO2
KLUD 211555Z AUTO 00000KT 10SM CLR 28/18 A3014 RMK AO2 T02760182
KLUF 211558Z AUTO VRB01KT 10SM BKN075 28/16 A2995 RMK AO2 SLP129 T02840157 $
KLUK 211553Z 28013G20KT 10SM SCT035 SCT049 SCT060 25/17 A2985 RMK AO2 SLP103 T02500167
KLUM 211555Z AUTO 35015G23KT 10SM BKN035 BKN041 15/07 A3006 RMK AO2 T01510067
KLUX 211555Z AUTO 23008KT 10SM CLR 27/12 A2999 RMK AO2
KLVJ 211553Z AUTO 08009G22KT 10SM CLR 30/22 A3006 RMK AO2 SLP178 T03000217
KLVK 211553Z 27006KT 10SM OVC014 18/14 A3000 RMK AO2 SLP155 T01830144
KLVM 211553Z AUTO 24004KT 10SM CLR 11/05 A3030 RMK AO2 SLP241 T01110050
KLVN 211550Z AUTO 34011KT 10SM BKN026 BKN030 13/09 A3012 RMK AO2
KLVS 211553Z AUTO 06010KT 10SM BKN016 BKN035 18/13 A3046 RMK AO2 SLP220 T01830128
KLWA 211555Z AUTO 31014G24KT 10SM SCT015 BKN024 OVC043 15/13 A2978 RMK AO2 T01500128
KLWB 211555Z AUTO 20005KT 10SM SCT019 SCT029 22/17 A2993 RMK AO2 T02220168
KLWC 211552Z AUTO 34010G17KT 10SM CLR 22/12 A3020 RMK AO2 SLP220 T02220117 $
KLWD 211553Z AUTO 34015G20KT 10SM CLR 18/11 A3015 RMK AO2 SLP205 T01830106 $
KLWM 211554Z 15007KT 10SM CLR 26/20 A2987 RMK AO2 SLP115 T02560200
KLWS 211556Z AUTO 04003KT 10SM CLR 17/07 A2999 RMK AO2 SLP150 T01720067
KLWT 211554Z AUTO 08003KT 10SM CLR 17/06 A3027 RMK AO2 SLP234 T01720061 $
KLWV 211553Z AUTO 30013KT 10SM CLR 23/13 A2997 RMK AO2 SLP147 T02330128
KLXL 211557Z AUTO 33004KT 10SM SCT024 BKN034 13/08 A3016 RMK AO2
KLXN 211555Z AUTO 01005KT 10SM SCT100 20/05 A3034 RMK AO2 T01960052
KLXT 211553Z AUTO 33011KT 10SM CLR 22/10 A3018 RMK AO2 SLP212 T02170100
KLXV 211553Z AUTO 20006KT 10SM BKN008 OVC011 09/08 A3058 RMK AO2 CIG 005V008 SLP212 T00940078
KLXY 211555Z AUTO 00000KT 10SM CLR 28/20 A3010 RMK AO2 T02800197
KLYH 211554Z 22006KT 10SM CLR 24/18 A2989 RMK AO2 SLP113 T02440178
KLYV 211555Z AUTO 35012G16KT 10SM CLR 16/08 A3023 RMK AO2
KLZU 211445Z 25007KT 10SM CLR 24/15 A3006 RMK OBSERVER: JW RWY 25 IN USE, VISUAL APPROACH. ATIS CODE: K
KLZZ 211555Z AUTO 09003KT 10SM SCT025 27/21 A3012 RMK AO2 T02700214
KM19 211556Z AUTO 33010KT 10SM CLR 28/21 A3005 RMK AO2 T02770211 SLP174
KM25 211555Z AUTO 32009KT 10SM BKN016 24/21 A3001 RMK AO2
KM30 211555Z AUTO 32005KT 10SM SCT023 BKN029 25/20 A3000 RMK AO2 T02490201
KM40 211555Z AUTO 21004KT 8SM CLR 31/21 A3008 RMK AO2
KM63 211556Z AUTO 02010KT 5SM FEW050 25/17 A3019 RMK AO2 SLP156 T02500172
KMAE 211553Z AUTO 31007KT 10SM CLR 21/13 A2996 RMK AO2 SLP143 T02060128
KMAF 211555Z 14010KT 10SM OVC005 23/21 A3017 RMK AO2 T02280211
KMAI 211553Z AUTO VRB04KT 10SM CLR 28/19 A3005 RMK AO2 SLP175 T02780189
KMAN 211555Z AUTO 19004KT 10SM CLR 18/10 A3004 RMK AO1
KMAO 211555Z AUTO 29007KT 10SM CLR 26/16 A2994 RMK AO2
KMBG 211552Z AUTO 29006KT 10SM CLR 12/07 A3028 RMK AO2 SLP258 T01220072
KMBL 211555Z AUTO 35013G24KT 9SM BKN008 BKN016 OVC024 13/11 A2976 RMK AO1 P0002
KMBS 211553Z 28011KT 2SM -RA FEW009 BKN016 OVC020 16/14 A2965 RMK AO2 SFC VIS 10 RAB24 SLP038 P0007 T01560139
KMCB 211553Z AUTO 09003KT 10SM CLR 27/18 A3007 RMK AO2 SLP179 T02670183
KMCD 211557Z AUTO 01015G20KT 10SM OVC019 10/09 A2975 RMK AO2 T01020085
KMCE 211553Z AUTO 33009KT 10SM CLR 21/14 A2995 RMK AO2 SLP141 T02060139
KMCF 211558Z AUTO 07005KT 10SM CLR 28/25 A3002 RMK AO2 SLP169 T02770245 $
KMCI 211553Z 33012KT 10SM FEW140 22/12 A3018 RMK AO2 SLP210 T02170117
KMCJ 211555Z AUTO 08004G14KT 10SM CLR 29/20 A3003 RMK AO1
KMCK 211553Z AUTO 05008KT 10SM BKN090 21/04 A3035 RMK AO2 SLP264 T02060044
KMCN 211553Z 31006KT 10SM CLR 28/16 A3005 RMK AO2 SLP172 T02830156 $
KMCO 211553Z 36003KT 10SM SCT023 BKN085 BKN250 BKN300 29/22 A3002 RMK AO2 SLP164 T02890222
KMCW 211553Z AUTO 34015KT 10SM OVC022 14/10 A3013 RMK AO2 SLP200 T01440100
KMCX 211555Z AUTO 29015G19KT 10SM BKN035 BKN041 BKN050 18/12 A2987 RMK AO2 T01810115
KMDD 211555Z AUTO 00000KT 10SM SCT010 OVC014 23/23 A3019 RMK AO2 T02310229
KMDH 211552Z AUTO 36006G16KT 10SM CLR 23/11 A3004 RMK AO2 SLP168 T02330111
KMDJ 211555Z AUTO 09014KT 10SM FEW029 SCT037 SCT045 29/22 A3003 RMK A01
KMDQ 211555Z AUTO 25008G16KT 10SM SCT044 SCT060 27/15 A3005 RMK AO2
KMDS 211555Z AUTO 33010G20KT 10SM CLR 15/08 A3025 RMK AO2
KMDT 211556Z 15005KT 10SM FEW015 SCT250 23/16 A2981 RMK AO2 SLP094 T02280161
KMDW 211551Z 30017G25KT 10SM BKN027 OVC039 17/11 A2987 RMK AO2 SLP108 BINOVC T01720106 PNO $
KMDZ 211555Z AUTO 35013G20KT 10SM SCT025 OVC033 11/07 A3000 RMK AO2 T01100065
KMEB 211552Z AUTO 34009KT 10SM CLR 27/16 A2994 RMK AO2 SLP135 T02670161
KMEH 211556Z AUTO 00000KT 10SM CLR 14/06 A3006 RMK AO2 SLP166 T01440061
KMEI 211558Z VRB03KT 10SM CLR 28/18 A3008 RMK AO2 SLP181 T02780178
KMEM 211554Z 25007KT 10SM FEW040 SCT200 29/21 A3004 RMK AO2 SLP169 T02940206 $
KMER 211545Z 34011KT 10SM SKC 20/15 A2995
KMEZ 211555Z AUTO 00000KT 10SM SCT055 29/22 A3013 RMK AO2
KMFD 211552Z 25014G21KT 10SM FEW034 23/14 A2975 RMK AO2 SLP066 T02280144
KMFE 211553Z 36005KT 10SM FEW018 SCT023 SCT050 29/24 A2999 RMK AO2 SLP152 T02890244
KMFI 211554Z AUTO 35018G27KT 10SM SCT028 BKN034 14/07 A2999 RMK AO2 PK WND 02029/1523 SLP157 T01390072
KMFR 211553Z 00000KT 10SM SCT110 19/09 A2996 RMK AO2 SLP132 T01940089
KMFV 211555Z AUTO 00000KT 10SM SCT005 23/20 A2977 RMK AO2
KMGC 211555Z AUTO 29014G20KT 10SM BKN024 BKN029 OVC035 15/09 A2985 RMK AO2
KMGE 211558Z 27009KT 10SM FEW035 FEW250 27/19 A3007 RMK AO2A SLP174 T02740187 $
KMGG 211554Z AUTO 33011G15KT 10SM SCT023 BKN029 15/10 A3016 RMK AO2 T01500100
KMGJ 211554Z AUTO 14005KT 10SM FEW023 23/17 A2982 RMK AO2 SLP095 T02330172 TSNO $
KMGM 211553Z 00000KT 10SM CLR 29/18 A3007 RMK AO2 SLP179 T02940178
KMGN 211554Z AUTO 02011G16KT 10SM -RA SCT015 OVC020 10/08 A2975 RMK AO2 T01030085
KMGR 211555Z AUTO 00000KT 10SM CLR 27/15 A3006 RMK AO2
KMGW 211553Z 20009KT 10SM OVC021 22/18 A2982 RMK AO2 RAB1455E08 SLP090 P0000 T02220183
KMGY 211553Z AUTO 30015G22KT 10SM CLR 23/12 A2983 RMK AO2 SLP095 T02330122
KMHE 211553Z AUTO 33009KT 10SM 18/08 A3028 RMK AO2 SLP253 T01780078 $
KMHK 211552Z 01008KT 10SM CLR 23/09 A3023 RMK AO2 SLP231 T02280089
KMHR 211445Z 15006KT 10SM BKN100 16/16 A2993
KMHS 211556Z AUTO 00000KT 10SM FEW120 17/12 A3006 RMK AO2 SLP170 T01670122
KMHT 211600Z 18008KT 10SM SCT011 BKN023 OVC036 23/19 A2984 RMK AO2 T02280194
KMHV 211555Z AUTO 04006KT 10SM CLR 22/09 A3003 RMK AO1
KMIA 211553Z 00000KT 10SM FEW030 SCT160 BKN250 30/21 A3001 RMK AO2 SLP162 T03000211
KMIB 211558Z AUTO 33005KT 10SM CLR 15/08 A3026 RMK AO2 SLP256 T01540082 $
KMIC 211553Z 34010KT 10SM FEW025 16/08 A3012 RMK AO2 SLP200 T01560083
KMIE 211553Z 29014G20KT 10SM CLR 21/10 A2985 RMK AO2 SLP099 T02060100
KMIS 211600Z AUTO 12006G19KT 10SM FEW028 29/22 A3001 RMK A01
KMIV 211554Z AUTO 35006KT 10SM OVC008 22/20 A2981 RMK AO2 SLP094 T02220200
KMIW 211553Z AUTO 34016KT 10SM FEW031 17/09 A3010 RMK AO2 PK WND 33026/1542 SLP192 T01720094
KMJQ 211554Z AUTO 35010G18KT 10SM SCT025 16/08 A3019 RMK AO2
KMJX 211555Z AUTO 00000KT 10SM OVC006 22/20 A2981 RMK AO1
KMKC 211554Z 33007G14KT 10SM CLR 23/12 A3016 RMK AO2 SLP207 T02330117
KMKE 211552Z 32014KT 8SM -RA BKN020 BKN038 BKN060 14/11 A2986 RMK AO2 PK WND 31027/1540 RAB42 SLP111 VIS SW 2 P0000 T01440111
KMKG 211555Z 32018G24KT 4SM R32/5000VP6000FT -RA BR BKN013 BKN018 OVC025 14/12 A2974 RMK AO2 PK WND 32026/1540 SLP071 P0005 T01440122 $
KMKJ 211555Z AUTO 24010G21KT 10SM SCT016 BKN024 BKN030 21/17 A3002 RMK AO2 T02140169
KMKL 211553Z 29009KT 10SM CLR 28/21 A3003 RMK AO2 SLP162 T02830206
KMKN 211555Z AUTO 12003KT 10SM SCT022 SCT095 28/21 A3015 RMK AO2 T02820205
KMKO 211553Z AUTO 02005KT 9SM BKN080 OVC095 23/21 A3013 RMK AO2 RAB1457E09 SLP197 P0000 T02280206
KMKS 211555Z AUTO 32003KT 7SM 27/19 A2997 RMK AO2
KMKT 211555Z AUTO 36014KT 10SM SCT024 16/08 A3014 RMK AO1
KMKY 211555Z AUTO 25005KT 10SM FEW032 31/22 A3000 RMK AO1
KMLB 211553Z VRB03KT 10SM BKN015 BKN027 29/23 A3001 RMK AO2 SLP162 T02890228
KMLC 211553Z AUTO 26005KT 10SM SCT075 OVC095 27/21 A3012 RMK AO2 SLP192 T02720206
KMLE 211555Z AUTO 32006KT 290V010 10SM CLR 19/09 A3022 RMK AO2 T01850091
KMLF 211552Z AUTO 04008KT 10SM -RA FEW009 BKN080 OVC100 15/13 A3022 RMK AO2 SLP190 P0018 T01500133
KMLI 211552Z 32013G20KT 10SM OVC034 17/10 A3001 RMK AO2 PK WND 31026/1458 SLP159 T01670100 $
KMLJ 211555Z AUTO 30005KT 10SM CLR 27/19 A3005 RMK AO2
KMLP 211553Z AUTO 13012G20KT 10SM CLR 14/03 A3021 RMK AO2 SLP145 T01390028
KMLS 211553Z AUTO 15005KT 10SM CLR 16/04 A3031 RMK AO2 SLP261 T01560044
KMLT 211553Z AUTO 10SM OVC011 19/16 A2988 RMK AO2 SLP121 T01940161
KMLU 211553Z 00000KT 10SM CLR 29/21 A3008 RMK AO2 SLP183 T02940211
KMMH 211555Z AUTO 32004KT 10SM RA OVC060 12/07 A3028 RMK AO1
KMMI 211555Z AUTO 22007KT 10SM SCT050 26/18 A3004 RMK
KMMK 211553Z AUTO VRB06KT 10SM OVC018 24/20 A2983 RMK AO2 SLP100 T02390200 TSNO $
KMML 211555Z AUTO 33015G19KT 10SM FEW023 16/08 A3020 RMK AO1
KMMT 211558Z 28007KT 10SM FEW250 28/18 A2998 RMK AO2A SLP153 T02780177
KMMU 211545Z 00000KT 7SM OVC008 22/20 A2983
KMMV 211553Z AUTO 24005KT 10SM CLR 18/13 A2991 RMK AO2 SLP127 T01780128
KMNE 211555Z AUTO 30003KT 10SM CLR 30/21 A3009 RMK AO2
KMNH 211553Z AUTO 17015KT 10SM SCT025 SCT075 15/08 A3045 RMK AO2
KMNI 211555Z AUTO 28005KT 10SM CLR 27/17 A2997 RMK AO2
KMNM 211555Z AUTO 01017G25KT 10SM SCT022 SCT029 BKN041 13/07 A2987 RMK AO1
KMNN 211553Z AUTO 29017G22KT 10SM CLR 23/12 A2977 RMK AO2 PK WND 28027/1504 SLP074 T02330117 TSNO
KMNZ 211555Z AUTO 00000KT 10SM SCT020 28/20 A3015 RMK AO2 T02820201
KMOB 211556Z 07007KT 10SM FEW180 28/20 A3006 RMK AO2 SLP175 T02830200
KMOD 211553Z 36007KT 10SM CLR 21/14 A2994 RMK AO2 SLP139 T02060139
KMOP 211557Z AUTO 27008KT 10SM RA SCT041 BKN060 OVC070 15/14 A2965 RMK AO2 P0004 T01450136
KMOT 211554Z 32006KT 10SM CLR 17/07 A3026 RMK AO2 SLP251 T01670072
KMOX 211546Z AUTO 35012G15KT 10SM CLR 13/11 A3020 RMK AO2
KMPO 211553Z AUTO 20008KT 10SM CLR 22/13 A2986 RMK AO2 SLP106 T02170133 TSNO
KMPV 211551Z AUTO 18013G21KT 10SM CLR 23/14 A2982 RMK AO2 SLP094 T02280144
KMPZ 211555Z AUTO 30012G21KT 10SM CLR 19/07 A3005 RMK AO2 T01910071
KMQB 211555Z AUTO 30016G23KT 10SM CLR 19/10 A3004 RMK AO2 T01930099
KMQE 211554Z AUTO 17014G21KT 25/19 A2988 RMK AO1 SLP125 T02500189
KMQI 211555Z AUTO 34013G19KT 320V030 10SM BKN007 OVC011 23/21 A2976 RMK AO2 T02270211
KMQJ 211554Z AUTO 29016G25KT 10SM CLR 21/04 A2989 RMK AO1
KMQS 211555Z AUTO 00000KT 10SM CLR 21/18 A2985 RMK AO2
KMQY 211556Z 28014G21KT 10SM SCT050 28/19 A2999 RMK AO2 T02770194 SLP161
KMRB 211553Z VRB05KT 10SM CLR 26/14 A2980 RMK AO2 SLP088 T02610144
KMRC 211555Z AUTO 25008KT 10SM BKN070 29/21 A3000 RMK
KMRF 211555Z AUTO 00000KT 10SM BKN021 BKN028 OVC034 21/18 A3027 RMK AO1
KMRH 211558Z AUTO 33014KT 10SM BKN019 OVC085 26/21 A2981 RMK AO2 SLP095 T02560211 TSNO
KMRJ 211555Z AUTO 32007G15KT 10SM OVC019 15/10 A2998 RMK AO2
KMRN 211555Z AUTO 20003KT 10SM CLR 26/17 A3000 RMK AO2 T02560169
KMRT 211554Z AUTO 29020G24KT 10SM SCT034 23/09 A2979 RMK AO2 T02290089
KMRY 211554Z 00000KT 10SM OVC012 18/14 A3002 RMK AO2 SLP177 T01780139
KMSL 211553Z AUTO 26011KT 10SM CLR 28/19 A3006 RMK AO2 SLP171 T02830194
KMSN 211553Z 35010G22KT 10SM BKN022 BKN028 BKN250 17/11 A2992 RMK AO2 DZE1455 SLP131 P0000 T01670111
KMSO 211553Z 00000KT 10SM CLR 12/05 A3018 RMK AO2 SLP212 T01220050
KMSP 211553Z 33014KT 10SM FEW022 SCT026 BKN035 14/09 A3012 RMK AO2 SLP201 T01440094
KMSS 211553Z AUTO 00000KT 9SM -RA FEW036 BKN100 OVC120 21/18 A2963 RMK AO2 RAB05 SLP033 P0004 T02110183
KMSV 211555Z AUTO 10SM CLR 22/15 A2985 RMK AO1
KMSY 211553Z 03009KT 10SM FEW035 29/21 A3004 RMK AO2 SLP174 T02940206
KMTC 211555Z 26015G23KT 10SM FEW026 BKN038 19/10 A2964 RMK PK WND 27026/20 SLP045 T01870100
KMTH 211553Z AUTO 16005KT 10SM CLR 31/24 A3001 RMK AO2 SLP160 T03060239
KMTJ 211553Z AUTO 28005KT 10SM FEW120 16/14 A3038 RMK AO2 SLP216 T01610139
KMTN 211545Z 00000KT 10SM SCT200 22/19 A2984
KMTO 211553Z AUTO 28013KT 10SM CLR 21/12 A2997 RMK AO2 SLP142 T02060122
KMTP 211554Z AUTO VRB04KT 24/22 A2986 RMK AO1 SLP110 T02440217
KMTV 211555Z AUTO 00000KT 10SM CLR 27/17 A2993 RMK AO2 T02740171
KMTW 211556Z AUTO 35018G25KT 10SM BKN020 OVC055 14/11 A2985 RMK AO2 PK WND 34030/1510 RAE04 SLP128 P0000 T01440106
KMUI 211558Z AUTO 14004KT 10SM OVC012 20/20 A2984 RMK AO2 SLP106 T01950195 $
KMUO 211558Z 10015KT 7SM HZ BKN150 20/07 A3005 RMK AO2A SLP157 T01980066 $
KMUT 211555Z AUTO 34015G24KT 10SM FEW035 18/10 A3004 RMK AO2
KMVE 211554Z AUTO 02012G16KT 10SM SCT019 17/11 A3021 RMK AO2
KMVL 211554Z AUTO 20008G14KT 10SM CLR 25/14 A2975 RMK AO2 SLP073 T02500139 $
KMVN 211555Z AUTO 28005KT 10SM CLR 22/12 A3003 RMK AO1
KMVY 211553Z 14014KT 10SM CLR 23/21 A2987 RMK AO2 SLP115 T02330206
KMWA 211558Z 33010KT 25SM SKC 23/10 A3004
KMWC 211545Z 32011G16KT 2 1/2SM +RA SCT007 BKN014 OVC028 13/11 A2987
KMWH 211552Z 03007KT 10SM CLR 21/05 A2999 RMK AO2 SLP149 T02060050
KMWK 211555Z AUTO 00000KT 10SM CLR 26/19 A2994 RMK AO2 T02550185
KMWL 211553Z AUTO 36003KT 10SM CLR 29/18 A3012 RMK AO2 SLP184 T02940183
KMWM 211554Z AUTO 34013G19KT 10SM SCT025 16/09 A3018 RMK AO2
KMWN 211550Z 22025KT 1/16SM FG VV000 09/09 RMK FG INTMT
KMWO 211555Z AUTO 30009G21KT 10SM SCT032 25/07 A2985 RMK AO2 T02450071
KMWS 211545Z 03002G04KT 20/08 RMK SNOW DEPTH M
KMWT 211553Z AUTO 00000KT 10SM CLR 29/21 A3008 RMK AO2 SLP176 T02890211 $
KMXF 211558Z AUTO VRB01KT 10SM CLR 28/18 A3007 RMK AO2 SLP184 T02840184
KMXO 211555Z AUTO 31011G17KT 10SM OVC023 15/10 A3003 RMK AO2
KMYF 211553Z 35004KT 10SM BKN024 22/15 A2999 RMK AO2 SLP150 T02220150
KMYL 211551Z AUTO 00000KT 10SM CLR 11/06 A3016 RMK AO2 SLP188 T01060056
KMYP 211606Z AUTO 29006KT M1/4SM -RA OVC002 05/03 A3083 RMK AO2
KMYR 211545Z 31012KT 10SM SCT090 26/17 A2993
KMYV 211553Z AUTO 16008KT 10SM FEW110 18/14 A2993 RMK AO2 SLP138 T01830139 $
KMYZ 211555Z AUTO 01011G16KT 10SM CLR 21/08 A3024 RMK AO2
KMZG 211555Z AUTO 10011G20KT 8SM FEW018 SCT026 BKN050 26/24 A3001 RMK A01
KMZH 211553Z AUTO 35009G14KT 10SM SCT020 BKN028 BKN034 13/08 A3009 RMK AO2
KMZZ 211555Z AUTO 28015G26KT 10SM CLR 20/10 A2985 RMK AO2 T01990095
KN03 211555Z AUTO 20012KT 10SM SCT033 BKN100 OVC120 22/17 A2975 RMK AO2
KN38 211555Z AUTO 19014KT 10SM FEW025 SCT110 21/17 A2976 RMK AO2
KN60 211552Z AUTO 32006KT 16/08 A3028 RMK AO1 SLP256 T01610078
KNAK 211554Z AUTO 00000KT 10SM CLR 23/18 A2982 RMK AO2 SLP099 T02280178 $
KNBC 211556Z AUTO 15007KT 10SM CLR 28/17 A2999 RMK AO2 SLP156 T02780167
KNBG 211555Z 06009KT 10SM FEW030 29/22 A3002 RMK AO2 SLP165 T02940217 $
KNBT 211556Z AUTO 32016KT 10SM FEW021 26/21 A2979 RMK AO2 SLP092 T02610206 PNO
KNCA 211556Z AUTO 33010G18KT 10SM FEW024 25/19 A2984 RMK AO2 SLP106 T02500194
KNDZ 211556Z AUTO 10008KT 10SM CLR 29/18 A3006 RMK AO2 SLP163 T02890183 $
KNEL 211600Z AUTO 00000KT 10SM OVC012 24/20 A2980 RMK AO2 SLP088 T02440200
KNEW 211553Z 04008KT 10SM CLR 28/22 A3004 RMK AO2 SLP166 T02780217
KNFE 211556Z AUTO 35010G16KT 10SM -RA SCT013 BKN037 OVC048 26/22 A2978 RMK AO2 RAB39 SLP085 P0000 T02560217 $
KNFG 211554Z AUTO 00000KT 8SM OVC024 21/15 A2998 RMK AO2 SLP152 T02110150
KNFL 211556Z AUTO 12006KT 10SM CLR 20/10 A3010 RMK AO2 SLP161 T02000100
KNFW 211552Z 00000KT 10SM FEW050 31/19 A3015 RMK AO2 SLP193 T03060189 VISNO N $
KNGP 211556Z AUTO 07016KT 10SM SCT023 BKN065 OVC100 26/ A3001 RMK AO2 RAB1457E55 CIG 047 SLP160 P0013 T0256 $
KNGU 211559Z 33010KT 10SM BKN012 OVC020 23/21 A2981 RMK AO2 SLP094 T02330206
KNHK 211552Z 34007KT 300V360 10SM FEW015 BKN250 26/18 A2981 RMK AO2 SLP094 T02560183
KNID 211556Z AUTO 00000KT 10SM CLR 24/11 A3000 RMK AO2 SLP139 T02440106 $
KNIP 211553Z 34004KT 10SM FEW250 28/17 A3004 RMK AO2 SLP166 T02830167
KNJK 211556Z AUTO 24005KT 10SM CLR 30/07 A2986 RMK AO2 SLP126 T03000072
KNJM 211557Z AUTO 32011G20KT 10SM BKN020 24/20 A2984 RMK AO2 SLP107 T02440200 $
KNKT 211554Z 31014KT 10SM BKN018 OVC026 25/21 A2983 RMK AO2 SLP099 T02500206
KNKX 211555Z 34004KT 10SM OVC021 22/15 A2999 RMK AO2 SLP149 T02170150
KNLC 211556Z AUTO 32012KT 10SM CLR 22/13 A2996 RMK AO2 SLP144 T02220128 $
KNMM 211556Z AUTO VRB04KT 10SM CLR 28/17 A3008 RMK AO2 SLP193 T02830172 PWINO $
KNOG 211556Z AUTO 07013KT 10SM SCT016 28/24 A3004 RMK AO2 SLP154 T02780239 $
KNPA 211556Z AUTO 10011KT 10SM CLR 29/21 A3003 RMK AO2 SLP171 T02890206
KNQA 211550Z 26008KT 10SM BKN050 BKN250 30/23 A3004
KNQI 211556Z AUTO 05015KT 10SM FEW012 BKN020 BKN048 29/26 A3001 RMK AO2 RAE1459 SLP157 P0000 T02890256 $
KNQX 211553Z VRB05KT 10SM FEW025 BKN060 BKN120 29/23 A3001 RMK AO2 SLP160 T02940228 $
KNRB 211552Z 02005KT 10SM FEW250 28/18 A3002 RMK AO2 SLP166 T02830183 $
KNRS 211556Z AUTO 01003KT 10SM OVC027 23/16 A2998 RMK AO2 SLP152 T02280161
KNSE 211556Z AUTO 11007KT 10SM CLR 28/18 A3005 RMK AO2 SLP162 T02830183 PWINO $
KNSI 211557Z AUTO 31009KT 10SM FEW010 SCT019 OVC027 A3001 RMK AO2 SLPNO $
KNTD 211556Z 04004KT 10SM FEW008 BKN011 OVC030 21/16 A3001 RMK AO2 SLP162 T02110161 $
KNTU 211601Z 34013KT 10SM SCT010 BKN140 BKN250 24/22 A2977 RMK AO2 RAE01 P0000 T02440222
KNUI 211553Z AUTO VRB04KT 10SM SCT015 25/18 A2980 RMK AO2 SLP091 T02500178
KNUQ 211556Z 00000KT 10SM OVC020 18/14 A3002 RMK AO2 SLP166 T01830139
KNUW 211556Z 00000KT 10SM FEW250 16/13 A2987 RMK AO2 SLP120 T01610133
KNXF 211556Z AUTO 00000KT 9SM OVC024 A2998 RMK AO2 SLPNO $
KNXP 211556Z AUTO 31007KT 10SM CLR 26/09 A3004 RMK AO2 SLP139 T02560094
KNY0 211555Z AUTO 11008KT 10SM CLR 22/16 A2978 RMK AO2 T02200160
KNYC 211551Z AUTO 00000KT 3SM HZ BKN009 OVC016 22/19 A2984 RMK AO2 CIG 008V014 SLP096 T02220194
KNYG 211556Z AUTO 19005KT 10SM CLR 23/17 A2984 RMK AO2 SLP105 T02280172 $
KNYL 211557Z 04005KT 10SM CLR 31/14 A2987 RMK AO2 SLP111 T03060139 $
KNZY 211552Z 33004KT 10SM FEW018 BKN031 22/16 A2997 RMK AO2 SLP148 T02220156
KO22 211555Z AUTO 18003KT 10SM CLR 23/08 A2997 RMK AO1
KO54 211555Z AUTO 00000KT 10SM CLR 16/10 A3002 RMK AO1
KO69 211555Z AUTO 30005KT 10SM OVC014 18/14 A3002 RMK AO1
KO86 211555Z AUTO 00000KT 10SM CLR 17/10 A3003 RMK AO1
KOAJ 211555Z AUTO 29008KT 10SM FEW020 23/18 A2987 RMK AO1
KOAK 211553Z 26006KT 10SM OVC014 18/14 A3001 RMK AO2 SLP160 T01830144 $
KOBE 211555Z AUTO CLR 28/22 A3001 RMK AO2
KOCF 211550Z 07004KT 10SM FEW040 27/18 A3004
KOCH 211555Z AUTO 36006KT 10SM CLR 29/21 A3010 RMK AO1
KOCQ 211555Z AUTO 34014G21KT 10SM OVC025 13/09 A2988 RMK AO1 T01300087
KOCW 211555Z AUTO 30009KT 270V330 10SM SCT015 22/19 A2984 RMK AO2 T02230193
KODO 211553Z AUTO 8SM BKN008 OVC013 23/21 A3019 RMK AO2 RAE23B26E48 CIG 005V010 SLP181 P0001 T02280206
KODX 211553Z AUTO 36009KT 10SM CLR 19/07 A3030 RMK AO2 SLP259 T01890072
KOEB 211554Z AUTO 27009G22KT 10SM SCT029 BKN035 OVC050 17/11 A2975 RMK AO2 T01700112
KOEO 211555Z AUTO 32007G14KT 10SM BKN021 OVC030 14/09 A3013 RMK AO2 T01400092
KOFF 211558Z AUTO 33012G16KT 10SM CLR 19/10 A3022 RMK AO2 SLP232 T01910100
KOFK 211556Z AUTO 30010KT 10SM CLR 19/08 A3027 RMK AO2 SLP245 T01890083
KOFP 211554Z AUTO 30005KT 10SM CLR 24/17 A2985 RMK AO2 SLP107 T02440167
KOGA 211555Z AUTO 09003KT 10SM SCT090 19/07 A3038 RMK AO2 T01870069
KOGB 211553Z AUTO 29009KT 10SM CLR 27/16 A2998 RMK AO2 SLP149 T02720161
KOGD 211553Z 13014KT 10SM -RA OVC095 21/06 A3017 RMK AO2 RAB12 SLP164 P0000 T02060056
KOJA 211555Z AUTO 02006KT 10SM CLR A3017 RMK AO2
KOJC 211553Z 36011KT 10SM CLR 22/09 A3018 RMK AO2 SLP210 T02220094
KOKB 211552Z AUTO 00000KT 10SM OVC024 22/16 A2998 RMK AO2 SLP150 T02220161
KOKC 211552Z 01009KT 10SM FEW080 SCT200 29/20 A3014 RMK AO2 SLP191 T02940200
KOKK 211555Z AUTO 29019G26KT 10SM CLR 19/11 A2985 RMK AO1
KOKM 211555Z AUTO 04009KT 10SM SCT044 BKN050 BKN065 26/21 A3013 RMK AO2 T02550208
KOKV 211555Z AUTO 19006KT 10SM CLR 27/14 A2981 RMK AO2
KOKZ 211555Z AUTO 27008KT 10SM CLR 27/17 A3006 RMK AO2 T02650168
KOLE 211555Z AUTO 22008KT 10SM OVC006 18/18 A2972 RMK AO2
KOLF 211553Z AUTO 00000KT 10SM CLR 13/04 A3031 RMK AO2 SLP271 T01280044
KOLM 211554Z 18003KT 10SM CLR 15/13 A2989 RMK AO2 SLP122 T01500133
KOLS 211554Z AUTO 00000KT 10SM CLR 23/19 A3012 RMK AO2 SLP139 T02280189
KOLU 211555Z AUTO 33009G14KT 10SM CLR 19/08 A3028 RMK AO1
KOLV 211550Z 24008KT 10SM FEW040 SCT200 28/23 A3005
KOLY 211555Z AUTO 33009G15KT 10SM CLR 23/11 A3000 RMK AO2
KOLZ 211555Z AUTO 33016G23KT 10SM OVC020 14/10 A3007 RMK AO2
KOMA 211552Z 34014KT 10SM CLR 19/09 A3022 RMK AO2 SLP228 T01890094 $
KOMH 211555Z AUTO 08005KT 10SM CLR 26/16 A2983 RMK AO2
KOMK 211553Z AUTO 36007KT 10SM CLR 17/05 A3002 RMK AO2 SLP161 T01720050
KOMN 211550Z 00000KT 10SM FEW030 27/20 A3002
KONA 211555Z AUTO 35010G16KT 10SM SCT028 BKN034 OVC042 16/09 A3005 RMK AO2
KONL 211555Z AUTO 32009KT 10SM CLR 18/08 A3031 RMK AO2 T01750079
KONM 211555Z AUTO 34004KT 10SM SCT050 23/15 A3028 RMK AO2 T02260146
KONO 211553Z AUTO 00000KT 10SM CLR 15/07 A3004 RMK AO2 SLP167 T01500067
KONP 211555Z AUTO 19007G15KT 10SM OVC009 15/14 A2997 RMK AO2
KONT 211553Z 22004KT 7SM OVC016 19/16 A3000 RMK AO2 SLP150 T01890156
KONX 211555Z AUTO 34009G14KT 300V360 10SM BKN014 OVC020 24/21 A2978 RMK AO2 T02410209
KONZ 211554Z AUTO 25012G17KT 10SM SCT038 SCT055 21/13 A2967 RMK AO2
KOOA 211555Z AUTO 33017G21KT 10SM CLR 18/10 A3009 RMK AO2 T01800097
KOPF 211553Z 30004KT 10SM CLR 30/21 A3001 RMK AO2 SLP163 T03000211
KOPL 211555Z AUTO 01006KT 10SM SCT021 28/22 A3006 RMK AO2 T02770224
KOPM 211555Z AUTO VRB06KT 9SM SCT021 BKN033 28/24 A2997 RMK A01
KOPN 211555Z AUTO 30008KT 10SM CLR 28/17 A3009 RMK AO2
KOQT 211553Z AUTO 25006KT 10SM FEW038 FEW080 26/18 A3001 RMK AO2 SLP149 T02560178
KOQU 211552Z 18014KT 8SM BKN010 BKN050 A2986
KORB 211553Z AUTO 32003KT 10SM CLR 12/04 A3010 RMK AO2
KORC 211555Z AUTO 34011G16KT 10SM CLR 17/08 A3022 RMK AO2
KORD 211551Z 30019G23KT 10SM BKN026 OVC036 17/10 A2987 RMK AO2 SLP112 T01720100 $
KORE 211552Z AUTO 18007KT 10SM BKN010 OVC015 20/19 A2985 RMK AO2 RAB1454E30 CIG 008V014 SLP109 P0001 T02000194
KORF 211551Z AUTO 35009KT 10SM OVC014 23/21 A2979 RMK AO2 SLP086 T02280206 TSNO
KORG 211555Z AUTO 03004KT 10SM CLR 28/21 A3007 RMK AO2 T02810209
KORH 211554Z 18013G19KT 10SM SCT016 BKN021 22/19 A2988 RMK AO2 SLP117 T02220194 $
KORL 211553Z 05004KT 10SM FEW026 FEW034 28/22 A3002 RMK AO2 SLP169 T02780217
KORS 211555Z AUTO 00000KT 9SM CLR 14/14 A2985 RMK AO2
KOSA 211555Z AUTO 25003KT 10SM CLR 30/20 A3011 RMK AO1 T02960196
KOSC 211553Z AUTO 36014G20KT 3SM RA OVC009 12/12 A2962 RMK AO2 P0001 T01260120
KOSH 211553Z 34012G20KT 10SM FEW019 SCT024 OVC070 16/12 A2988 RMK AO2 SLP114 T01560117
KOSU 211553Z 28012G22KT 10SM FEW037 FEW046 24/16 A2978 RMK AO2 PK WND 27027/1537 SLP076 T02390161
KOTG 211555Z AUTO 33016G19KT 10SM BKN028 16/08 A3021 RMK AO1
KOTH 211555Z 00000KT 10SM OVC010 16/16 A2996 RMK AO1
KOTM 211553Z AUTO 33022G28KT 10SM CLR 18/09 A3008 RMK AO2 PK WND 33029/1517 SLP183 T01830089
KOUN 211555Z AUTO 33007KT 10SM SCT075 28/21 A3014 RMK AO2
KOVE 211553Z AUTO 15007KT 10SM CLR 19/14 A2994 RMK AO2 SLP140 T01940144 $
KOVL 211554Z AUTO 33008KT 10SM SCT015 BKN020 BKN025 15/11 A3017 RMK AO2
KOVS 211553Z AUTO 32005KT 10SM OVC022 16/11 A3000 RMK AO2 SLP160 T01560106
KOWA 211555Z AUTO 34010G16KT 10SM OVC028 13/09 A3013 RMK AO2
KOWB 211556Z 31013KT 7SM OVC016 24/19 A2995 RMK AO2 T02440194 SLP140
KOWD 211553Z 16009G17KT 10SM SCT029 BKN036 BKN055 26/19 A2986 RMK AO2 SLP111 T02610189
KOWP 211555Z AUTO 03008G15KT 10SM OVC010 25/20 A3016 RMK AO2 T02450204
KOXB 211553Z AUTO 04007KT 9SM CLR 25/21 A2978 RMK AO2 SLP082 T02500211 TSNO
KOXC 211550Z 17009KT 10SM BKN008 OVC018 23/20 A2986
KOXI 211555Z AUTO 31013G18KT 10SM BKN034 OVC046 17/10 A2985 RMK AO1 T01720099
KOXR 211551Z 01003KT 7SM OVC026 18/16 A3000 RMK AO2 SLP158 T01780156
KOXV 211555Z AUTO 33017KT 10SM CLR 18/08 A3010 RMK AO2
KOZA 211555Z AUTO 14006KT 10SM SCT015 OVC026 25/20 A3018 RMK AO2
KOZR 211558Z AUTO VRB02KT 10SM CLR 28/18 A3006 RMK AO2 SLP179 T02790178 $
KOZW 211555Z AUTO 26014G21KT 10SM SCT045 BKN055 OVC065 16/11 A2968 RMK AO2 T01640111
KP28 211556Z AUTO 06013G21KT 27/06 A3023 RMK AO1 SLP218 T02670056
KP53 211556Z AUTO 36020G29KT 09/07 A2992 RMK AO1 PK WND 01032/1535 SLP133 P0001 T00940067
KP58 211551Z AUTO 30007KT 15/13 A2958 RMK AO1 SLP012 T01500133
KP59 211551Z AUTO 04017G26KT 07/03 A2999 RMK AO1 PK WND 06029/1505 SLP160 T00720028
KP60 211556Z AUTO 00000KT 12/04 A3043 RMK AO1 SLP257 T01170044
KP68 211553Z AUTO 07004KT 13/12 A3021 RMK AO1 SLP176 T01330117
KP69 211552Z AUTO 34003KT 12/09 A3006 RMK AO1 SLP174 T01220094
KP92 211553Z AUTO VRB06KT 30/21 A3002 RMK AO1 SLP166 T03000211
KPAE 211553Z 00000KT 10SM R16R/5000VP6000FT CLR 21/11 A2988 RMK AO2 SLP115 T02110106
KPAH 211553Z 29008KT 10SM SCT025 27/19 A3000 RMK AO2 SLP153 T02720194
KPAM 211558Z AUTO 09004KT 10SM CLR 28/21 A3004 RMK AO2 SLP175 T02770214 $
KPAN 211555Z AUTO 00000KT 10SM CLR 22/15 A3023 RMK AO2
KPAO 211547Z 32004KT 10SM OVC017 19/15 A3000
KPBF 211553Z AUTO 30008KT 10SM CLR 31/19 A3007 RMK AO2 RAB36E38 SLP179 P0000 T03060194
KPBG 211553Z AUTO 14012KT 10SM FEW100 22/16 A2969 RMK AO2 SLP052 T02220156
KPBH 211555Z AUTO 34008G14KT 10SM SCT018 BKN026 OVC032 10/07 A3002 RMK AO2 T00990065
KPBI 211553Z VRB05KT 10SM FEW020 BKN190 BKN240 29/23 A3000 RMK AO2 SLP160 T02890233 $
KPCM 211555Z AUTO 10003KT 10SM SCT017 SCT027 BKN043 29/23 A3004 RMK AO2
KPCW 211553Z AUTO 28015KT 10SM FEW037 23/14 A2971 RMK AO2 T02270138 $
KPCZ 211555Z AUTO 35011G20KT 10SM SCT017 SCT022 SCT043 15/10 A2993 RMK AO2 T01500102
KPDC 211555Z AUTO 32008G18KT 10SM OVC022 15/10 A3002 RMK AO2 T01450095
KPDK 211553Z 27010KT 10SM CLR 27/17 A3006 RMK AO2 SLP164 T02720172
KPDT 211553Z 14005KT 10SM CLR 18/07 A2997 RMK AO2 SLP136 T01780072
KPDX 211553Z 14005KT 10SM FEW050 20/14 A2989 RMK AO2 SLP121 FU FEW050 T02000144
KPEA 211555Z AUTO 34016G22KT 10SM CLR 18/09 A3011 RMK AO2 T01840094
KPEO 211553Z AUTO 20007KT 9SM OVC100 21/17 A2968 RMK AO2 RAB03E44 SLP046 P0001 T02060172
KPEQ 211555Z AUTO 11008KT 10SM SCT014 BKN047 OVC100 24/21 A3014 RMK AO2 T02420205
KPEX 211553Z AUTO 29008KT 10SM SCT018 OVC033 13/10 A3017 RMK AO2 T01250098
KPEZ 211555Z AUTO 06009KT 10SM SCT021 SCT030 BKN050 29/23 A3006 RMK AO2 T02860225
KPGA 211553Z AUTO 00000KT 10SM SCT075 OVC095 20/16 A3017 RMK AO2 LTG DSNT NE RAE15 TSE1455 SLP158 P0000 T02000156
KPGD 211553Z VRB04KT 10SM BKN022 BKN027 28/23 A3003 RMK AO2 SLP168 T02830233
KPGV 211550Z AUTO 30007KT 7SM CLR 23/19 A2988 RMK AO2
KPHD 211553Z AUTO 22007G15KT 10SM FEW024 SCT030 BKN037 24/18 A2975 RMK AO2 SLP067 T02440183
KPHF 211554Z 32008KT 10SM OVC014 25/19 A2981 RMK AO2 SLP094 T02500194
KPHL 211554Z 08004KT 7SM OVC010 22/18 A2982 RMK AO2 SLP099 T02220183
KPHN 211556Z AUTO 25009G16KT 210V280 10SM SCT023 BKN035 OVC043 19/12 A2965 RMK AO2
KPHP 211555Z AUTO VRB03KT 10SM CLR 19/06 A3033 RMK AO2 SLP264 T01890061
KPHT 211555Z AUTO 27008KT 10SM BKN060 BKN070 23/20 A3002 RMK
KPHX 211551Z 10006KT 10SM FEW080 SCT150 SCT250 29/15 A2994 RMK AO2 SLP119 T02940150
KPIA 211554Z 30013G26KT 10SM CLR 20/09 A2997 RMK AO2 PK WND 29026/1550 SLP145 T02000094
KPIB 211555Z AUTO 00000KT 10SM CLR A3009 RMK AO1
KPIE 211553Z 06007KT 10SM CLR 28/23 A3002 RMK AO2 SLP164 T02780228
KPIH 211553Z 02004KT 10SM CLR 17/08 A3016 RMK AO2 SLP177 T01720083
KPIL 211553Z AUTO 33006KT 7SM FEW023 SCT032 29/23 A2996 RMK AO2 SLP145 T02940233
KPIR 211553Z AUTO 28006KT 10SM CLR 17/06 A3030 RMK AO2 SLP259 T01720061
KPIT 211551Z 22009KT 10SM FEW016 BKN022 OVC034 22/18 A2976 RMK AO2 SLP077 T02220183
KPKB 211553Z 25008G16KT 10SM SCT020 SCT028 BKN110 24/19 A2983 RMK AO2 SLP096 T02390189
KPKD 211553Z AUTO 32012KT 10SM BKN016 BKN023 OVC028 12/10 A3017 RMK AO2 SLP223 T01220100 TSNO
KPKV 211555Z AUTO 08014G18KT 10SM CLR 30/24 A3003 RMK AO2 T02950237
KPLN 211554Z AUTO 36009KT 10SM -RA OVC017 10/09 A2976 RMK AO2 SLP082 P0004 T01000089
KPMD 211553Z 00000KT 10SM CLR 22/05 A3002 RMK AO2 SLP141 T02220050
KPMP 211553Z 00000KT 10SM FEW025 SCT150 BKN250 29/21 A3001 RMK AO2 SLP163 T02890211
KPMV 211555Z AUTO 33010G14KT 10SM CLR 19/08 A3022 RMK AO2 T01890079
KPNA 211555Z AUTO 28004KT 10SM CLR 15/04 A3040 RMK AO2
KPNC 211553Z AUTO 06014G21KT 10SM SCT090 25/11 A3019 RMK AO2 SLP212 T02500106 TSNO
KPNE 211554Z AUTO 00000KT 10SM OVC009 22/18 A2984 RMK AO2 SLP102 T02220178 TSNO
KPNM 211541Z AUTO 30010G16KT 10SM SCT022 BKN029 BKN036 14/09 A3014 RMK AO2
KPNS 211553Z 09009KT 10SM CLR 27/19 A3004 RMK AO2 SLP173 T02720189
KPNT 211555Z AUTO 31013G23KT 10SM BKN036 BKN044 19/11 A2993 RMK AO2
KPOB 211558Z AUTO 30006KT 10SM CLR 26/16 A2991 RMK AO2 SLP130 T02580163
KPOC 211547Z 00000KT 7SM OVC013 18/15 A3004
KPOE 211555Z AUTO 00000KT 10SM CLR 28/21 A3008 RMK AO2 SLP185 T02780206
KPOF 211553Z AUTO 34008KT 10SM SCT024 27/18 A3002 RMK AO2 SLP161 T02670183
KPOU 211553Z 00000KT 10SM OVC017 22/18 A2982 RMK AO2 SLP092 T02220178
KPOV 211555Z AUTO 25013G25KT 7SM SCT035 SCT042 SCT049 24/14 A2971 RMK AO2 T02370135
KPPA 211555Z AUTO 14011G26KT 1 3/4SM +RA SCT018 BKN030 OVC060 20/16 A3025 RMK AO2 T02010157
KPPF 211552Z AUTO 03006KT 10SM CLR 24/11 A3020 RMK AO2 SLP216 T02440106
KPPO 211555Z AUTO 30012G20KT 10SM SCT024 SCT030 OVC042 15/10 A2985 RMK AO2 T01520100
KPPQ 211555Z AUTO 32013G18KT 10SM CLR 21/10 A3006 RMK AO2 T02130099
KPQI 211555Z AUTO 19019G27KT 10SM CLR 22/13 A2978 RMK AO1
KPQL 211553Z 04007KT 10SM CLR 29/19 A3004 RMK AO2 SLP175 T02890194
KPQN 211554Z AUTO 36008G17KT 325V025 10SM CLR 16/08 A3022 RMK AO2
KPRB 211553Z AUTO 34003KT 10SM OVC008 16/13 A3002 RMK AO2 SLP161 T01610133 TSNO $
KPRC 211553Z 00000KT 10SM BKN075 23/10 A3020 RMK AO2 SLP144 TCU ALQDS T02280100
KPRG 211555Z AUTO 29015G20KT 10SM CLR 21/12 A2996 RMK AO2 T02130118
KPRN 211556Z AUTO 05004KT 10SM CLR 29/18 A3007 RMK AO2 SLP177 T02890178
KPRO 211555Z AUTO 33012G18KT 10SM CLR 19/09 A3016 RMK AO2 T01850085
KPRS 211555Z AUTO 07007G14KT 10SM BKN029 27/20 A3012 RMK AO2 T02690195
KPRX 211555Z 32007KT 10SM CLR 29/19 A3011 RMK AO1
KPSC 211553Z 36003KT 10SM CLR 17/09 A2996 RMK AO2 SLP142 T01670094
KPSF 211554Z AUTO 18010G19KT 10SM CLR 23/17 A2983 RMK AO2 SLP078 T02280167 $
KPSK 211555Z AUTO 28009KT 10SM SCT029 24/18 A2996 RMK AO2
KPSM 211558Z 17009KT 10SM SCT014 SCT090 BKN170 23/19 A2986 RMK AO2A SLP115 T02290191
KPSN 211555Z AUTO 00000KT 10SM CLR 28/20 A3012 RMK AO2 T02870205
KPSO 211555Z AUTO 00000KT 10SM CLR 18/09 A3046 RMK AO2 T01800091
KPSP 211553Z 00000KT 10SM CLR 27/13 A2990 RMK AO2 SLP121 T02670128
KPSX 211553Z AUTO 07013KT 10SM CLR 30/23 A3003 RMK AO2 SLP169 T03000233
KPTB 211555Z AUTO 36003KT 10SM CLR 23/16 A2985 RMK AO2 T02330158
KPTK 211553Z 26017G24KT 10SM BKN024 BKN030 BKN050 17/11 A2967 RMK AO2 PK WND 27028/1543 SLP044 T01720106
KPTN 211555Z AUTO 05011G16KT 10SM CLR 29/21 A3006 RMK AO1
KPTS 211555Z AUTO 05008KT 10SM CLR 25/11 A3017 RMK AO2 T02450109
KPTT 211555Z AUTO 06012G18KT 10SM CLR 23/05 A3028 RMK AO2
KPTV 211555Z 25003KT 10SM CLR 22/12 A2998 RMK AO1
KPTW 211554Z AUTO 00000KT 10SM FEW014 20/16 A2985 RMK AO2 SLP103 T02000156
KPUB 211553Z 11010KT 10SM BKN120 17/12 A3040 RMK AO2 SLP242 T01720117
KPUC 211553Z AUTO 33006KT 10SM SCT050 BKN060 OVC085 16/13 A3028 RMK AO2 RAB17E47 SLP184 P0002 T01610128
KPUJ 211555Z AUTO 32008KT 10SM CLR 26/20 A3008 RMK AO2
KPUW 211553Z AUTO 10007KT 5SM HZ CLR 21/06 A3002 RMK AO2 SLP155 T02110056
KPVB 211555Z AUTO 31008G17KT 10SM OVC019 14/11 A3000 RMK AO1 T01390108
KPVC 211555Z 16015G18KT 10SM CLR 23/19 A2989 RMK AO1
KPVD 211551Z 15014G20KT 10SM OVC011 24/21 A2988 RMK AO2 SLP116 T02390206
KPVE 211555Z AUTO 26009KT 10SM BKN048 BKN065 27/20 A3002 RMK
KPVF 211555Z AUTO 00000KT 10SM FEW050 SCT070 BKN110 20/09 A3002 RMK AO1
KPVG 211555Z 34003KT 10SM OVC010 22/20 A2982 RMK AO1
KPVJ 211555Z AUTO 28004KT 10SM CLR 29/20 A3013 RMK AO2 T02850198
KPVU 211555Z 19004KT 10SM -RA BKN080 OVC100 17/14 A3020
KPVW 211555Z AUTO 04008KT 10SM BKN006 BKN010 21/21 A3022 RMK AO2 T02110207
KPWA 211553Z 02011G17KT 10SM CLR 28/21 A3015 RMK AO2 SLP195 T02780206
KPWC 211554Z AUTO 34009G16KT 10SM SCT026 BKN038 14/09 A3018 RMK AO2
KPWG 211555Z AUTO 00000KT 10SM FEW034 SCT050 SCT060 29/21 A3012 RMK AO1
KPWK 211552Z 30017G23KT 10SM BKN026 OVC031 16/10 A2988 RMK AO2 PK WND 32026/1528 SLP116 T01610100
KPWM 211551Z 19006KT 5SM BR OVC004 18/17 A2990 RMK AO2 SLP123 T01830172
KPWT 211555Z AUTO 20005KT 10SM CLR 16/14 A2990 RMK AO1
KPYM 211552Z AUTO 16007G15KT 130V190 10SM BKN017 BKN022 BKN050 24/19 A2989 RMK AO2 SLP122 T02440194
KPYX 211555Z AUTO 07017KT 10SM CLR 24/15 A3026 RMK AO2 T02370150
KPZQ 211555Z AUTO 36011G17KT 10SM RA OVC013 10/09 A2973 RMK AO2 T00970092
KQA4 211455Z 33006KT 9999 CLR 27/M12 A2988 RMK SLP063 WND DATA ESTMD ALSTG/SLP ESTMD Q1011 52008
KQAY 211555Z AUTO 00000KT 9000 CLR 34/17 A2967 RMK AO2 SLP043 T03380170 PWINO $
KQAZ 211530Z AUTO 14010KT 9999 CLR 41/00 A2984 RMK CDP03565 CLR
KQBF 211555Z AUTO VRB03KT 9999 FEW180 32/20 A2992 RMK AO2 SLP119 T03160196
KQBL 211556Z AUTO VRB02KT 10SM FEW180 26/15 A3006 RMK AO2 SLP186 T02610147
KQCC 211555Z AUTO VRB03KT 10SM CLR RMK AO2 SLPNO $
KQCL 211555Z AUTO 11002KT 9999 CLR 25/16 A2995 RMK AO2 SLP068 T02480162
KQEA 211533Z AUTO 06003KT 9999 -RA FEW100 BKN120 BKN140 26/22 A2990 RMK AO2 SLP125
KQEI 211600Z AUTO 36001KT 6000 SCT007 12/10 A3015 RMK A02 TSNO
KQEL 211600Z AUTO 05001KT 4000 BR CLR 12/10 A3016 RMK A02 TSNO
KQEN 211600Z AUTO 4800 FEW003 / / RMK A02 TSNO
KQEP 211600Z AUTO 05001KT 3200 HZ CLR 14/11 A3005 RMK A02 TSNO
KQEQ 211600Z AUTO 01002KT 9999 CLR 15/13 A2995 RMK A02 TSNO
KQER 211600Z AUTO 20001KT / /CLR 12/10 A3009 RMK A02 TSNO
KQES 211600Z AUTO 16004KT 6000 // CLR 18/16 A3011 RMK A02 TSNO
KQEV 211600Z AUTO 14001KT 4800 HZ CLR 14/12 A3008 RMK A02 TSNO
KQEW 211600Z AUTO 35001KT 9999 CLR 14/11 A3008 RMK A02 TSNO
KQEX 211600Z AUTO 05003KT 9999 CLR 16/12 A3011 RMK A02 TSNO
KQEY 211600Z AUTO 15003KT 9999 CLR 15/12 A3010 RMK A02 TSNO
KQFG 211555Z AUTO 13009KT 060V160 9999 CLR 31/11 A2977 RMK AO2 SLP036 T03090105 $
KQFQ 211455Z AUTO VRB03KT 4SM BR CLR 13/13 A3005 RMK AO2 SLP177 T01320132 54000 $
KQFT 211600Z AUTO 01002KT 8000 HZ CLR 15/12 A3008 RMK A02 TSNO
KQFU 211600Z AUTO 06001KT 9999 // CLR 15/12 A3010 RMK A02 TSNO
KQFV 211600Z AUTO 15002KT 6000 CLR 10/09 A3012 RMK A02 TSNO
KQFW 211600Z AUTO 05002KT 3200 BR SCT001 13/11 A3012 RMK A02 TSNO
KQFX 211600Z AUTO 12001KT 6000 FEW002 12/09 A3010 RMK A02 TSNO
KQGV 211555Z 07008KT 9999 CLR 39/03 A2968 RMK SLPNO QNH1005MB PA +688
KQGX 211558Z AUTO 01008KT 9999 CLR 34/23 A2967 RMK AO2 SLPNO T03380231 $
KQHY 211556Z AUTO 09006G12KT 10SM CLR 28/18 A3006 RMK AO2 SLP186 T02780179 $
KQIR 211458Z 07010KT 9999 CLR 36/17 A2964 RMK AO2A SLP038 T03590165 53007 $
KQL5 211555Z 21002KT 8000 HZ CLR 28/15 A2973 RMK SLP030 T02810154
KQLQ 211555Z VRB01KT 9999 CLR 19/M10 A3020 RMK SLP008 WND DATA ESTMD ALTSG/SLP DATA ESTMD
KQND 211555Z AUTO 34001KT 10SM CLR 34/20 A2979 RMK AO2 SLP071 T03360196 $
KQRH 211555Z AUTO 14003KT 9999 CLR 32/24 A2970 RMK AO2 SLP056 T03240237 $
KQSA 211558Z AUTO 35012KT 9999 CLR 26/M08 A2992 RMK AO2 SLP035 T02611081 $
KQSN 211555Z VRB01KT 9999 CLR 22/M14 A3008 RMK AO2A SLP092 WND DATA ESTMD ALSTG/SLP ESTMD T02161144 $
KQTH 211555Z AUTO 07011KT 020V090 9999 CLR 29/20 A2979 RMK AO2 SLP060 T02930201 $
KQTZ 211455Z 33006KT 8000 HZ CLR 36/03 A2972 RMK SLP062 WND DATA ESTMD ALSTG/SLP ESTMD 52005
KQUD 211555Z AUTO 00000KT 6SM CLR 22/19 A3013 RMK AO2 SLP161 T02230192 $
KQVF 211555Z AUTO 19003KT 9999 FEW022 25/20 A3001 RMK AO2 SLP160 T02520199
KQWM 211555Z 04006KT 9999 CLR 37/01 A2970 RMK SLP046 QNH1005
KRAC 211553Z AUTO 29012KT 10SM BKN022 BKN031 OVC039 16/11 A2986 RMK AO2 SLP111 T01560111
KRAL 211553Z 27004KT 10SM OVC015 19/16 A3001 RMK AO2 SLP147 T01940156
KRAP 211552Z 00000KT 10SM CLR 18/03 A3036 RMK AO2 SLP274 T01780033
KRAS 211555Z AUTO 09010KT 5SM -RA SCT018 SCT070 OVC095 25/24 A3001 RMK AO2 P0010 T02450235
KRBD 211553Z 30005KT 10SM CLR 31/19 A3011 RMK AO2 SLP189 T03060189
KRBG 211553Z AUTO 00000KT 10SM CLR 18/13 A2993 RMK AO2 SLP133 T01780128
KRBL 211554Z AUTO 16007KT 10SM CLR 22/15 A2993 RMK AO2 SLP130 T02170150
KRBO 211555Z AUTO 06013G16KT 10SM SCT010 SCT040 BKN070 27/25 A3002 RMK AO2 T02670245
KRBW 211555Z AUTO 29008KT 10SM CLR 28/13 A2999 RMK AO2
KRCA 211558Z AUTO 00000KT 10SM CLR 17/03 A3036 RMK AO2 SLP278 T01650027 $
KRCE 211555Z AUTO 03012KT SCT040 27/20 A3017 RMK AO2
KRCM 211535Z AUTO 32009KT 10SM CLR 22/10 A3016 RMK AO2
KRCR 211555Z AUTO 28011G20KT 10SM SCT033 SCT039 BKN047 18/11 A2985 RMK AO2
KRCX 211555Z AUTO 33010KT 10SM BKN030 BKN035 13/08 A3005 RMK AO2 T01340076
KRCZ 211555Z AUTO 29008KT 10SM CLR 26/17 A2993 RMK AO2 T02550167
KRDD 211553Z 00000KT 10SM CLR 23/15 A2990 RMK AO2 SLP120 T02330150
KRDG 211554Z VRB03KT 2SM OVC008 20/16 A2983 RMK AO2 SFC VIS 10 CIG 006V011 SLP104 T02000161
KRDK 211555Z AUTO 34014KT 10SM CLR 19/10 A3020 RMK AO2
KRDM 211556Z 14003KT 10SM CLR 17/06 A3004 RMK AO2 SLP150 T01670061
KRDR 211558Z AUTO 36007KT 350V090 10SM BKN016 OVC021 14/12 A3023 RMK AO2 BKN V OVC SLP245 T01420122
KRDU 211551Z VRB03KT 10SM BKN250 25/17 A2990 RMK AO2 SLP119 T02500167 $
KREO 211552Z AUTO 04005KT 18/04 A3008 RMK AO1 SLP153 T01830044
KRFD 211554Z 32011G19KT 10SM BKN026 OVC031 16/10 A2995 RMK AO2 SLP141 T01560100
KRFI 211555Z AUTO 01004KT 10SM CLR 29/19 A3011 RMK AO2 T02920194
KRGK 211555Z AUTO 36006G14KT 10SM BKN024 BKN031 OVC036 15/09 A3009 RMK AO2
KRHI 211553Z AUTO 36007G19KT 310V030 10SM OVC024 08/04 A3000 RMK AO2 SLP164 T00830044
KRHP 211555Z AUTO 27004KT 10SM SCT040 BKN048 BKN050 24/18 A3007 RMK AO2 T02410175
KRHV 211547Z 27005KT 10SM OVC018 21/15 A3001
KRIC 211554Z 31007KT 10SM BKN250 26/16 A2984 RMK AO2 SLP107 T02560161
KRIL 211553Z AUTO 00000KT 10SM -RA OVC085 16/10 A3036 RMK AO2 RAB17 SLP225 P0000 T01560100
KRIV 211558Z AUTO 03002KT 10SM OVC010 18/15 A3002 RMK AO2 SLP156 T01800154
KRIW 211553Z AUTO 00000KT 10SM CLR 15/02 A3036 RMK AO2 SLP235 T01500017
KRKD 211555Z AUTO 18009KT 7SM BKN005 BKN050 OVC070 17/16 A2991 RMK AO1
KRKP 211553Z AUTO 16005KT 10SM OVC014 26/24 A3002 RMK AO2 RAB11E22 SLP167 P0000 T02610239
KRKR 211555Z AUTO 36007KT 10SM BKN055 OVC075 24/21 A3012 RMK AO2 T02440206
KRKS 211554Z AUTO 07011KT 10SM CLR 13/02 A3037 RMK AO2 SLP219 T01330022
KRME 211553Z 16007KT 10SM OVC075 22/17 A2972 RMK AO2 SLP061 T02220167
KRMG 211553Z AUTO 27005KT 10SM CLR 28/18 A3003 RMK AO2 SLP161 T02830178
KRMN 211555Z AUTO 16003KT 10SM CLR 24/17 A2987 RMK AO2 T02350166
KRMY 211554Z AUTO 26014G19KT 10SM SCT020 SCT048 OVC060 15/11 A2973 RMK AO2 T01460109
KRNC 211555Z AUTO 25012KT 10SM FEW080 26/21 A3002 RMK
KRND 211558Z AUTO 10009KT 10SM FEW026 29/21 A3008 RMK AO2 SLP178 T02850211
KRNH 211555Z AUTO 32009KT 10SM SCT019 SCT023 BKN030 14/09 A3010 RMK AO2 T01370089
KRNM 211553Z 01003KT 9SM OVC006 17/14 A3001 RMK AO2 SLP153 T01720144 $
KRNO 211555Z 09003KT 10SM FEW090 BKN110 BKN150 BKN200 18/09 A3012 RMK AO2 SLP149 HZ VC S-W-NW T01830094
KRNP 211553Z AUTO 26015G22KT 10SM SCT025 BKN029 BKN038 17/12 A2966 RMK AO2 T01700116
KRNT 211553Z 14004KT 10SM CLR 16/13 A2988 RMK AO2 SLP122 T01560133
KRNV 211555Z AUTO 25006KT 10SM CLR 30/22 A3005 RMK AO2 T03020216
KROA 211554Z 27010KT 10SM FEW041 25/16 A2990 RMK AO2 SLP116 T02500161
KROC 211554Z 21015G26KT 10SM SCT040 BKN050 23/18 A2961 RMK AO2 PK WND 23026/1549 RAE03 SLP027 P0000 T02330183
KROG 211559Z 01009KT 10SM SCT015 23/18 A3017 RMK AO2 RAB02E15B36E46 SLP202 P0000 T02280178
KROS 211554Z AUTO 33009G15KT 10SM SCT025 BKN032 BKN038 14/09 A3012 RMK AO2 T01420086
KROW 211602Z 00000KT 2SM -RA BR SCT010 OVC017 21/20 A3021 RMK AO2 LTG DSNT NW P0002 T02110200
KROX 211554Z AUTO 29006KT 10SM SCT006 OVC028 13/10 A3019 RMK AO2 P0001
KRPD 211555Z AUTO 33010G15KT 10SM SCT023 BKN028 BKN038 14/08 A3007 RMK AO2 T01390078
KRPH 211555Z AUTO 26004KT 10SM CLR 29/18 A3012 RMK AO2 T02930181
KRPJ 211555Z AUTO 31016G22KT 10SM BKN029 OVC038 15/10 A2994 RMK AO2 T01530097
KRQB 211554Z AUTO 33010G15KT 10SM -RA BKN012 BKN028 OVC043 14/14 A2969 RMK AO2 P0007 T01390138
KRQE 211531Z AUTO 10006KT 7SM -RA FEW040 BKN055 OVC085 14/11 A3035 RMK AO2 P0009 T01440111 TSNO
KRQO 211555Z AUTO 01012KT 10SM CLR 28/19 A3016 RMK AO2
KRRL 211555Z AUTO 01019G25KT 10SM SCT023 BKN030 OVC037 11/06 A2999 RMK AO2 T01070061
KRRT 211554Z AUTO 31004KT 10SM SCT016 13/11 A3018 RMK AO2
KRSL 211553Z AUTO 06007KT 10SM CLR 22/09 A3028 RMK AO2 SLP240 T02220089
KRSN 211555Z AUTO 34004KT 10SM CLR 29/21 A3011 RMK AO2 T02930206
KRST 211554Z 35017G22KT 10SM BKN022 14/09 A3010 RMK AO2 PK WND 35027/1500 SLP194 T01440094
KRSV 211555Z AUTO 31012G18KT 10SM CLR 23/13 A2997 RMK AO2 T02320129
KRSW 211553Z VRB06KT 10SM FEW018 29/21 A3001 RMK AO2 SLP158 T02890211 $
KRTN 211553Z AUTO 08007KT 10SM SCT038 21/12 A3042 RMK AO2 SLP218 T02110122
KRTS 211555Z AUTO 32004KT 10SM SCT075 15/10 A3015 RMK AO2
KRUE 211553Z AUTO 32005KT 10SM FEW050 BKN085 27/22 A3009 RMK AO2 SLP182 T02720217
KRUG 211555Z AUTO 33005KT 10SM CLR 14/09 A3026 RMK AO2
KRUQ 211555Z AUTO 26005KT 10SM CLR 26/17 A2993 RMK AO2 T02560168
KRUT 211555Z 19011G15KT 10SM CLR 24/13 A2978 RMK AO1
KRVS 211553Z 03007KT 10SM BKN010 OVC050 25/22 A3014 RMK AO2 SLP210 T02500217
KRWF 211553Z AUTO 33009KT 10SM FEW019 15/10 A3018 RMK AO2 SLP220 T01500100
KRWI 211553Z AUTO 31011KT 10SM CLR 26/16 A2987 RMK AO2 SLP112 T02560161
KRWL 211553Z AUTO 05007KT 10SM CLR 15/03 A3038 RMK AO2 SLP211 T01500033
KRWV 211550Z AUTO 00000KT 10SM CLR 28/23 A3012 RMK AO2
KRXE 211553Z AUTO VRB03KT 10SM CLR 18/07 A3021 RMK AO2 SLP197 T01780067
KRYN 211545Z 26003KT 10SM CLR 26/20 A3005
KRYT 211553Z AUTO VRB03KT 10SM CLR 23/17 A2981 RMK AO2 SLP084 T02330167 $
KRYV 211555Z AUTO 32011G17KT 10SM SCT012 BKN028 BKN032 15/13 A2989 RMK AO2 T01470134
KRYW 211555Z AUTO 07004KT 10SM BKN024 BKN033 OVC050 28/21 A3013 RMK AO2 T02830207
KRYY 211549Z 28008G15KT 10SM FEW030 26/17 A3008
KRZL 211555Z AUTO 27013G18KT 10SM SCT031 SCT037 BKN043 18/12 A2989 RMK AO2
KRZN 211555Z AUTO 35009G17KT 10SM SCT019 SCT025 BKN031 13/08 A3010 RMK AO2 T01250083
KRZR 211555Z AUTO 23009KT 190V250 10SM CLR 27/17 A3003 RMK
KS25 211555Z AUTO 25004KT 10SM CLR 14/04 A3029 RMK AO2
KSAA 211555Z AUTO 00000KT 10SM CLR 13/06 A3039 RMK AO2
KSAC 211553Z 21006KT 10SM CLR 19/14 A2993 RMK AO2 SLP136 T01890139 PNO $
KSAD 211551Z AUTO 13011KT 10SM CLR 26/17 A3009 RMK AO2 SLP138 T02610167
KSAF 211553Z 13017KT 10SM FEW044 23/09 A3037 RMK AO2 WSHFT 1516 SLP181 T02330094
KSAN 211551Z 33005KT 10SM BKN030 23/14 A2999 RMK AO2 SLP155 T02280144
KSAR 211555Z AUTO 33008KT 10SM CLR 23/11 A3006 RMK AO2 T02260105
KSAT 211551Z 08008KT 10SM BKN020 28/22 A3008 RMK AO2 SLP169 BKN V SCT T02830217
KSAV 211553Z 30009KT 10SM FEW250 28/17 A3001 RMK AO2 SLP161 T02830167 $
KSAW 211545Z 36017G23KT 2 1/2SM -RA OVC009 06/05 A2992
KSAZ 211553Z AUTO 33007KT 7SM SCT018 OVC034 13/09 A3017 RMK AO2
KSBA 211553Z 12006KT 10SM OVC009 19/16 A3000 RMK AO2 SLP158 T01940161
KSBD 211545Z 00000KT 5SM BR OVC013 18/15 A3001
KSBM 211601Z AUTO 35020G27KT 10SM SCT024 BKN030 BKN040 15/10 A2986 RMK AO2 PK WND 35027/1601 T01500100
KSBN 211554Z 28021G27KT 10SM SCT027 SCT038 OVC048 17/10 A2981 RMK AO2 PK WND 28029/1511 SLP092 T01670100
KSBO 211555Z AUTO 29007KT 10SM CLR 28/18 A3004 RMK AO2
KSBP 211556Z 00000KT 10SM OVC010 17/14 A3002 RMK AO2 SLP165 T01670144
KSBS 211554Z AUTO 05003KT 10SM BKN070 15/06 A3037 RMK AO1 T01460064
KSBY 211554Z 34004KT 10SM BKN010 25/21 A2978 RMK AO2 SLP086 T02500206
KSCD 211555Z AUTO 26007KT 240V300 10SM CLR 28/19 A3008 RMK AO2 T02780190
KSCF 211555Z AUTO 06016KT 9SM CLR 27/22 A3003 RMK A01
KSCH 211445Z 17010G16KT 10SM FEW020 22/16 A2982
KSCK 211555Z 27012KT 10SM CLR 21/15 A2995 RMK AO2 SLP142 T02110150
KSDA 211555Z AUTO 35012G17KT 10SM CLR 20/09 A3021 RMK AO2
KSDB 211548Z AUTO 23004KT 10SM CLR 19/07 A3012 RMK AO2 SLP154 T01890072
KSDF 211556Z 28014G19KT 10SM BKN026 BKN200 26/18 A2989 RMK AO2 SLP118 T02610183
KSDL 211553Z 15005KT 10SM FEW090 29/17 A2998 RMK AO2 SLP126 T02940167
KSDM 211553Z VRB03KT 10SM SCT021 22/15 A2998 RMK AO2 SLP149 T02220150 $
KSDY 211555Z AUTO 18005KT 10SM CLR 12/06 A3034 RMK AO1
KSEA 211553Z 17004KT 10SM FEW160 16/13 A2989 RMK AO2 SLP127 T01610133
KSEE 211555Z AUTO 00000KT 10SM OVC019 21/15 A3001 RMK AO2
KSEG 211553Z AUTO 20006KT 10SM CLR 23/16 A2979 RMK AO2 SLP084 T02330156
KSEM 211555Z AUTO VRB03KT 10SM CLR 28/19 A3006 RMK AO2
KSEP 211555Z AUTO 17003KT 10SM SCT038 SCT090 27/20 A3017 RMK AO2 T02710201
KSET 211554Z AUTO 29011G16KT 10SM CLR 23/11 A3004 RMK AO1 SLP168 T02280106
KSEZ 211555Z AUTO 24003KT 10SM BKN080 24/15 A3020 RMK AO2
KSFB 211553Z 36003KT 10SM CLR 29/21 A3002 RMK AO2 SLP165 T02890211
KSFF 211553Z 28003KT 10SM CLR 18/07 A3002 RMK AO2 SLP158 T01830072
KSFM 211555Z AUTO 18004KT 10SM BKN008 OVC014 21/17 A2989 RMK AO1
KSFO 211556Z 24007KT 10SM FEW010 BKN013 OVC015 19/16 A3000 RMK AO2 SLP159 T01940156 $
KSFQ 211555Z AUTO 35006KT 10SM BKN014 23/20 A2981 RMK AO2 T02340197
KSFY 211555Z AUTO 31011G18KT 10SM OVC030 16/09 A2998 RMK AO2 T01600094
KSFZ 211555Z 16010G17KT 120V200 10SM SCT013 BKN031 OVC045 24/18 A2988 RMK AO1
KSGF 211552Z 04014KT 10SM CLR 23/08 A3016 RMK AO2 SLP200 T02330083
KSGH 211556Z AUTO 28019G23KT 9SM SCT034 23/12 A2984 RMK AO2 T02330122 SLP095
KSGJ 211558Z 36006KT 10SM CLR 27/21 A3004 RMK AO2 SLP170 T02720206
KSGR 211553Z 10007KT 070V130 10SM CLR 30/22 A3005 RMK AO2 SLP174 T03000217
KSGS 211550Z AUTO 34008G17KT 10SM SCT024 OVC031 15/09 A3011 RMK AO2 T01470086
KSGT 211555Z AUTO 29007KT 10SM CLR 31/22 A3007 RMK AO1
KSGU 211555Z AUTO 00000KT 10SM SCT080 BKN110 21/16 A3011 RMK AO1 TSB20E49 P0006
KSHD 211555Z AUTO 00000KT 10SM CLR 26/14 A2987 RMK AO2 T02610139
KSHL 211555Z AUTO 34010G22KT 10SM FEW031 17/09 A3021 RMK AO2
KSHM 211556Z AUTO 16009KT 10SM FEW050 SCT100 17/10 A3046 RMK AO2 SLP252 T01670096
KSHN 211553Z AUTO 24009KT 10SM OVC004 14/13 A2988 RMK AO2 SLP116 T01390128 TSNO
KSHR 211553Z AUTO 00000KT 10SM CLR 13/06 A3031 RMK AO2 SLP259 T01330056
KSHV 211556Z 34005KT 10SM CLR 31/19 A3008 RMK AO2 SLP181 T03110194
KSIF 211555Z AUTO 23004KT 10SM CLR 26/18 A2990 RMK AO2 T02600176
KSIY 211553Z AUTO 00000KT 10SM CLR 18/07 A3003 RMK AO2 SLP156 T01830067
KSJC 211553Z 30003KT 10SM OVC018 17/14 A3001 RMK AO2 SLP161 T01720139
KSJN 211554Z AUTO 03004KT 10SM CLR 23/13 A3026 RMK AO2 SLP151 T02330128
KSJS 211555Z AUTO 24006KT 10SM OVC021 23/19 A2991 RMK AO2 T02280192
KSJT 211551Z 12005KT 10SM SCT017 BKN034 OVC060 25/21 A3015 RMK AO2 SLP187 T02500206
KSJX 211555Z AUTO 35010G20KT 320V040 10SM SCT016 OVC023 12/09 A2979 RMK AO2 T01160088
KSKA 211558Z AUTO 05006KT 10SM CLR 19/07 A3003 RMK AO2 SLP161 T01860070 $
KSKF 211558Z AUTO 08010KT 10SM SCT023 SCT046 28/22 A3006 RMK AO2 SLP172 T02840217 $
KSKX 211555Z AUTO 11013G17KT 10SM CLR 22/08 A3043 RMK AO1
KSLC 211553Z 19005KT 10SM FEW065 BKN090 BKN110 19/11 A3014 RMK AO2 RAB11E31 SLP161 SH VC N AND SE P0000 T01890106
KSLE 211556Z 16006KT 10SM CLR 19/13 A2990 RMK AO2 SLP123 T01890128
KSLG 211555Z AUTO 36010KT 8SM BKN010 BKN016 OVC120 22/18 A3016 RMK AO1 P0004
KSLH 211558Z AUTO 02008KT 7SM -DZ OVC021 09/08 A2976 RMK AO2 T00920080
KSLI 211558Z VRB01KT 10SM BKN020 21/16 A3000 RMK AO2A SLP162 T02080161
KSLK 211551Z AUTO 20015G22KT 10SM BKN034 22/14 A2970 RMK AO2 PK WND 21028/1523 SLP052 T02170139 $
KSLN 211553Z 35007KT 320V020 10SM CLR 22/13 A3026 RMK AO2 SLP238 T02220128
KSLO 211555Z AUTO 28009KT 10SM CLR 23/13 A3002 RMK AO2 T02310128
KSLR 211555Z AUTO 00000KT 10SM CLR 30/18 A3012 RMK AO2 T03010181
KSME 211555Z AUTO 26009KT 10SM OVC022 22/18 A2997 RMK AO2
KSMF 211553Z 16005KT 10SM BKN120 BKN200 18/13 A2992 RMK AO2 SLP133 T01830128
KSMN 211555Z AUTO 00000KT 10SM CLR 12/06 A3020 RMK AO1
KSMO 211551Z 00000KT 10SM FEW019 BKN029 22/16 A3000 RMK AO2 SLP156 T02170156
KSMQ 211553Z AUTO 00000KT 10SM OVC014 22/18 A2981 RMK AO2 SLP093 T02220178
KSMS 211555Z AUTO 31006G14KT 10SM CLR 27/18 A2996 RMK AO2
KSMX 211551Z 30005KT 10SM OVC012 18/14 A3002 RMK AO2 SLP168 T01830139
KSNA 211553Z 00000KT 10SM BKN023 23/14 A2999 RMK AO2 SLP155 T02280144
KSNC 211555Z AUTO 16007KT 8SM FEW008 BKN012 BKN025 23/21 A2986 RMK AO2
KSNH 211555Z AUTO VRB06KT 10SM CLR 28/21 A3004 RMK
KSNK 211555Z AUTO 14003KT 10SM BKN016 OVC022 24/21 A3019 RMK AO2 T02410211
KSNL 211555Z AUTO 35006KT 10SM BKN040 BKN055 OVC070 27/22 A3016 RMK AO2
KSNS 211553Z 25003KT 10SM OVC017 18/13 A3002 RMK AO2 SLP173 T01830133
KSNT 211551Z AUTO 04003KT 11/02 A3029 RMK AO1 SLP187 T01110022
KSNY 211553Z AUTO 11005KT 10SM OVC070 17/04 A3041 RMK AO2 SLP267 T01720039
KSOA 211555Z AUTO 16007KT 10SM SCT018 SCT023 SCT050 26/20 A3019 RMK AO2
KSOP 211555Z AUTO 29004KT 10SM CLR 26/15 A2992 RMK AO1
KSOW 211555Z AUTO 15005KT 10SM CLR 20/12 A3033 RMK AO2
KSPA 211555Z AUTO 25007KT 7SM CLR 27/17 A2997 RMK AO2
KSPB 211553Z AUTO 15003KT 10SM CLR 17/14 A2989 RMK AO2 SLP120 T01720139
KSPD 211556Z AUTO 08013KT 19/07 A3037 RMK AO1 SLP232 T01940067
KSPF 211535Z AUTO 09003KT 10SM CLR 16/03 A3038 RMK AO2
KSPG 211553Z 11005KT 10SM FEW013 27/23 A3000 RMK AO2 SLP160 T02670228
KSPI 211552Z 32011G20KT 10SM CLR 22/12 A3001 RMK AO2 SLP159 T02170117
KSPL 211555Z AUTO 03007KT 6SM CLR 32/25 A2997 RMK AO1
KSPR 211555Z AUTO 06018KT 9SM SCT018 BKN024 BKN029 29/24 A3001 RMK A01
KSPS 211552Z AUTO 00000KT 10SM CLR 29/20 A3013 RMK AO2 SLP187 T02890200 TSNO
KSPW 211553Z AUTO 35014G21KT 10SM SCT032 17/09 A3019 RMK AO2 SLP224 T01670089
KSQI 211555Z AUTO 34017G22KT 10SM BKN035 17/11 A2996 RMK AO1
KSQL 211548Z VRB03KT 10SM OVC016 18/14 A3001
KSRB 211555Z AUTO 24004KT 10SM 25/20 A3000 RMK
KSRC 211556Z AUTO 31006KT 10SM SCT050 30/21 A3006 RMK AO2 PWINO TSNO T03000205 SLP182 $
KSRQ 211553Z 00000KT 10SM SCT016 28/23 A2999 RMK AO2 SLP156 T02780228
KSRR 211535Z AUTO 07005KT 10SM OVC008 16/15 A3041 RMK AO2
KSSC 211558Z AUTO 28009KT 10SM CLR 27/17 A2995 RMK AO2 SLP142 T02720174 $
KSSF 211553Z 06009KT 10SM FEW024 SCT055 29/22 A3006 RMK AO2 SLP165 T02940217
KSSI 211553Z AUTO 29007KT 10SM CLR 27/17 A3002 RMK AO2 SLP165 T02720172
KSTC 211600Z 33008KT 10SM FEW024 FEW028 BKN036 16/09 A3015 RMK AO2 T01560089
KSTE 211555Z AUTO 35020G27KT 10SM SCT021 BKN028 12/06 A2996 RMK AO2 P0001 T01200064
KSTF 211555Z AUTO 25006KT 10SM CLR 28/18 A3007 RMK AO2
KSTJ 211553Z 34015G21KT 10SM CLR 22/09 A3018 RMK AO2 SLP214 T02170094 $
KSTK 211550Z AUTO 16004KT 10SM SCT070 20/08 A3038 RMK AO2
KSTL 211551Z 30011G21KT 10SM CLR 23/12 A3006 RMK AO2 SLP168 T02330117
KSTP 211553Z 31012KT 10SM SCT021 OVC028 14/10 A3012 RMK AO2 SLP199 T01390100
KSTS 211553Z 25003KT 10SM OVC015 17/13 A2999 RMK AO2 SLP149 T01720133
KSUA 211547Z 30006KT 7SM SCT015 BKN080 27/22 A3003
KSUE 211555Z AUTO 35022G27KT 10SM BKN018 BKN024 OVC070 13/08 A2987 RMK AO1
KSUN 211547Z 32008KT 10SM BKN150 BKN180 17/06 A3020
KSUS 211554Z 30010KT 10SM CLR 23/11 A3005 RMK AO2 SLP171 T02280111 $
KSUT 211555Z AUTO 32012G15KT 290V350 10SM CLR 25/18 A2989 RMK AO2 T02480182
KSUU 211558Z AUTO 24021G27KT 10SM CLR 19/15 A2993 RMK AO2 PK WND 24028/32 SLP142 T01920149 PWINO PNO $
KSUW 211555Z AUTO 35012G15KT 10SM SCT033 14/07 A3009 RMK AO2 T01360070
KSUX 211552Z AUTO 32009KT 10SM CLR 17/09 A3023 RMK AO2 SLP236 T01720089
KSVC 211555Z AUTO 11006KT 10SM FEW048 SCT100 22/16 A3029 RMK AO2 P0006
KSVH 211555Z AUTO 27004KT 10SM CLR 26/18 A2993 RMK AO2 T02550175
KSVN 211558Z AUTO 32009KT 10SM CLR 28/18 A2999 RMK AO2 SLP158 T02770179
KSWF 211545Z 00000KT 10SM BKN014 21/19 A2985
KSWO 211553Z 05012KT 10SM OVC016 24/19 A3016 RMK AO2 SLP203 T02440189
KSWW 211555Z AUTO 15004KT 10SM SCT015 SCT023 BKN032 25/21 A3021 RMK AO2 T02520213
KSXS 211556Z AUTO VRB04KT 10SM CLR 28/17 A3009 RMK AO2 SLP188 T02770172
KSXT 211556Z AUTO 17005KT 10SM CLR 19/09 A3004 RMK AO2 SLP118 T01890089
KSYF 211555Z AUTO 05005KT 10SM CLR 18/05 A3038 RMK AO2 T01810047
KSYI 211555Z AUTO 25012KT 10SM CLR 28/20 A3002 RMK
KSYM 211550Z AUTO 23009KT 10SM OVC020 23/19 A2991 RMK AO2
KSYN 211550Z AUTO 32010KT 10SM SCT021 OVC028 14/09 A3010 RMK AO2 T01390093
KSYR 211554Z 17007KT 10SM FEW060 BKN090 OVC140 23/17 A2968 RMK AO2 RAB12E40 SLP043 P0000 T02280172
KSZL 211558Z AUTO 33010KT 10SM CLR 22/11 A3015 RMK AO2 RAB1536E1537DZB1537E1546 SLP206 P0000 T02170109 $
KSZT 211555Z AUTO 05009KT 10SM CLR 17/08 A3006 RMK AO2
KT20 211555Z AUTO 07009KT 10SM BKN019 BKN025 BKN031 29/25 A3007 RMK AO2 T02890245
KT35 211555Z AUTO 05004KT 10SM CLR 29/22 A3010 RMK AO2 T02890219
KT65 211555Z AUTO 35007KT 7SM BKN013 29/24 A2998 RMK AO2 T02920238
KT82 211555Z AUTO 00000KT 10SM BKN019 BKN025 OVC044 25/20 A3014 RMK AO2 T02540201
KTAD 211554Z AUTO 11005KT 10SM OVC036 18/12 A3041 RMK AO2 SLP231 T01830122
KTAN 211552Z AUTO 15009G15KT 10SM FEW022 SCT036 BKN044 24/21 A2987 RMK AO2 RAB39E50 SLP114 P0000 T02440206
KTAZ 211555Z AUTO 29013G21KT 10SM CLR 21/10 A3000 RMK AO2
KTBN 211558Z AUTO 33007KT 6SM HZ CLR 22/11 A3013 RMK AO2 SLP197 T02230113
KTBR 211555Z AUTO 28006KT 10SM CLR 27/18 A3002 RMK AO2 T02740178
KTBX 211555Z AUTO 13013KT 10SM CLR 12/01 A3050 RMK AO2
KTCC 211600Z AUTO 07009KT 10SM SCT012 SCT017 BKN034 23/16 A3029 RMK AO2 T02330161
KTCL 211553Z 24006KT 10SM CLR 28/18 A3007 RMK AO2 SLP180 T02780183
KTCM 211558Z AUTO 18002KT 10SM CLR 14/13 A2990 RMK AO2 SLP128 T01390133 $
KTCS 211553Z AUTO 01012KT 10SM FEW047 23/17 A3024 RMK AO2 SLP160 T02280167 TSNO
KTDF 211555Z AUTO 30006KT 10SM CLR 25/16 A2991 RMK AO2
KTDR 211556Z AUTO M 10SM CLR 28/20 A3003 RMK AO2 SLP173 T02760203 $
KTDZ 211553Z AUTO 27021G27KT 10SM FEW039 21/09 A2973 RMK AO2 PK WND 26028/1457 SLP063 T02060094 TSNO
KTEB 211558Z 01004KT 3SM BR OVC007 22/19 A2981 RMK AO2 $
KTEW 211553Z AUTO 26007KT 7SM SCT022 BKN038 OVC065 14/12 A2971 RMK AO2 T01370119
KTFP 211555Z AUTO 08009KT 7SM -RA SCT028 SCT042 OVC050 25/24 A3002 RMK AO2 P0007 T02500237
KTHV 211553Z AUTO 10SM CLR 25/17 A2982 RMK AO2 SLP097 T02500172
KTIF 211555Z AUTO 01005KT 10SM CLR 19/04 A3036 RMK AO2 T01890044
KTIK 211558Z AUTO 35010G15KT 10SM FEW041 27/20 A3015 RMK AO2 SLP204 T02730199 $
KTIP 211550Z AUTO 30013G23KT 10SM CLR 21/10 A2994 RMK AO2 T02110096
KTIW 211553Z 17004KT 10SM CLR 15/13 A2989 RMK AO2 SLP120 T01500133
KTIX 211550Z 05008KT 7SM SCT025 SCT100 27/23 A3003
KTKC 211553Z AUTO 33012KT 10SM SCT023 16/10 A3021 RMK AO2 T01550096
KTKI 211553Z 22005KT 10SM CLR 30/19 A3011 RMK AO2 SLP192 T03000189 $
KTKV 211555Z AUTO 33010G20KT 10SM SCT021 OVC030 09/05 A3001 RMK AO2 T00920054
KTLH 211553Z 04003KT 10SM FEW250 28/16 A3005 RMK AO2 SLP174 T02780161
KTMA 211550Z AUTO 30003KT 10SM CLR 27/13 A3005 RMK AO2 T02720130 TSNO
KTMB 211553Z 00000KT 10SM CLR 31/22 A3001 RMK AO2 SLP161 T03110217
KTME 211555Z AUTO 06009KT 10SM CLR 29/29 A3007 RMK AO2
KTMK 211555Z AUTO 00000KT 10SM OVC007 15/14 A2995 RMK AO2
KTNB 211555Z AUTO 32017G25KT 280V350 10SM SCT018 BKN024 BKN029 20/14 A3004 RMK AO2 T01990143
KTNU 211555Z AUTO 32013G24KT 10SM CLR 18/09 A3011 RMK AO2
KTOA 211550Z 30007KT 10SM BKN025 23/18 A3000
KTOB 211554Z AUTO 35011G19KT 10SM BKN022 OVC028 13/09 A3011 RMK AO2
KTOC 211555Z AUTO 30005G14KT 10SM CLR 28/17 A3002 RMK AO2 T02800168
KTOI 211553Z AUTO 18003KT 10SM CLR 28/17 A3008 RMK AO2 SLP179 T02780172
KTOL 211552Z 27018G23KT 10SM BKN038 BKN046 20/11 A2973 RMK AO2 PK WND 28028/1515 SLP065 T02000111 $
KTOP 211553Z 30007KT 10SM CLR 22/14 A3020 RMK AO2 SLP222 T02220139
KTOR 211553Z AUTO 13008KT 10SM CLR 18/04 A3038 RMK AO2 SLP261 T01780039 $
KTPA 211553Z VRB03KT 10SM BKN022 BKN270 28/21 A3002 RMK AO2 SLP166 T02780211
KTPH 211556Z AUTO 02008KT 10SM CLR 16/09 A3019 RMK AO2 SLP175 T01610094 $
KTPL 211555Z AUTO 09005KT 10SM CLR 29/20 A3010 RMK AO1
KTQE 211554Z AUTO 34014G19KT 10SM CLR 20/09 A3023 RMK AO2 SLP227 T02000089
KTRI 211553Z 23010KT 10SM SCT029 BKN042 25/16 A3001 RMK AO2 SLP139 T02500161
KTRK 211450Z 00000KT 1/4SM FU OVC005 11/06 A3018 RMK NOFU OVC005
KTRL 211553Z AUTO VRB03KT 10SM CLR 31/18 A3011 RMK AO2 SLP189 T03060178
KTRM 211552Z AUTO 35004KT 10SM CLR 28/14 A2985 RMK AO2 SLP110 T02830144 TSNO
KTSP 211555Z AUTO 29004KT 10SM CLR 18/10 A3010 RMK AO2
KTTA 211555Z AUTO 26004KT 10SM CLR 26/17 A2990 RMK AO2 T02560174
KTTD 211553Z 00000KT 10SM CLR 21/13 A2988 RMK AO2 SLP119 T02110128
KTTF 211554Z AUTO 26017G22KT 10SM SCT040 SCT047 21/12 A2969 RMK AO2
KTTN 211553Z 00000KT 10SM OVC008 21/18 A2982 RMK AO2 SLP091 T02110183
KTTS 211558Z AUTO 02007KT 10SM FEW200 28/23 A3002 RMK AO2 SLP169 T02810232 $
KTUL 211553Z 02007KT 10SM BKN017 OVC070 24/23 A3015 RMK AO2 RAE26 TSE07 SLP201 TS MOV SE P0008 T02390228 $
KTUP 211553Z 28009KT 10SM CLR 28/19 A3006 RMK AO2 SLP174 T02830189 $
KTUS 211553Z AUTO 00000KT 10SM BKN065 OVC080 26/18 A3006 RMK AO2 SLP134 T02610178
KTVC 211553Z 01014G24KT 7SM -RA SCT012 BKN022 OVC038 13/11 A2972 RMK AO2 PRESRR SLP066 P0003 T01280106
KTVF 211555Z AUTO 31009KT 10SM FEW011 OVC015 13/11 A3020 RMK AO1
KTVI 211555Z AUTO 07003KT 10SM CLR 28/15 A3006 RMK AO2
KTVK 211555Z AUTO 31012G18KT 10SM CLR 19/10 A3013 RMK AO2
KTVL 211553Z AUTO 00000KT 10SM OVC120 13/05 A3019 RMK AO2 SLP174 T01330050
KTVR 211553Z AUTO 29003KT 10SM CLR 30/20 A3007 RMK AO2 SLP189 T03000200 TSNO
KTWF 211553Z 19004KT 10SM -RA BKN100 BKN120 18/07 A3013 RMK AO2 RAB49 SLP157 P0000 T01830072
KTWM 211554Z AUTO 35008KT 10SM SCT030 13/06 A3007 RMK AO2
KTXK 211553Z 30004KT 10SM CLR 30/21 A3009 RMK AO2 SLP184 T03000211
KTYQ 211555Z AUTO 27014G21KT 250V310 10SM CLR 21/11 A2990 RMK AO2 T02050105
KTYR 211553Z 32003KT 10SM CLR 29/19 A3011 RMK AO2 SLP188 T02940194
KTYS 211553Z 22010KT 10SM CLR 27/17 A3000 RMK AO2 SLP149 T02670172
KTZR 211550Z 26016G23KT 10SM SCT039 SCT046 26/16 A2979
KU16 211458Z AUTO 00000KT 10SM OVC100 18/14 A3012 RMK AO2 RAB01E25 SLP820 P0000 60001 T01780144 51008 $
KU68 211555Z AUTO 00000KT 10SM CLR 15/05 RMK AO2 PWINO
KUAO 211553Z AUTO VRB04KT 10SM CLR 18/13 A2991 RMK AO2 SLP125 T01830133
KUBE 211555Z AUTO 35011G17KT 10SM SCT019 BKN024 OVC038 12/08 A3007 RMK AO2
KUCY 211555Z AUTO 27004KT 10SM BKN070 24/22 A3000 RMK
KUDG 211555Z AUTO 27005KT 10SM CLR 27/17 A2995 RMK AO1
KUES 211545Z 31012G19KT 10SM OVC011 12/11 A2989
KUGN 211552Z 30013G22KT 10SM BKN019 15/11 A2985 RMK AO2 SLP105 T01500106
KUIL 211553Z AUTO VRB06G15KT 5SM BR OVC005 16/14 A2988 RMK AO2 SLP118 T01560144
KUIN 211554Z AUTO 31016G22KT 10SM CLR 20/10 A3006 RMK AO2 SLP173 T02000100
KUKF 211555Z AUTO 21003KT 10SM CLR 26/18 A2999 RMK AO2
KUKI 211556Z AUTO 00000KT 10SM BKN007 15/12 A2999 RMK AO2 SLP149 T01500122
KUKT 211555Z AUTO 00000KT 10SM CLR 22/16 A2984 RMK AO1
KULM 211554Z AUTO 34011G16KT 10SM SCT028 BKN035 15/10 A3016 RMK AO2
KUNI 211555Z AUTO 25010G15KT 10SM SCT024 SCT028 OVC120 24/18 A2981 RMK AO2 T02420180
KUNO 211553Z AUTO 01011G14KT 10SM CLR 24/12 A3012 RMK AO2 SLP186 T02440122
KUNU 211555Z AUTO 33009G14KT 10SM BKN016 BKN022 OVC060 14/12 A2991 RMK AO2 T01400116
KUNV 211553Z 21010KT 10SM SCT100 23/17 A2977
KUOX 211555Z AUTO 24006KT 10SM CLR 27/19 A3008 RMK AO2 PWINO PNO
KUSE 211555Z AUTO 27015G25KT 10SM BKN037 OVC045 20/11 A2975 RMK AO2
KUTA 211555Z AUTO 27006KT 10SM CLR 29/20 A3006 RMK AO2
KUTS 211553Z AUTO 00000KT 10SM CLR 29/19 A3009 RMK AO2 SLP184 T02890194
KUUU 211553Z AUTO 14010KT 10SM FEW007 FEW038 FEW065 24/21 A2987 RMK AO2 SLP114 T02390206
KUVA 211555Z AUTO 08007KT 10SM BKN021 BKN027 BKN042 28/23 A3009 RMK AO2 T02750227
KUXL 211555Z AUTO 03004KT 10SM CLR 29/21 A3006 RMK AO2 T02940213
KUZA 211554Z AUTO 25007KT 10SM CLR 27/17 A2997 RMK AO2 SLP137 T02670172
KVAD 211558Z AUTO VRB04KT 10SM CLR 27/17 A3005 RMK AO2 SLP176 T02740165 $
KVAF 211555Z AUTO 02004KT 3SM HZ SCT018 SCT037 BKN060 27/25 A3000 RMK A01
KVAY 211554Z AUTO 01003KT 6SM BR OVC006 21/19 A2982 RMK AO2 SLP097 T02110189
KVBG 211555Z AUTO 01005KT 10SM OVC010 17/15 A3003 RMK AO2 SLP160 T01720150 TSNO
KVBT 211555Z AUTO 03006KT 10SM SCT013 BKN018 BKN120 22/19 A3016 RMK AO1 P0002
KVCB 211553Z AUTO 22005KT 10SM CLR 21/12 A2994 RMK AO2 SLP136 T02060117 TSNO
KVCT 211551Z 07013KT 10SM FEW024 30/23 A3004 RMK AO2 SLP172 T03000233 $
KVCV 211555Z AUTO 00000KT 10SM CLR 21/10 A3003 RMK AO2
KVDF 211555Z AUTO 14003KT 10SM BKN018 29/22 A3003 RMK AO2 P0001
KVDI 211555Z AUTO 29006KT 10SM CLR 28/17 A3004 RMK AO2
KVEL 211553Z AUTO 13005KT 10SM BKN095 BKN110 13/09 A3031 RMK AO2 RAE44 SLP222 P0009 T01330094
KVER 211555Z AUTO 31011G16KT 10SM 22/09 A3012 RMK AO2 T02190087
KVES 211555Z AUTO 29015G24KT 10SM CLR 21/09 A2983 RMK AO2
KVGT 211553Z 00000KT 10SM BKN090 25/15 A3001 RMK AO2 SLP155 T02500150 $
KVIH 211553Z AUTO 32010KT 10SM CLR 22/11 A3011 RMK AO2 SLP186 T02170106
KVIS 211555Z AUTO 08003KT 10SM FEW120 20/13 A2996 RMK AO1
KVJI 211555Z AUTO 27009G14KT 10SM BKN017 OVC029 22/18 A3002 RMK AO2 T02230175
KVLD 211553Z 05003KT 10SM CLR 28/15 A3005 RMK AO2 SLP180 T02780150
KVLL 211555Z AUTO 26013G22KT 10SM SCT029 SCT042 SCT060 20/11 A2968 RMK AO2 T01980112
KVNY 211551Z 00000KT 10SM OVC022 19/14 A3001 RMK AO2 SLP154 T01940144
KVOA 211555Z AUTO 08020KT CLR 29/23 A3000 RMK A01
KVOK 211558Z 35008G19KT 10SM BKN018 BKN030 15/13 A2998 RMK AO2A SLP156
KVPC 211553Z AUTO VRB05KT 10SM FEW037 27/17 A3006 RMK AO2 SLP167 T02720172
KVPS 211555Z 14008KT 10SM CLR 28/19 A3005 RMK AO2A SLP182 T02820188 $
KVPZ 211553Z AUTO 30015G24KT 10SM SCT036 OVC044 16/09 A2986 RMK AO2 SLP108 T01610094 TSNO
KVQQ 211550Z 02005KT 10SM CLR 27/18 A3004
KVRB 211553Z 00000KT 10SM SCT027 27/19 A3001 RMK AO2 SLP162 T02720194
KVSF 211554Z AUTO 19009G16KT 10SM SCT028 23/17 A2982 RMK AO2 SLP097 T02330167
KVSH 211555Z AUTO 07003KT 10SM FEW028 29/19 A3004 RMK AO1
KVTA 211554Z AUTO 28014G21KT 10SM FEW030 FEW035 26/16 A2976 RMK AO2 SLP072 T02560161
KVTI 211555Z AUTO 34012G21KT 10SM BKN020 BKN025 14/10 A3008 RMK AO2 T01430097
KVTN 211552Z AUTO 36008KT 330V030 10SM CLR 19/03 A3034 RMK AO2 SLP270 T01940033
KVTP 211552Z AUTO 03004KT M1/4SM FG OVC002 09/08 A3063 RMK AO2
KVUJ 211555Z AUTO 29004KT 10SM CLR 26/18 A2997 RMK AO2 T02640178
KVUO 211553Z AUTO 00000KT 10SM CLR 18/14 A2989 RMK AO2 SLP122 T01830144
KVVG 211555Z AUTO 00000KT 3SM HZ 29/22 A2993 RMK A01
KVVV 211554Z AUTO 33008KT 10SM BKN018 15/10 A3021 RMK AO2
KVWU 211556Z AUTO 36006KT 10SM SCT025 SCT029 12/12 A3018 RMK AO2
KVYS 211555Z AUTO 32017G25KT 10SM OVC027 16/10 A2996 RMK AO2 T01570101
KW13 211555Z AUTO 24003KT 10SM CLR 25/16 A2987 RMK AO1 T02480155
KW22 211555Z AUTO 22012G17KT 10SM OVC018 22/18 A2986 RMK AO2
KW29 211545Z AUTO 33008KT 279V339 10SM 22/17 A2983 RMK AO1
KW31 211555Z AUTO 00000KT 10SM CLR 25/18 A2986 RMK AO1 T02500180
KW43 211555Z AUTO 10SM CLR 15/03 A3037 RMK AO2
KW63 211555Z AUTO 27003KT 10SM CLR 24/17 A2987 RMK AO1
KW75 211555Z AUTO 31007KT 10SM SCT009 OVC015 23/20 A2981 RMK AO1 T02260198
KW78 211555Z AUTO 00000KT 10SM CLR 25/18 A2987 RMK AO1 T02540177
KW81 211555Z AUTO 24003KT 10SM CLR 25/16 A2985 RMK AO1 T02530156
KW96 211555Z AUTO 31007KT 10SM CLR 25/17 A2983 RMK AO1 T02450173
KW99 211555Z AUTO 24003KT 10SM BKN049 28/14 A2980 RMK AO2 T02800141
KWAL 211554Z AUTO 03005KT 10SM FEW008 26/22 A2978 RMK AO2 SLP080 T02560222 $
KWDG 211550Z 05015G22KT 10SM SCT048 BKN070 OVC100 22/13 A3019
KWDR 211555Z AUTO 28008KT 10SM CLR 29/19 A3007 RMK AO2 T02890193 PWINO
KWHP 211553Z 00000KT 10SM OVC016 19/14 A3004
KWJF 211556Z 00000KT 10SM CLR 21/06 A3002 RMK AO2 SLP152 T02110061
KWLD 211554Z AUTO 06013KT 10SM CLR 24/08 A3021 RMK AO2 SLP219 T02440083
KWMC 211556Z AUTO 10005KT 10SM BKN100 17/11 A3014 RMK AO2 SLP165 T01670106 $
KWRB 211558Z AUTO VRB03KT 10SM CLR 28/17 A3004 RMK AO2 SLP173 T02770169
KWRI 211558Z AUTO 32002KT 10SM OVC007 22/20 A2980 RMK AO2 RAB1457E1506 SLP094 P0000 T02170202
KWRL 211553Z AUTO 27003KT 10SM CLR 15/07 A3030 RMK AO2 SLP238 T01500067
KWST 211559Z AUTO 13006KT 8SM BKN012 BKN025 OVC046 23/21 A2986 RMK AO2 T02330206
KWVI 211553Z AUTO 00000KT 10SM OVC014 18/14 A3002 RMK AO2 SLP165 T01830139
KWVL 211555Z 20004KT 4SM OVC003 17/14 A2984 RMK AO1 P0007
KWWD 211555Z AUTO 06004KT 10SM FEW010 24/19 A2980 RMK AO1
KWWR 211555Z AUTO 05012G17KT 10SM OVC033 22/11 A3027 RMK AO2
KWYS 211550Z AUTO 00000KT 10SM CLR 08/04 A3036 RMK AO2
KXBP 211555Z AUTO 00000KT 10SM CLR 28/17 A3014 RMK AO2 T02840171
KXFL 211450Z 01003KT 7SM BKN019 27/22 A3004
KXIH 211555Z AUTO 09016KT 9SM FEW026 28/21 A3003 RMK A01
KXLL 211555Z AUTO 00000KT 10SM BKN010 18/16 A2985 RMK AO2
KXMR 211558Z AUTO VRB05KT 10SM CLR 29/24 A3001 RMK AO2 DZB1540E1549 CIG 027 RWY31 SLP165 P0000 T02850235
KXNA 211553Z 36011KT 10SM FEW008 SCT014 BKN120 22/21 A3015 RMK AO2 SLP199 T02220206
KXPY 211555Z AUTO 05011KT 10SM CLR 28/23 A3005 RMK A01
KXSA 211555Z AUTO 00000KT 10SM CLR 26/16 A2983 RMK AO2 T02560160
KXVG 211556Z AUTO 35007KT 314V034 10SM SCT023 BKN030 BKN035 14/09 A3015 RMK AO2
KY19 211555Z AUTO 30004KT 10SM CLR 15/07 A3031 RMK AO2
KY23 211555Z AUTO 33010G17KT 10SM SCT026 BKN031 BKN040 14/08 A3006 RMK AO2 T01380080
KY49 211555Z AUTO 34005KT 10SM SCT019 BKN028 13/09 A3016 RMK AO2 T01310086
KY50 211556Z AUTO 35012G19KT 10SM FEW020 SCT025 SCT060 17/11 A2993 RMK AO2 TSNO T01660111 SLP131
KY51 211555Z AUTO 35009KT 10SM OVC010 13/12 A3001 RMK AO1 T01310124
KY63 211554Z AUTO 33011G15KT 10SM OVC012 13/10 A3020 RMK AO2 T01250096
KY70 211554Z AUTO 28008KT 10SM SCT016 BKN021 BKN031 16/13 A2967 RMK AO2 T01630133
KYIP 211553Z AUTO 29020G28KT 10SM SCT037 BKN049 BKN060 22/12 A2969 RMK AO2 PK WND 26028/1545 SLP047 T02170117 TSNO
KYKM 211553Z 27004KT 10SM CLR 18/10 A2998 RMK AO2 SLP148 T01780100
KYKN 211555Z AUTO 31009KT 10SM CLR 16/08 A3026 RMK AO1
KYNG 211551Z 25017G26KT 10SM SCT023 SCT100 24/17 A2970 RMK AO2 PK WND 25026/1549 SLP049 VCSH S T02440167 $
KZPH 211555Z AUTO 00000KT SCT018 27/23 A3004 RMK AO2 PWINO
KZZV 211553Z AUTO 23014G18KT 10SM SCT024 BKN030 BKN039 25/18 A2977 RMK AO2 SLP073 T02500178